<?xml version="1.0" encoding="UTF-8" standalone="no" ?>
<gpx xmlns="http://www.topografix.com/GPX/1/1" xmlns:xsi="http://www.w3.org/2001/XMLSchema-instance" xsi:schemaLocation="http://www.topografix.com/GPX/1/1 http://www.topografix.com/GPX/1/1/gpx.xsd" version="1.1" creator="VisuGPX - https://www.visugpx.com">
  <metadata>
    <name>étape 2</name>
  </metadata>
  <trk>
    <name><![CDATA[étape 2_1]]></name>
    <extensions>
      <line xmlns="http://www.topografix.com/GPX/gpx_style/0/2">
        <color>0000FF</color>
        <width>4</width>
      </line>
    </extensions>
    <trkseg>
      <trkpt lat="44.62993" lon="1.07972">
        <ele>220.84693908691</ele>
        <time>2019-03-30T10:49:13.016Z</time>
      </trkpt>
      <trkpt lat="44.62974" lon="1.07984">
        <ele>222.15327453613</ele>
        <time>2019-03-30T10:49:22.047Z</time>
      </trkpt>
      <trkpt lat="44.62945" lon="1.07978">
        <ele>222.4069519043</ele>
        <time>2019-03-30T10:49:31.083Z</time>
      </trkpt>
      <trkpt lat="44.62943" lon="1.07979">
        <ele>222.1688079834</ele>
        <time>2019-03-30T10:49:40.119Z</time>
      </trkpt>
      <trkpt lat="44.62934" lon="1.07982">
        <ele>221.40933227539</ele>
        <time>2019-03-30T10:49:49.157Z</time>
      </trkpt>
      <trkpt lat="44.62901" lon="1.08025">
        <ele>221.08042907715</ele>
        <time>2019-03-30T10:49:58.202Z</time>
      </trkpt>
      <trkpt lat="44.6289" lon="1.08042">
        <ele>222.5350189209</ele>
        <time>2019-03-30T10:50:07.249Z</time>
      </trkpt>
      <trkpt lat="44.6284" lon="1.08111">
        <ele>223.99610900879</ele>
        <time>2019-03-30T10:50:16.308Z</time>
      </trkpt>
      <trkpt lat="44.62824" lon="1.08147">
        <ele>227.58825683594</ele>
        <time>2019-03-30T10:50:25.371Z</time>
      </trkpt>
      <trkpt lat="44.62792" lon="1.08257">
        <ele>234.00605773926</ele>
        <time>2019-03-30T10:50:34.448Z</time>
      </trkpt>
      <trkpt lat="44.62764" lon="1.08355">
        <ele>235.03009033203</ele>
        <time>2019-03-30T10:50:43.537Z</time>
      </trkpt>
      <trkpt lat="44.62758" lon="1.08398">
        <ele>233.13780212402</ele>
        <time>2019-03-30T10:50:52.631Z</time>
      </trkpt>
      <trkpt lat="44.62758" lon="1.08398">
        <ele>233.13629150391</ele>
        <time>2019-03-30T10:51:01.725Z</time>
      </trkpt>
      <trkpt lat="44.62759" lon="1.08557">
        <ele>236.30513000488</ele>
        <time>2019-03-30T10:51:10.837Z</time>
      </trkpt>
      <trkpt lat="44.62772" lon="1.08666">
        <ele>238.06211853027</ele>
        <time>2019-03-30T10:51:19.962Z</time>
      </trkpt>
      <trkpt lat="44.62766" lon="1.08742">
        <ele>242.02946472168</ele>
        <time>2019-03-30T10:51:29.095Z</time>
      </trkpt>
      <trkpt lat="44.62766" lon="1.08742">
        <ele>242.0277557373</ele>
        <time>2019-03-30T10:51:38.229Z</time>
      </trkpt>
      <trkpt lat="44.62752" lon="1.08822">
        <ele>244.22003173828</ele>
        <time>2019-03-30T10:51:47.372Z</time>
      </trkpt>
      <trkpt lat="44.62756" lon="1.0897">
        <ele>241.15545654297</ele>
        <time>2019-03-30T10:51:56.532Z</time>
      </trkpt>
      <trkpt lat="44.62737" lon="1.09034">
        <ele>240.65498352051</ele>
        <time>2019-03-30T10:52:05.700Z</time>
      </trkpt>
      <trkpt lat="44.62737" lon="1.09036">
        <ele>240.62434387207</ele>
        <time>2019-03-30T10:52:14.868Z</time>
      </trkpt>
      <trkpt lat="44.62736" lon="1.09037">
        <ele>240.60319519043</ele>
        <time>2019-03-30T10:52:24.036Z</time>
      </trkpt>
      <trkpt lat="44.62736" lon="1.09037">
        <ele>240.60389709473</ele>
        <time>2019-03-30T10:52:33.204Z</time>
      </trkpt>
      <trkpt lat="44.62719" lon="1.09096">
        <ele>236.91613769531</ele>
        <time>2019-03-30T10:52:42.379Z</time>
      </trkpt>
      <trkpt lat="44.62714" lon="1.09149">
        <ele>232.68179321289</ele>
        <time>2019-03-30T10:52:51.561Z</time>
      </trkpt>
      <trkpt lat="44.62748" lon="1.09397">
        <ele>220.21580505371</ele>
        <time>2019-03-30T10:53:00.771Z</time>
      </trkpt>
      <trkpt lat="44.62766" lon="1.09446">
        <ele>217.0684967041</ele>
        <time>2019-03-30T10:53:09.988Z</time>
      </trkpt>
      <trkpt lat="44.62804" lon="1.09514">
        <ele>217.99719238281</ele>
        <time>2019-03-30T10:53:19.215Z</time>
      </trkpt>
      <trkpt lat="44.62822" lon="1.09575">
        <ele>215.16275024414</ele>
        <time>2019-03-30T10:53:28.449Z</time>
      </trkpt>
      <trkpt lat="44.62826" lon="1.0964">
        <ele>210.8656463623</ele>
        <time>2019-03-30T10:53:37.691Z</time>
      </trkpt>
      <trkpt lat="44.62834" lon="1.09679">
        <ele>206.91471862793</ele>
        <time>2019-03-30T10:53:46.937Z</time>
      </trkpt>
      <trkpt lat="44.629" lon="1.09763">
        <ele>211.66064453125</ele>
        <time>2019-03-30T10:53:56.198Z</time>
      </trkpt>
      <trkpt lat="44.62919" lon="1.09832">
        <ele>212.05969238281</ele>
        <time>2019-03-30T10:54:05.467Z</time>
      </trkpt>
      <trkpt lat="44.62919" lon="1.09832">
        <ele>212.05798339844</ele>
        <time>2019-03-30T10:54:14.736Z</time>
      </trkpt>
      <trkpt lat="44.62935" lon="1.09932">
        <ele>212.99928283691</ele>
        <time>2019-03-30T10:54:24.017Z</time>
      </trkpt>
      <trkpt lat="44.62952" lon="1.09987">
        <ele>215.08148193359</ele>
        <time>2019-03-30T10:54:33.305Z</time>
      </trkpt>
      <trkpt lat="44.63018" lon="1.10108">
        <ele>217.42129516602</ele>
        <time>2019-03-30T10:54:42.610Z</time>
      </trkpt>
      <trkpt lat="44.63041" lon="1.10175">
        <ele>216.41793823242</ele>
        <time>2019-03-30T10:54:51.923Z</time>
      </trkpt>
      <trkpt lat="44.63072" lon="1.10329">
        <ele>214.51229858398</ele>
        <time>2019-03-30T10:55:01.255Z</time>
      </trkpt>
      <trkpt lat="44.63114" lon="1.10492">
        <ele>215.49395751953</ele>
        <time>2019-03-30T10:55:10.606Z</time>
      </trkpt>
      <trkpt lat="44.63123" lon="1.1056">
        <ele>215.62115478516</ele>
        <time>2019-03-30T10:55:19.965Z</time>
      </trkpt>
      <trkpt lat="44.63112" lon="1.10637">
        <ele>216.70526123047</ele>
        <time>2019-03-30T10:55:29.333Z</time>
      </trkpt>
      <trkpt lat="44.63094" lon="1.10682">
        <ele>221.54063415527</ele>
        <time>2019-03-30T10:55:38.707Z</time>
      </trkpt>
      <trkpt lat="44.63001" lon="1.10855">
        <ele>221.14833068848</ele>
        <time>2019-03-30T10:55:48.106Z</time>
      </trkpt>
      <trkpt lat="44.63" lon="1.10856">
        <ele>221.2845916748</ele>
        <time>2019-03-30T10:55:57.505Z</time>
      </trkpt>
      <trkpt lat="44.62999" lon="1.10857">
        <ele>221.3720703125</ele>
        <time>2019-03-30T10:56:06.904Z</time>
      </trkpt>
      <trkpt lat="44.62999" lon="1.10857">
        <ele>221.36985778809</ele>
        <time>2019-03-30T10:56:16.303Z</time>
      </trkpt>
      <trkpt lat="44.62993" lon="1.10869">
        <ele>220.30783081055</ele>
        <time>2019-03-30T10:56:25.704Z</time>
      </trkpt>
      <trkpt lat="44.62966" lon="1.10931">
        <ele>217.26599121094</ele>
        <time>2019-03-30T10:56:35.113Z</time>
      </trkpt>
      <trkpt lat="44.62906" lon="1.11144">
        <ele>217.00926208496</ele>
        <time>2019-03-30T10:56:44.549Z</time>
      </trkpt>
      <trkpt lat="44.62978" lon="1.11416">
        <ele>224.4243927002</ele>
        <time>2019-03-30T10:56:54.018Z</time>
      </trkpt>
      <trkpt lat="44.62983" lon="1.11436">
        <ele>225.83813476562</ele>
        <time>2019-03-30T10:57:03.489Z</time>
      </trkpt>
      <trkpt lat="44.63013" lon="1.11548">
        <ele>234.66117858887</ele>
        <time>2019-03-30T10:57:12.974Z</time>
      </trkpt>
      <trkpt lat="44.63011" lon="1.11623">
        <ele>239.78517150879</ele>
        <time>2019-03-30T10:57:22.467Z</time>
      </trkpt>
      <trkpt lat="44.63036" lon="1.11752">
        <ele>243.39985656738</ele>
        <time>2019-03-30T10:57:31.976Z</time>
      </trkpt>
      <trkpt lat="44.6303" lon="1.11796">
        <ele>242.78771972656</ele>
        <time>2019-03-30T10:57:41.490Z</time>
      </trkpt>
      <trkpt lat="44.6299" lon="1.11856">
        <ele>244.96737670898</ele>
        <time>2019-03-30T10:57:51.013Z</time>
      </trkpt>
      <trkpt lat="44.6299" lon="1.11856">
        <ele>244.9677734375</ele>
        <time>2019-03-30T10:58:00.536Z</time>
      </trkpt>
      <trkpt lat="44.62976" lon="1.11871">
        <ele>244.94203186035</ele>
        <time>2019-03-30T10:58:10.062Z</time>
      </trkpt>
      <trkpt lat="44.62883" lon="1.11904">
        <ele>247.63667297363</ele>
        <time>2019-03-30T10:58:19.603Z</time>
      </trkpt>
      <trkpt lat="44.62843" lon="1.11939">
        <ele>248.47756958008</ele>
        <time>2019-03-30T10:58:29.152Z</time>
      </trkpt>
      <trkpt lat="44.62796" lon="1.12073">
        <ele>248.19192504883</ele>
        <time>2019-03-30T10:58:38.718Z</time>
      </trkpt>
      <trkpt lat="44.62739" lon="1.1216">
        <ele>241.82540893555</ele>
        <time>2019-03-30T10:58:48.297Z</time>
      </trkpt>
      <trkpt lat="44.62706" lon="1.1223">
        <ele>244</ele>
        <time>2019-03-30T10:58:57.886Z</time>
      </trkpt>
      <trkpt lat="44.62697" lon="1.12271">
        <ele>246.71513366699</ele>
        <time>2019-03-30T10:59:07.480Z</time>
      </trkpt>
      <trkpt lat="44.627" lon="1.12354">
        <ele>250.97016906738</ele>
        <time>2019-03-30T10:59:17.083Z</time>
      </trkpt>
      <trkpt lat="44.627" lon="1.12354">
        <ele>250.96975708008</ele>
        <time>2019-03-30T10:59:26.686Z</time>
      </trkpt>
      <trkpt lat="44.62704" lon="1.12447">
        <ele>251.56268310547</ele>
        <time>2019-03-30T10:59:36.300Z</time>
      </trkpt>
      <trkpt lat="44.62713" lon="1.12477">
        <ele>250.275390625</ele>
        <time>2019-03-30T10:59:45.918Z</time>
      </trkpt>
      <trkpt lat="44.62739" lon="1.12542">
        <ele>251.68548583984</ele>
        <time>2019-03-30T10:59:55.544Z</time>
      </trkpt>
      <trkpt lat="44.62769" lon="1.12663">
        <ele>255.46044921875</ele>
        <time>2019-03-30T11:00:05.185Z</time>
      </trkpt>
      <trkpt lat="44.62858" lon="1.12845">
        <ele>263.33551025391</ele>
        <time>2019-03-30T11:00:14.851Z</time>
      </trkpt>
      <trkpt lat="44.6286" lon="1.12889">
        <ele>264.22012329102</ele>
        <time>2019-03-30T11:00:24.522Z</time>
      </trkpt>
      <trkpt lat="44.62852" lon="1.12943">
        <ele>261.62850952148</ele>
        <time>2019-03-30T11:00:34.199Z</time>
      </trkpt>
      <trkpt lat="44.62861" lon="1.12999">
        <ele>263.46197509766</ele>
        <time>2019-03-30T11:00:43.883Z</time>
      </trkpt>
      <trkpt lat="44.62938" lon="1.13089">
        <ele>269.68118286133</ele>
        <time>2019-03-30T11:00:53.583Z</time>
      </trkpt>
      <trkpt lat="44.6296" lon="1.13133">
        <ele>270.46353149414</ele>
        <time>2019-03-30T11:01:03.289Z</time>
      </trkpt>
      <trkpt lat="44.62974" lon="1.13202">
        <ele>269.88339233398</ele>
        <time>2019-03-30T11:01:13.003Z</time>
      </trkpt>
      <trkpt lat="44.62967" lon="1.13355">
        <ele>271.12585449219</ele>
        <time>2019-03-30T11:01:22.735Z</time>
      </trkpt>
      <trkpt lat="44.62912" lon="1.1356">
        <ele>270.9186706543</ele>
        <time>2019-03-30T11:01:32.492Z</time>
      </trkpt>
      <trkpt lat="44.62906" lon="1.13602">
        <ele>271.70388793945</ele>
        <time>2019-03-30T11:01:42.254Z</time>
      </trkpt>
      <trkpt lat="44.62906" lon="1.13681">
        <ele>271.76406860352</ele>
        <time>2019-03-30T11:01:52.025Z</time>
      </trkpt>
      <trkpt lat="44.62921" lon="1.13748">
        <ele>271.10552978516</ele>
        <time>2019-03-30T11:02:01.804Z</time>
      </trkpt>
      <trkpt lat="44.62995" lon="1.14034">
        <ele>279.00552368164</ele>
        <time>2019-03-30T11:02:11.618Z</time>
      </trkpt>
      <trkpt lat="44.63012" lon="1.14081">
        <ele>281.24459838867</ele>
        <time>2019-03-30T11:02:21.438Z</time>
      </trkpt>
      <trkpt lat="44.63042" lon="1.14123">
        <ele>284.08297729492</ele>
        <time>2019-03-30T11:02:31.265Z</time>
      </trkpt>
      <trkpt lat="44.63056" lon="1.14155">
        <ele>285.92114257812</ele>
        <time>2019-03-30T11:02:41.096Z</time>
      </trkpt>
      <trkpt lat="44.63075" lon="1.14264">
        <ele>289.10568237305</ele>
        <time>2019-03-30T11:02:50.940Z</time>
      </trkpt>
      <trkpt lat="44.63075" lon="1.14266">
        <ele>289.09002685547</ele>
        <time>2019-03-30T11:03:00.784Z</time>
      </trkpt>
      <trkpt lat="44.63076" lon="1.14267">
        <ele>289.07968139648</ele>
        <time>2019-03-30T11:03:10.628Z</time>
      </trkpt>
      <trkpt lat="44.63076" lon="1.14267">
        <ele>289.07968139648</ele>
        <time>2019-03-30T11:03:20.472Z</time>
      </trkpt>
      <trkpt lat="44.63103" lon="1.14421">
        <ele>291.88412475586</ele>
        <time>2019-03-30T11:03:30.334Z</time>
      </trkpt>
      <trkpt lat="44.63192" lon="1.14602">
        <ele>290.39672851562</ele>
        <time>2019-03-30T11:03:40.221Z</time>
      </trkpt>
      <trkpt lat="44.63208" lon="1.14653">
        <ele>288.10620117188</ele>
        <time>2019-03-30T11:03:50.115Z</time>
      </trkpt>
      <trkpt lat="44.63208" lon="1.14653">
        <ele>288.10571289062</ele>
        <time>2019-03-30T11:04:00.009Z</time>
      </trkpt>
      <trkpt lat="44.63247" lon="1.14747">
        <ele>288.2151184082</ele>
        <time>2019-03-30T11:04:09.915Z</time>
      </trkpt>
      <trkpt lat="44.6331" lon="1.14819">
        <ele>289.57495117188</ele>
        <time>2019-03-30T11:04:19.834Z</time>
      </trkpt>
      <trkpt lat="44.63378" lon="1.14984">
        <ele>293.23934936523</ele>
        <time>2019-03-30T11:04:29.775Z</time>
      </trkpt>
      <trkpt lat="44.63413" lon="1.1493">
        <ele>291.76593017578</ele>
        <time>2019-03-30T11:04:39.724Z</time>
      </trkpt>
      <trkpt lat="44.63481" lon="1.1477">
        <ele>287</ele>
        <time>2019-03-30T11:04:49.694Z</time>
      </trkpt>
      <trkpt lat="44.63485" lon="1.14765">
        <ele>287</ele>
        <time>2019-03-30T11:04:59.665Z</time>
      </trkpt>
      <trkpt lat="44.63486" lon="1.14763">
        <ele>287</ele>
        <time>2019-03-30T11:05:09.637Z</time>
      </trkpt>
      <trkpt lat="44.63487" lon="1.14762">
        <ele>287.00268554688</ele>
        <time>2019-03-30T11:05:19.609Z</time>
      </trkpt>
      <trkpt lat="44.63487" lon="1.14762">
        <ele>287.00289916992</ele>
        <time>2019-03-30T11:05:29.581Z</time>
      </trkpt>
      <trkpt lat="44.63498" lon="1.14748">
        <ele>287.29873657227</ele>
        <time>2019-03-30T11:05:39.555Z</time>
      </trkpt>
      <trkpt lat="44.63538" lon="1.1473">
        <ele>287.98742675781</ele>
        <time>2019-03-30T11:05:49.536Z</time>
      </trkpt>
      <trkpt lat="44.6366" lon="1.14722">
        <ele>284.88427734375</ele>
        <time>2019-03-30T11:05:59.536Z</time>
      </trkpt>
      <trkpt lat="44.63935" lon="1.14415">
        <ele>274.03939819336</ele>
        <time>2019-03-30T11:06:09.593Z</time>
      </trkpt>
      <trkpt lat="44.63962" lon="1.14411">
        <ele>272.3981628418</ele>
        <time>2019-03-30T11:06:19.654Z</time>
      </trkpt>
      <trkpt lat="44.63989" lon="1.14424">
        <ele>270.89666748047</ele>
        <time>2019-03-30T11:06:29.719Z</time>
      </trkpt>
      <trkpt lat="44.63989" lon="1.14424">
        <ele>270.89627075195</ele>
        <time>2019-03-30T11:06:39.784Z</time>
      </trkpt>
      <trkpt lat="44.64078" lon="1.14511">
        <ele>266.86450195312</ele>
        <time>2019-03-30T11:06:49.867Z</time>
      </trkpt>
      <trkpt lat="44.64158" lon="1.14578">
        <ele>264.99346923828</ele>
        <time>2019-03-30T11:06:59.965Z</time>
      </trkpt>
      <trkpt lat="44.64158" lon="1.14578">
        <ele>264.9931640625</ele>
        <time>2019-03-30T11:07:10.063Z</time>
      </trkpt>
      <trkpt lat="44.64207" lon="1.14592">
        <ele>263.6032409668</ele>
        <time>2019-03-30T11:07:20.169Z</time>
      </trkpt>
      <trkpt lat="44.6431" lon="1.14586">
        <ele>260.73489379883</ele>
        <time>2019-03-30T11:07:30.291Z</time>
      </trkpt>
      <trkpt lat="44.6431" lon="1.14586">
        <ele>260.73468017578</ele>
        <time>2019-03-30T11:07:40.413Z</time>
      </trkpt>
      <trkpt lat="44.64323" lon="1.14575">
        <ele>260.82461547852</ele>
        <time>2019-03-30T11:07:50.538Z</time>
      </trkpt>
      <trkpt lat="44.64335" lon="1.14546">
        <ele>262.07168579102</ele>
        <time>2019-03-30T11:08:00.667Z</time>
      </trkpt>
      <trkpt lat="44.64343" lon="1.14464">
        <ele>263.09164428711</ele>
        <time>2019-03-30T11:08:10.805Z</time>
      </trkpt>
      <trkpt lat="44.64333" lon="1.14347">
        <ele>259.90481567383</ele>
        <time>2019-03-30T11:08:20.956Z</time>
      </trkpt>
      <trkpt lat="44.64348" lon="1.14322">
        <ele>255.80494689941</ele>
        <time>2019-03-30T11:08:31.111Z</time>
      </trkpt>
      <trkpt lat="44.64443" lon="1.14225">
        <ele>253.45936584473</ele>
        <time>2019-03-30T11:08:41.285Z</time>
      </trkpt>
      <trkpt lat="44.64481" lon="1.14115">
        <ele>253.33609008789</ele>
        <time>2019-03-30T11:08:51.473Z</time>
      </trkpt>
      <trkpt lat="44.64497" lon="1.14042">
        <ele>250.90655517578</ele>
        <time>2019-03-30T11:09:01.670Z</time>
      </trkpt>
      <trkpt lat="44.64514" lon="1.13994">
        <ele>249.29339599609</ele>
        <time>2019-03-30T11:09:11.873Z</time>
      </trkpt>
      <trkpt lat="44.64529" lon="1.13975">
        <ele>248.9143371582</ele>
        <time>2019-03-30T11:09:22.079Z</time>
      </trkpt>
      <trkpt lat="44.64559" lon="1.13981">
        <ele>249.81233215332</ele>
        <time>2019-03-30T11:09:32.290Z</time>
      </trkpt>
      <trkpt lat="44.64637" lon="1.14063">
        <ele>261.43231201172</ele>
        <time>2019-03-30T11:09:42.517Z</time>
      </trkpt>
      <trkpt lat="44.64746" lon="1.14101">
        <ele>261.52685546875</ele>
        <time>2019-03-30T11:09:52.761Z</time>
      </trkpt>
      <trkpt lat="44.64776" lon="1.14118">
        <ele>262.76260375977</ele>
        <time>2019-03-30T11:10:03.011Z</time>
      </trkpt>
      <trkpt lat="44.64823" lon="1.14128">
        <ele>256.71115112305</ele>
        <time>2019-03-30T11:10:13.268Z</time>
      </trkpt>
      <trkpt lat="44.64986" lon="1.1422">
        <ele>259.21701049805</ele>
        <time>2019-03-30T11:10:23.553Z</time>
      </trkpt>
      <trkpt lat="44.65078" lon="1.14247">
        <ele>261.57095336914</ele>
        <time>2019-03-30T11:10:33.853Z</time>
      </trkpt>
      <trkpt lat="44.65104" lon="1.14264">
        <ele>262.38000488281</ele>
        <time>2019-03-30T11:10:44.158Z</time>
      </trkpt>
      <trkpt lat="44.65104" lon="1.14264">
        <ele>262.38021850586</ele>
        <time>2019-03-30T11:10:54.463Z</time>
      </trkpt>
      <trkpt lat="44.65105" lon="1.14265">
        <ele>262.41864013672</ele>
        <time>2019-03-30T11:11:04.768Z</time>
      </trkpt>
      <trkpt lat="44.65106" lon="1.14265">
        <ele>262.45050048828</ele>
        <time>2019-03-30T11:11:15.073Z</time>
      </trkpt>
      <trkpt lat="44.65106" lon="1.14265">
        <ele>262.45010375977</ele>
        <time>2019-03-30T11:11:25.378Z</time>
      </trkpt>
      <trkpt lat="44.65144" lon="1.14291">
        <ele>259.4778137207</ele>
        <time>2019-03-30T11:11:35.690Z</time>
      </trkpt>
      <trkpt lat="44.65234" lon="1.1428">
        <ele>258.99127197266</ele>
        <time>2019-03-30T11:11:46.017Z</time>
      </trkpt>
      <trkpt lat="44.65294" lon="1.142">
        <ele>265.1403503418</ele>
        <time>2019-03-30T11:11:56.357Z</time>
      </trkpt>
      <trkpt lat="44.65305" lon="1.14173">
        <ele>268.35205078125</ele>
        <time>2019-03-30T11:12:06.701Z</time>
      </trkpt>
      <trkpt lat="44.65301" lon="1.13998">
        <ele>271.64801025391</ele>
        <time>2019-03-30T11:12:17.064Z</time>
      </trkpt>
      <trkpt lat="44.65307" lon="1.13957">
        <ele>272.91580200195</ele>
        <time>2019-03-30T11:12:27.432Z</time>
      </trkpt>
      <trkpt lat="44.65329" lon="1.13934">
        <ele>273.08032226562</ele>
        <time>2019-03-30T11:12:37.805Z</time>
      </trkpt>
      <trkpt lat="44.65382" lon="1.13897">
        <ele>273.74871826172</ele>
        <time>2019-03-30T11:12:48.187Z</time>
      </trkpt>
      <trkpt lat="44.65411" lon="1.1386">
        <ele>275.95858764648</ele>
        <time>2019-03-30T11:12:58.575Z</time>
      </trkpt>
      <trkpt lat="44.65411" lon="1.1386">
        <ele>275.95867919922</ele>
        <time>2019-03-30T11:13:08.963Z</time>
      </trkpt>
      <trkpt lat="44.65458" lon="1.13782">
        <ele>279.91305541992</ele>
        <time>2019-03-30T11:13:19.363Z</time>
      </trkpt>
      <trkpt lat="44.65466" lon="1.1377">
        <ele>280.92352294922</ele>
        <time>2019-03-30T11:13:29.765Z</time>
      </trkpt>
      <trkpt lat="44.65466" lon="1.1377">
        <ele>280.92324829102</ele>
        <time>2019-03-30T11:13:40.167Z</time>
      </trkpt>
      <trkpt lat="44.65614" lon="1.1351">
        <ele>270.98196411133</ele>
        <time>2019-03-30T11:13:50.607Z</time>
      </trkpt>
      <trkpt lat="44.65614" lon="1.1351">
        <ele>270.98297119141</ele>
        <time>2019-03-30T11:14:01.047Z</time>
      </trkpt>
      <trkpt lat="44.65626" lon="1.13481">
        <ele>268.4443359375</ele>
        <time>2019-03-30T11:14:11.491Z</time>
      </trkpt>
      <trkpt lat="44.65643" lon="1.13314">
        <ele>263.91311645508</ele>
        <time>2019-03-30T11:14:21.954Z</time>
      </trkpt>
      <trkpt lat="44.65663" lon="1.13223">
        <ele>262.44683837891</ele>
        <time>2019-03-30T11:14:32.428Z</time>
      </trkpt>
      <trkpt lat="44.65682" lon="1.13152">
        <ele>262.08148193359</ele>
        <time>2019-03-30T11:14:42.911Z</time>
      </trkpt>
      <trkpt lat="44.6574" lon="1.12999">
        <ele>262.44345092773</ele>
        <time>2019-03-30T11:14:53.413Z</time>
      </trkpt>
      <trkpt lat="44.65772" lon="1.12927">
        <ele>261.77124023438</ele>
        <time>2019-03-30T11:15:03.925Z</time>
      </trkpt>
      <trkpt lat="44.65917" lon="1.12752">
        <ele>268.61334228516</ele>
        <time>2019-03-30T11:15:14.468Z</time>
      </trkpt>
      <trkpt lat="44.65917" lon="1.12752">
        <ele>268.61273193359</ele>
        <time>2019-03-30T11:15:25.011Z</time>
      </trkpt>
      <trkpt lat="44.66033" lon="1.12629">
        <ele>271.70443725586</ele>
        <time>2019-03-30T11:15:35.577Z</time>
      </trkpt>
      <trkpt lat="44.66064" lon="1.12528">
        <ele>271.71649169922</ele>
        <time>2019-03-30T11:15:46.155Z</time>
      </trkpt>
      <trkpt lat="44.66064" lon="1.12528">
        <ele>271.71667480469</ele>
        <time>2019-03-30T11:15:56.733Z</time>
      </trkpt>
      <trkpt lat="44.66069" lon="1.1252">
        <ele>271.70361328125</ele>
        <time>2019-03-30T11:16:07.313Z</time>
      </trkpt>
      <trkpt lat="44.66134" lon="1.12418">
        <ele>266.87030029297</ele>
        <time>2019-03-30T11:16:17.908Z</time>
      </trkpt>
      <trkpt lat="44.66299" lon="1.12126">
        <ele>279.53829956055</ele>
        <time>2019-03-30T11:16:28.546Z</time>
      </trkpt>
      <trkpt lat="44.66354" lon="1.11978">
        <ele>277.67077636719</ele>
        <time>2019-03-30T11:16:39.203Z</time>
      </trkpt>
      <trkpt lat="44.66364" lon="1.11871">
        <ele>281.84323120117</ele>
        <time>2019-03-30T11:16:49.872Z</time>
      </trkpt>
      <trkpt lat="44.66389" lon="1.11737">
        <ele>281.23040771484</ele>
        <time>2019-03-30T11:17:00.557Z</time>
      </trkpt>
      <trkpt lat="44.66466" lon="1.11447">
        <ele>284.03219604492</ele>
        <time>2019-03-30T11:17:11.277Z</time>
      </trkpt>
      <trkpt lat="44.66521" lon="1.1128">
        <ele>276.35711669922</ele>
        <time>2019-03-30T11:17:22.018Z</time>
      </trkpt>
      <trkpt lat="44.66534" lon="1.11103">
        <ele>277.3591003418</ele>
        <time>2019-03-30T11:17:32.780Z</time>
      </trkpt>
      <trkpt lat="44.66534" lon="1.11101">
        <ele>277.39010620117</ele>
        <time>2019-03-30T11:17:43.542Z</time>
      </trkpt>
      <trkpt lat="44.66534" lon="1.111">
        <ele>277.40863037109</ele>
        <time>2019-03-30T11:17:54.304Z</time>
      </trkpt>
      <trkpt lat="44.66534" lon="1.111">
        <ele>277.4079284668</ele>
        <time>2019-03-30T11:18:05.066Z</time>
      </trkpt>
      <trkpt lat="44.66536" lon="1.11078">
        <ele>277.75720214844</ele>
        <time>2019-03-30T11:18:15.831Z</time>
      </trkpt>
      <trkpt lat="44.66607" lon="1.10919">
        <ele>265.68731689453</ele>
        <time>2019-03-30T11:18:26.617Z</time>
      </trkpt>
      <trkpt lat="44.6665" lon="1.1091">
        <ele>266.15319824219</ele>
        <time>2019-03-30T11:18:37.410Z</time>
      </trkpt>
      <trkpt lat="44.66732" lon="1.10816">
        <ele>264.35400390625</ele>
        <time>2019-03-30T11:18:48.220Z</time>
      </trkpt>
      <trkpt lat="44.66793" lon="1.10751">
        <ele>260.7014465332</ele>
        <time>2019-03-30T11:18:59.042Z</time>
      </trkpt>
      <trkpt lat="44.66846" lon="1.10722">
        <ele>255.46202087402</ele>
        <time>2019-03-30T11:19:09.873Z</time>
      </trkpt>
      <trkpt lat="44.66866" lon="1.10717">
        <ele>254.10214233398</ele>
        <time>2019-03-30T11:19:20.708Z</time>
      </trkpt>
      <trkpt lat="44.66895" lon="1.10733">
        <ele>252.72705078125</ele>
        <time>2019-03-30T11:19:31.548Z</time>
      </trkpt>
      <trkpt lat="44.66965" lon="1.10817">
        <ele>254.19027709961</ele>
        <time>2019-03-30T11:19:42.402Z</time>
      </trkpt>
      <trkpt lat="44.67004" lon="1.10878">
        <ele>252.18757629395</ele>
        <time>2019-03-30T11:19:53.266Z</time>
      </trkpt>
      <trkpt lat="44.67034" lon="1.10917">
        <ele>249.73667907715</ele>
        <time>2019-03-30T11:20:04.136Z</time>
      </trkpt>
      <trkpt lat="44.67096" lon="1.10952">
        <ele>242.07676696777</ele>
        <time>2019-03-30T11:20:15.017Z</time>
      </trkpt>
      <trkpt lat="44.67117" lon="1.10983">
        <ele>240.73767089844</ele>
        <time>2019-03-30T11:20:25.903Z</time>
      </trkpt>
      <trkpt lat="44.67122" lon="1.11002">
        <ele>241.42210388184</ele>
        <time>2019-03-30T11:20:36.791Z</time>
      </trkpt>
      <trkpt lat="44.67145" lon="1.11174">
        <ele>246.30651855469</ele>
        <time>2019-03-30T11:20:47.699Z</time>
      </trkpt>
      <trkpt lat="44.67188" lon="1.11279">
        <ele>244.94715881348</ele>
        <time>2019-03-30T11:20:58.621Z</time>
      </trkpt>
      <trkpt lat="44.67188" lon="1.11279">
        <ele>244.947265625</ele>
        <time>2019-03-30T11:21:09.543Z</time>
      </trkpt>
      <trkpt lat="44.67209" lon="1.11337">
        <ele>245.52690124512</ele>
        <time>2019-03-30T11:21:20.472Z</time>
      </trkpt>
      <trkpt lat="44.67251" lon="1.11569">
        <ele>258.20736694336</ele>
        <time>2019-03-30T11:21:31.429Z</time>
      </trkpt>
      <trkpt lat="44.67255" lon="1.11621">
        <ele>260.74536132812</ele>
        <time>2019-03-30T11:21:42.392Z</time>
      </trkpt>
      <trkpt lat="44.67246" lon="1.11718">
        <ele>265.87405395508</ele>
        <time>2019-03-30T11:21:53.366Z</time>
      </trkpt>
      <trkpt lat="44.67251" lon="1.1177">
        <ele>266.11318969727</ele>
        <time>2019-03-30T11:22:04.346Z</time>
      </trkpt>
      <trkpt lat="44.67292" lon="1.11859">
        <ele>260.30471801758</ele>
        <time>2019-03-30T11:22:15.338Z</time>
      </trkpt>
      <trkpt lat="44.67297" lon="1.11896">
        <ele>261.38732910156</ele>
        <time>2019-03-30T11:22:26.334Z</time>
      </trkpt>
      <trkpt lat="44.67282" lon="1.11924">
        <ele>263.39562988281</ele>
        <time>2019-03-30T11:22:37.334Z</time>
      </trkpt>
      <trkpt lat="44.6718" lon="1.11993">
        <ele>269.31323242188</ele>
        <time>2019-03-30T11:22:48.352Z</time>
      </trkpt>
      <trkpt lat="44.67106" lon="1.1208">
        <ele>267.61138916016</ele>
        <time>2019-03-30T11:22:59.386Z</time>
      </trkpt>
      <trkpt lat="44.67084" lon="1.12139">
        <ele>268.65911865234</ele>
        <time>2019-03-30T11:23:10.427Z</time>
      </trkpt>
      <trkpt lat="44.67079" lon="1.12203">
        <ele>272.34661865234</ele>
        <time>2019-03-30T11:23:21.476Z</time>
      </trkpt>
      <trkpt lat="44.67079" lon="1.12203">
        <ele>272.34671020508</ele>
        <time>2019-03-30T11:23:32.525Z</time>
      </trkpt>
      <trkpt lat="44.67043" lon="1.12411">
        <ele>279.07852172852</ele>
        <time>2019-03-30T11:23:43.598Z</time>
      </trkpt>
      <trkpt lat="44.67044" lon="1.12417">
        <ele>278.98068237305</ele>
        <time>2019-03-30T11:23:54.672Z</time>
      </trkpt>
      <trkpt lat="44.67044" lon="1.12419">
        <ele>278.94689941406</ele>
        <time>2019-03-30T11:24:05.746Z</time>
      </trkpt>
      <trkpt lat="44.67044" lon="1.1242">
        <ele>278.91882324219</ele>
        <time>2019-03-30T11:24:16.820Z</time>
      </trkpt>
      <trkpt lat="44.67044" lon="1.1242">
        <ele>278.91882324219</ele>
        <time>2019-03-30T11:24:27.894Z</time>
      </trkpt>
      <trkpt lat="44.67052" lon="1.1252">
        <ele>278.02621459961</ele>
        <time>2019-03-30T11:24:38.980Z</time>
      </trkpt>
      <trkpt lat="44.67034" lon="1.12596">
        <ele>275.89651489258</ele>
        <time>2019-03-30T11:24:50.075Z</time>
      </trkpt>
      <trkpt lat="44.67034" lon="1.12621">
        <ele>275.52963256836</ele>
        <time>2019-03-30T11:25:01.173Z</time>
      </trkpt>
      <trkpt lat="44.67049" lon="1.12671">
        <ele>278.05810546875</ele>
        <time>2019-03-30T11:25:12.277Z</time>
      </trkpt>
      <trkpt lat="44.66951" lon="1.12786">
        <ele>283.36865234375</ele>
        <time>2019-03-30T11:25:23.401Z</time>
      </trkpt>
      <trkpt lat="44.66951" lon="1.12786">
        <ele>283.36975097656</ele>
        <time>2019-03-30T11:25:34.525Z</time>
      </trkpt>
      <trkpt lat="44.66925" lon="1.12834">
        <ele>287.41735839844</ele>
        <time>2019-03-30T11:25:45.656Z</time>
      </trkpt>
      <trkpt lat="44.66894" lon="1.12916">
        <ele>289.17013549805</ele>
        <time>2019-03-30T11:25:56.798Z</time>
      </trkpt>
      <trkpt lat="44.66893" lon="1.12918">
        <ele>289.2551574707</ele>
        <time>2019-03-30T11:26:07.940Z</time>
      </trkpt>
      <trkpt lat="44.66893" lon="1.12919">
        <ele>289.20846557617</ele>
        <time>2019-03-30T11:26:19.082Z</time>
      </trkpt>
      <trkpt lat="44.66893" lon="1.12919">
        <ele>289.2092590332</ele>
        <time>2019-03-30T11:26:30.224Z</time>
      </trkpt>
      <trkpt lat="44.66864" lon="1.12996">
        <ele>288.11639404297</ele>
        <time>2019-03-30T11:26:41.376Z</time>
      </trkpt>
      <trkpt lat="44.66819" lon="1.13164">
        <ele>291.87670898438</ele>
        <time>2019-03-30T11:26:52.549Z</time>
      </trkpt>
      <trkpt lat="44.66796" lon="1.13323">
        <ele>290.89923095703</ele>
        <time>2019-03-30T11:27:03.740Z</time>
      </trkpt>
      <trkpt lat="44.66753" lon="1.1348">
        <ele>298.99185180664</ele>
        <time>2019-03-30T11:27:14.950Z</time>
      </trkpt>
      <trkpt lat="44.66752" lon="1.13511">
        <ele>299.02401733398</ele>
        <time>2019-03-30T11:27:26.164Z</time>
      </trkpt>
      <trkpt lat="44.66769" lon="1.13609">
        <ele>298.19314575195</ele>
        <time>2019-03-30T11:27:37.389Z</time>
      </trkpt>
      <trkpt lat="44.66768" lon="1.13734">
        <ele>300.21813964844</ele>
        <time>2019-03-30T11:27:48.629Z</time>
      </trkpt>
      <trkpt lat="44.66816" lon="1.13867">
        <ele>303.40182495117</ele>
        <time>2019-03-30T11:27:59.886Z</time>
      </trkpt>
      <trkpt lat="44.66818" lon="1.13869">
        <ele>303.55780029297</ele>
        <time>2019-03-30T11:28:11.143Z</time>
      </trkpt>
      <trkpt lat="44.66819" lon="1.1387">
        <ele>303.63995361328</ele>
        <time>2019-03-30T11:28:22.400Z</time>
      </trkpt>
      <trkpt lat="44.6682" lon="1.13871">
        <ele>303.71215820312</ele>
        <time>2019-03-30T11:28:33.657Z</time>
      </trkpt>
      <trkpt lat="44.6682" lon="1.13871">
        <ele>303.71014404297</ele>
        <time>2019-03-30T11:28:44.914Z</time>
      </trkpt>
      <trkpt lat="44.66911" lon="1.13975">
        <ele>312.72567749023</ele>
        <time>2019-03-30T11:28:56.190Z</time>
      </trkpt>
      <trkpt lat="44.67006" lon="1.141">
        <ele>320.11633300781</ele>
        <time>2019-03-30T11:29:07.487Z</time>
      </trkpt>
      <trkpt lat="44.67049" lon="1.14138">
        <ele>323.73355102539</ele>
        <time>2019-03-30T11:29:18.792Z</time>
      </trkpt>
      <trkpt lat="44.67093" lon="1.14249">
        <ele>322.46127319336</ele>
        <time>2019-03-30T11:29:30.112Z</time>
      </trkpt>
      <trkpt lat="44.67125" lon="1.14413">
        <ele>322.5348815918</ele>
        <time>2019-03-30T11:29:41.451Z</time>
      </trkpt>
      <trkpt lat="44.67145" lon="1.14496">
        <ele>324.28402709961</ele>
        <time>2019-03-30T11:29:52.800Z</time>
      </trkpt>
      <trkpt lat="44.67159" lon="1.14524">
        <ele>325.14001464844</ele>
        <time>2019-03-30T11:30:04.153Z</time>
      </trkpt>
      <trkpt lat="44.67115" lon="1.146">
        <ele>327.05072021484</ele>
        <time>2019-03-30T11:30:15.517Z</time>
      </trkpt>
      <trkpt lat="44.67085" lon="1.14695">
        <ele>327.4860534668</ele>
        <time>2019-03-30T11:30:26.893Z</time>
      </trkpt>
      <trkpt lat="44.67038" lon="1.14875">
        <ele>331.91949462891</ele>
        <time>2019-03-30T11:30:38.291Z</time>
      </trkpt>
      <trkpt lat="44.67087" lon="1.15063">
        <ele>327.80310058594</ele>
        <time>2019-03-30T11:30:49.712Z</time>
      </trkpt>
      <trkpt lat="44.67091" lon="1.1517">
        <ele>325.79217529297</ele>
        <time>2019-03-30T11:31:01.145Z</time>
      </trkpt>
      <trkpt lat="44.67104" lon="1.15207">
        <ele>323.83557128906</ele>
        <time>2019-03-30T11:31:12.583Z</time>
      </trkpt>
      <trkpt lat="44.67116" lon="1.15346">
        <ele>317.19256591797</ele>
        <time>2019-03-30T11:31:24.037Z</time>
      </trkpt>
      <trkpt lat="44.67151" lon="1.1546">
        <ele>312.08297729492</ele>
        <time>2019-03-30T11:31:35.505Z</time>
      </trkpt>
      <trkpt lat="44.67152" lon="1.15462">
        <ele>311.98669433594</ele>
        <time>2019-03-30T11:31:46.973Z</time>
      </trkpt>
      <trkpt lat="44.67152" lon="1.15463">
        <ele>311.91189575195</ele>
        <time>2019-03-30T11:31:58.441Z</time>
      </trkpt>
      <trkpt lat="44.67152" lon="1.15463">
        <ele>311.91088867188</ele>
        <time>2019-03-30T11:32:09.909Z</time>
      </trkpt>
      <trkpt lat="44.67157" lon="1.15479">
        <ele>310.98123168945</ele>
        <time>2019-03-30T11:32:21.379Z</time>
      </trkpt>
      <trkpt lat="44.67222" lon="1.15852">
        <ele>297.50640869141</ele>
        <time>2019-03-30T11:32:32.893Z</time>
      </trkpt>
      <trkpt lat="44.67294" lon="1.16075">
        <ele>298.85369873047</ele>
        <time>2019-03-30T11:32:44.435Z</time>
      </trkpt>
      <trkpt lat="44.67313" lon="1.16116">
        <ele>295.86083984375</ele>
        <time>2019-03-30T11:32:55.982Z</time>
      </trkpt>
      <trkpt lat="44.67348" lon="1.16161">
        <ele>291.48092651367</ele>
        <time>2019-03-30T11:33:07.537Z</time>
      </trkpt>
      <trkpt lat="44.67397" lon="1.16224">
        <ele>288.96572875977</ele>
        <time>2019-03-30T11:33:19.103Z</time>
      </trkpt>
      <trkpt lat="44.67452" lon="1.16347">
        <ele>295.28341674805</ele>
        <time>2019-03-30T11:33:30.685Z</time>
      </trkpt>
      <trkpt lat="44.67481" lon="1.16381">
        <ele>296.83544921875</ele>
        <time>2019-03-30T11:33:42.273Z</time>
      </trkpt>
      <trkpt lat="44.67569" lon="1.16393">
        <ele>299.55294799805</ele>
        <time>2019-03-30T11:33:53.876Z</time>
      </trkpt>
      <trkpt lat="44.67697" lon="1.16368">
        <ele>308.00921630859</ele>
        <time>2019-03-30T11:34:05.499Z</time>
      </trkpt>
      <trkpt lat="44.67792" lon="1.16392">
        <ele>304.34393310547</ele>
        <time>2019-03-30T11:34:17.138Z</time>
      </trkpt>
      <trkpt lat="44.67812" lon="1.16418">
        <ele>303.0915222168</ele>
        <time>2019-03-30T11:34:28.781Z</time>
      </trkpt>
      <trkpt lat="44.67814" lon="1.1644">
        <ele>302.58749389648</ele>
        <time>2019-03-30T11:34:40.427Z</time>
      </trkpt>
      <trkpt lat="44.67806" lon="1.16522">
        <ele>298.86538696289</ele>
        <time>2019-03-30T11:34:52.082Z</time>
      </trkpt>
      <trkpt lat="44.67806" lon="1.16524">
        <ele>298.73931884766</ele>
        <time>2019-03-30T11:35:03.737Z</time>
      </trkpt>
      <trkpt lat="44.67806" lon="1.16526">
        <ele>298.63702392578</ele>
        <time>2019-03-30T11:35:15.393Z</time>
      </trkpt>
      <trkpt lat="44.67806" lon="1.16526">
        <ele>298.63641357422</ele>
        <time>2019-03-30T11:35:27.049Z</time>
      </trkpt>
      <trkpt lat="44.67803" lon="1.16553">
        <ele>296.81475830078</ele>
        <time>2019-03-30T11:35:38.708Z</time>
      </trkpt>
      <trkpt lat="44.67805" lon="1.16577">
        <ele>295.91229248047</ele>
        <time>2019-03-30T11:35:50.369Z</time>
      </trkpt>
      <trkpt lat="44.67814" lon="1.16603">
        <ele>294.34515380859</ele>
        <time>2019-03-30T11:36:02.034Z</time>
      </trkpt>
      <trkpt lat="44.67863" lon="1.1667">
        <ele>292.54241943359</ele>
        <time>2019-03-30T11:36:13.710Z</time>
      </trkpt>
      <trkpt lat="44.67985" lon="1.16838">
        <ele>297.01312255859</ele>
        <time>2019-03-30T11:36:25.413Z</time>
      </trkpt>
      <trkpt lat="44.67985" lon="1.16838">
        <ele>297.01321411133</ele>
        <time>2019-03-30T11:36:37.116Z</time>
      </trkpt>
      <trkpt lat="44.68011" lon="1.16872">
        <ele>298.1653137207</ele>
        <time>2019-03-30T11:36:48.825Z</time>
      </trkpt>
      <trkpt lat="44.68035" lon="1.16916">
        <ele>297.66882324219</ele>
        <time>2019-03-30T11:37:00.540Z</time>
      </trkpt>
      <trkpt lat="44.68039" lon="1.16969">
        <ele>294.13452148438</ele>
        <time>2019-03-30T11:37:12.261Z</time>
      </trkpt>
      <trkpt lat="44.68038" lon="1.17041">
        <ele>288.52557373047</ele>
        <time>2019-03-30T11:37:23.990Z</time>
      </trkpt>
      <trkpt lat="44.68017" lon="1.17192">
        <ele>279.88262939453</ele>
        <time>2019-03-30T11:37:35.737Z</time>
      </trkpt>
      <trkpt lat="44.6802" lon="1.17205">
        <ele>279.19393920898</ele>
        <time>2019-03-30T11:37:47.485Z</time>
      </trkpt>
      <trkpt lat="44.68117" lon="1.17478">
        <ele>274.8835144043</ele>
        <time>2019-03-30T11:37:59.268Z</time>
      </trkpt>
      <trkpt lat="44.68147" lon="1.17512">
        <ele>279.2385559082</ele>
        <time>2019-03-30T11:38:11.057Z</time>
      </trkpt>
      <trkpt lat="44.68172" lon="1.17559">
        <ele>283.87265014648</ele>
        <time>2019-03-30T11:38:22.853Z</time>
      </trkpt>
      <trkpt lat="44.68182" lon="1.17563">
        <ele>285.25888061523</ele>
        <time>2019-03-30T11:38:34.651Z</time>
      </trkpt>
      <trkpt lat="44.68215" lon="1.17542">
        <ele>285.79028320312</ele>
        <time>2019-03-30T11:38:46.455Z</time>
      </trkpt>
      <trkpt lat="44.68226" lon="1.17567">
        <ele>289.0358581543</ele>
        <time>2019-03-30T11:38:58.262Z</time>
      </trkpt>
      <trkpt lat="44.68174" lon="1.1767">
        <ele>296.26007080078</ele>
        <time>2019-03-30T11:39:10.083Z</time>
      </trkpt>
      <trkpt lat="44.68207" lon="1.17689">
        <ele>301.81924438477</ele>
        <time>2019-03-30T11:39:21.910Z</time>
      </trkpt>
      <trkpt lat="44.68267" lon="1.17838">
        <ele>305.25384521484</ele>
        <time>2019-03-30T11:39:33.756Z</time>
      </trkpt>
      <trkpt lat="44.68271" lon="1.17887">
        <ele>303.81253051758</ele>
        <time>2019-03-30T11:39:45.608Z</time>
      </trkpt>
      <trkpt lat="44.68268" lon="1.1794">
        <ele>301.67483520508</ele>
        <time>2019-03-30T11:39:57.466Z</time>
      </trkpt>
      <trkpt lat="44.68276" lon="1.17976">
        <ele>303.0859375</ele>
        <time>2019-03-30T11:40:09.329Z</time>
      </trkpt>
      <trkpt lat="44.68307" lon="1.18051">
        <ele>306.54025268555</ele>
        <time>2019-03-30T11:40:21.201Z</time>
      </trkpt>
      <trkpt lat="44.68331" lon="1.18152">
        <ele>314.88973999023</ele>
        <time>2019-03-30T11:40:33.086Z</time>
      </trkpt>
      <trkpt lat="44.68333" lon="1.18211">
        <ele>320.71914672852</ele>
        <time>2019-03-30T11:40:44.977Z</time>
      </trkpt>
      <trkpt lat="44.68346" lon="1.18222">
        <ele>322.77825927734</ele>
        <time>2019-03-30T11:40:56.871Z</time>
      </trkpt>
      <trkpt lat="44.6836" lon="1.1822">
        <ele>323.421875</ele>
        <time>2019-03-30T11:41:08.767Z</time>
      </trkpt>
      <trkpt lat="44.68416" lon="1.18205">
        <ele>325.7646484375</ele>
        <time>2019-03-30T11:41:20.672Z</time>
      </trkpt>
      <trkpt lat="44.68416" lon="1.18204">
        <ele>325.76623535156</ele>
        <time>2019-03-30T11:41:32.577Z</time>
      </trkpt>
      <trkpt lat="44.68417" lon="1.18204">
        <ele>325.81314086914</ele>
        <time>2019-03-30T11:41:44.482Z</time>
      </trkpt>
      <trkpt lat="44.68418" lon="1.18204">
        <ele>325.85971069336</ele>
        <time>2019-03-30T11:41:56.387Z</time>
      </trkpt>
      <trkpt lat="44.68418" lon="1.18204">
        <ele>325.86001586914</ele>
        <time>2019-03-30T11:42:08.292Z</time>
      </trkpt>
      <trkpt lat="44.68423" lon="1.18202">
        <ele>326.05529785156</ele>
        <time>2019-03-30T11:42:20.198Z</time>
      </trkpt>
      <trkpt lat="44.68519" lon="1.18289">
        <ele>339.2890625</ele>
        <time>2019-03-30T11:42:32.123Z</time>
      </trkpt>
      <trkpt lat="44.68558" lon="1.18311">
        <ele>341.71932983398</ele>
        <time>2019-03-30T11:42:44.054Z</time>
      </trkpt>
      <trkpt lat="44.68604" lon="1.18328">
        <ele>339.42218017578</ele>
        <time>2019-03-30T11:42:55.993Z</time>
      </trkpt>
      <trkpt lat="44.68672" lon="1.18302">
        <ele>334.62564086914</ele>
        <time>2019-03-30T11:43:07.943Z</time>
      </trkpt>
      <trkpt lat="44.68686" lon="1.18339">
        <ele>331.22830200195</ele>
        <time>2019-03-30T11:43:19.898Z</time>
      </trkpt>
      <trkpt lat="44.68677" lon="1.18416">
        <ele>327.32855224609</ele>
        <time>2019-03-30T11:43:31.862Z</time>
      </trkpt>
      <trkpt lat="44.68682" lon="1.1845">
        <ele>324.97930908203</ele>
        <time>2019-03-30T11:43:43.830Z</time>
      </trkpt>
      <trkpt lat="44.68744" lon="1.18533">
        <ele>313.74200439453</ele>
        <time>2019-03-30T11:43:55.812Z</time>
      </trkpt>
      <trkpt lat="44.68745" lon="1.18535">
        <ele>313.5461730957</ele>
        <time>2019-03-30T11:44:07.794Z</time>
      </trkpt>
      <trkpt lat="44.68745" lon="1.18536">
        <ele>313.37048339844</ele>
        <time>2019-03-30T11:44:19.776Z</time>
      </trkpt>
      <trkpt lat="44.68745" lon="1.18536">
        <ele>313.3717956543</ele>
        <time>2019-03-30T11:44:31.758Z</time>
      </trkpt>
      <trkpt lat="44.68767" lon="1.18564">
        <ele>309.12155151367</ele>
        <time>2019-03-30T11:44:43.745Z</time>
      </trkpt>
      <trkpt lat="44.6881" lon="1.18679">
        <ele>296.02938842773</ele>
        <time>2019-03-30T11:44:55.747Z</time>
      </trkpt>
      <trkpt lat="44.68837" lon="1.18733">
        <ele>290.97406005859</ele>
        <time>2019-03-30T11:45:07.756Z</time>
      </trkpt>
      <trkpt lat="44.68849" lon="1.18745">
        <ele>289.77691650391</ele>
        <time>2019-03-30T11:45:19.768Z</time>
      </trkpt>
      <trkpt lat="44.68927" lon="1.18776">
        <ele>287.67208862305</ele>
        <time>2019-03-30T11:45:31.792Z</time>
      </trkpt>
      <trkpt lat="44.68985" lon="1.18851">
        <ele>283.37295532227</ele>
        <time>2019-03-30T11:45:43.829Z</time>
      </trkpt>
      <trkpt lat="44.68985" lon="1.18851">
        <ele>283.3727722168</ele>
        <time>2019-03-30T11:45:55.866Z</time>
      </trkpt>
      <trkpt lat="44.69007" lon="1.18864">
        <ele>283.09371948242</ele>
        <time>2019-03-30T11:46:07.907Z</time>
      </trkpt>
      <trkpt lat="44.69055" lon="1.18914">
        <ele>282.41690063477</ele>
        <time>2019-03-30T11:46:19.957Z</time>
      </trkpt>
      <trkpt lat="44.69055" lon="1.18927">
        <ele>281.79901123047</ele>
        <time>2019-03-30T11:46:32.009Z</time>
      </trkpt>
      <trkpt lat="44.69055" lon="1.18927">
        <ele>281.79843139648</ele>
        <time>2019-03-30T11:46:44.061Z</time>
      </trkpt>
      <trkpt lat="44.69051" lon="1.19023">
        <ele>279.40350341797</ele>
        <time>2019-03-30T11:46:56.124Z</time>
      </trkpt>
      <trkpt lat="44.69051" lon="1.19024">
        <ele>279.42175292969</ele>
        <time>2019-03-30T11:47:08.187Z</time>
      </trkpt>
      <trkpt lat="44.69051" lon="1.19026">
        <ele>279.4367980957</ele>
        <time>2019-03-30T11:47:20.250Z</time>
      </trkpt>
      <trkpt lat="44.69051" lon="1.19026">
        <ele>279.43649291992</ele>
        <time>2019-03-30T11:47:32.313Z</time>
      </trkpt>
      <trkpt lat="44.6905" lon="1.19049">
        <ele>279.66134643555</ele>
        <time>2019-03-30T11:47:44.379Z</time>
      </trkpt>
      <trkpt lat="44.69028" lon="1.192">
        <ele>275.04760742188</ele>
        <time>2019-03-30T11:47:56.462Z</time>
      </trkpt>
      <trkpt lat="44.69028" lon="1.192">
        <ele>275.04791259766</ele>
        <time>2019-03-30T11:48:08.545Z</time>
      </trkpt>
      <trkpt lat="44.69023" lon="1.19308">
        <ele>269.99948120117</ele>
        <time>2019-03-30T11:48:20.641Z</time>
      </trkpt>
      <trkpt lat="44.69028" lon="1.19323">
        <ele>269.79437255859</ele>
        <time>2019-03-30T11:48:32.739Z</time>
      </trkpt>
      <trkpt lat="44.69028" lon="1.19323">
        <ele>269.79498291016</ele>
        <time>2019-03-30T11:48:44.837Z</time>
      </trkpt>
      <trkpt lat="44.69043" lon="1.19371">
        <ele>269.48159790039</ele>
        <time>2019-03-30T11:48:56.941Z</time>
      </trkpt>
      <trkpt lat="44.69046" lon="1.19457">
        <ele>267.958984375</ele>
        <time>2019-03-30T11:49:09.055Z</time>
      </trkpt>
      <trkpt lat="44.69054" lon="1.19694">
        <ele>266.85989379883</ele>
        <time>2019-03-30T11:49:21.196Z</time>
      </trkpt>
      <trkpt lat="44.6905" lon="1.1977">
        <ele>266.04046630859</ele>
        <time>2019-03-30T11:49:33.345Z</time>
      </trkpt>
      <trkpt lat="44.69028" lon="1.19894">
        <ele>260.69464111328</ele>
        <time>2019-03-30T11:49:45.509Z</time>
      </trkpt>
      <trkpt lat="44.69028" lon="1.19894">
        <ele>260.69424438477</ele>
        <time>2019-03-30T11:49:57.673Z</time>
      </trkpt>
      <trkpt lat="44.69011" lon="1.19949">
        <ele>255.91012573242</ele>
        <time>2019-03-30T11:50:09.844Z</time>
      </trkpt>
      <trkpt lat="44.69034" lon="1.20059">
        <ele>252.15641784668</ele>
        <time>2019-03-30T11:50:22.028Z</time>
      </trkpt>
      <trkpt lat="44.6903" lon="1.2017">
        <ele>253.11415100098</ele>
        <time>2019-03-30T11:50:34.225Z</time>
      </trkpt>
      <trkpt lat="44.69039" lon="1.20252">
        <ele>255.9229888916</ele>
        <time>2019-03-30T11:50:46.431Z</time>
      </trkpt>
      <trkpt lat="44.69038" lon="1.2031">
        <ele>258.80642700195</ele>
        <time>2019-03-30T11:50:58.644Z</time>
      </trkpt>
      <trkpt lat="44.6903" lon="1.20371">
        <ele>260.07864379883</ele>
        <time>2019-03-30T11:51:10.864Z</time>
      </trkpt>
      <trkpt lat="44.6903" lon="1.20373">
        <ele>260.11456298828</ele>
        <time>2019-03-30T11:51:23.084Z</time>
      </trkpt>
      <trkpt lat="44.6903" lon="1.20374">
        <ele>260.14657592773</ele>
        <time>2019-03-30T11:51:35.304Z</time>
      </trkpt>
      <trkpt lat="44.6903" lon="1.20374">
        <ele>260.14556884766</ele>
        <time>2019-03-30T11:51:47.524Z</time>
      </trkpt>
      <trkpt lat="44.69029" lon="1.20386">
        <ele>260.36560058594</ele>
        <time>2019-03-30T11:51:59.745Z</time>
      </trkpt>
      <trkpt lat="44.69003" lon="1.20474">
        <ele>262.39031982422</ele>
        <time>2019-03-30T11:52:11.977Z</time>
      </trkpt>
      <trkpt lat="44.69009" lon="1.20574">
        <ele>263.03680419922</ele>
        <time>2019-03-30T11:52:24.221Z</time>
      </trkpt>
      <trkpt lat="44.68988" lon="1.20718">
        <ele>266.2981262207</ele>
        <time>2019-03-30T11:52:36.482Z</time>
      </trkpt>
      <trkpt lat="44.68988" lon="1.20718">
        <ele>266.29803466797</ele>
        <time>2019-03-30T11:52:48.743Z</time>
      </trkpt>
      <trkpt lat="44.68991" lon="1.20909">
        <ele>260.87655639648</ele>
        <time>2019-03-30T11:53:01.025Z</time>
      </trkpt>
      <trkpt lat="44.68991" lon="1.20909">
        <ele>260.8762512207</ele>
        <time>2019-03-30T11:53:13.307Z</time>
      </trkpt>
      <trkpt lat="44.68994" lon="1.20937">
        <ele>259.94839477539</ele>
        <time>2019-03-30T11:53:25.593Z</time>
      </trkpt>
      <trkpt lat="44.68999" lon="1.20975">
        <ele>257.9853515625</ele>
        <time>2019-03-30T11:53:37.883Z</time>
      </trkpt>
      <trkpt lat="44.69025" lon="1.21092">
        <ele>250.65498352051</ele>
        <time>2019-03-30T11:53:50.187Z</time>
      </trkpt>
      <trkpt lat="44.69022" lon="1.21118">
        <ele>248.91720581055</ele>
        <time>2019-03-30T11:54:02.494Z</time>
      </trkpt>
      <trkpt lat="44.69004" lon="1.21154">
        <ele>246.90773010254</ele>
        <time>2019-03-30T11:54:14.806Z</time>
      </trkpt>
      <trkpt lat="44.68984" lon="1.21181">
        <ele>245.75891113281</ele>
        <time>2019-03-30T11:54:27.122Z</time>
      </trkpt>
      <trkpt lat="44.68943" lon="1.21214">
        <ele>248.03733825684</ele>
        <time>2019-03-30T11:54:39.446Z</time>
      </trkpt>
      <trkpt lat="44.68902" lon="1.21313">
        <ele>249.23176574707</ele>
        <time>2019-03-30T11:54:51.783Z</time>
      </trkpt>
      <trkpt lat="44.68974" lon="1.2148">
        <ele>242.20233154297</ele>
        <time>2019-03-30T11:55:04.142Z</time>
      </trkpt>
      <trkpt lat="44.6904" lon="1.21668">
        <ele>231.72155761719</ele>
        <time>2019-03-30T11:55:16.525Z</time>
      </trkpt>
      <trkpt lat="44.69058" lon="1.21705">
        <ele>231.54783630371</ele>
        <time>2019-03-30T11:55:28.913Z</time>
      </trkpt>
      <trkpt lat="44.69059" lon="1.21706">
        <ele>231.54052734375</ele>
        <time>2019-03-30T11:55:41.302Z</time>
      </trkpt>
      <trkpt lat="44.69059" lon="1.21708">
        <ele>231.53349304199</ele>
        <time>2019-03-30T11:55:53.691Z</time>
      </trkpt>
      <trkpt lat="44.69059" lon="1.21708">
        <ele>231.53379821777</ele>
        <time>2019-03-30T11:56:06.080Z</time>
      </trkpt>
      <trkpt lat="44.69136" lon="1.21865">
        <ele>220.53303527832</ele>
        <time>2019-03-30T11:56:18.490Z</time>
      </trkpt>
      <trkpt lat="44.69183" lon="1.21832">
        <ele>218.9987487793</ele>
        <time>2019-03-30T11:56:30.909Z</time>
      </trkpt>
      <trkpt lat="44.69257" lon="1.21813">
        <ele>218.11682128906</ele>
        <time>2019-03-30T11:56:43.340Z</time>
      </trkpt>
      <trkpt lat="44.69312" lon="1.21845">
        <ele>222.13954162598</ele>
        <time>2019-03-30T11:56:55.780Z</time>
      </trkpt>
      <trkpt lat="44.69389" lon="1.21909">
        <ele>230.67495727539</ele>
        <time>2019-03-30T11:57:08.235Z</time>
      </trkpt>
      <trkpt lat="44.69389" lon="1.21909">
        <ele>230.67514038086</ele>
        <time>2019-03-30T11:57:20.690Z</time>
      </trkpt>
      <trkpt lat="44.6939" lon="1.2191">
        <ele>230.77478027344</ele>
        <time>2019-03-30T11:57:33.145Z</time>
      </trkpt>
      <trkpt lat="44.69391" lon="1.21911">
        <ele>230.87609863281</ele>
        <time>2019-03-30T11:57:45.600Z</time>
      </trkpt>
      <trkpt lat="44.69391" lon="1.21911">
        <ele>230.87669372559</ele>
        <time>2019-03-30T11:57:58.055Z</time>
      </trkpt>
      <trkpt lat="44.69491" lon="1.21993">
        <ele>236.02653503418</ele>
        <time>2019-03-30T11:58:10.529Z</time>
      </trkpt>
      <trkpt lat="44.69505" lon="1.22">
        <ele>235.95573425293</ele>
        <time>2019-03-30T11:58:23.005Z</time>
      </trkpt>
      <trkpt lat="44.69567" lon="1.22001">
        <ele>236.9536895752</ele>
        <time>2019-03-30T11:58:35.491Z</time>
      </trkpt>
      <trkpt lat="44.69588" lon="1.22025">
        <ele>235.40898132324</ele>
        <time>2019-03-30T11:58:47.981Z</time>
      </trkpt>
      <trkpt lat="44.69626" lon="1.22089">
        <ele>233.84686279297</ele>
        <time>2019-03-30T11:59:00.481Z</time>
      </trkpt>
      <trkpt lat="44.69645" lon="1.22134">
        <ele>236.00942993164</ele>
        <time>2019-03-30T11:59:12.987Z</time>
      </trkpt>
      <trkpt lat="44.69678" lon="1.22193">
        <ele>238.26739501953</ele>
        <time>2019-03-30T11:59:25.501Z</time>
      </trkpt>
      <trkpt lat="44.69702" lon="1.22268">
        <ele>243.80404663086</ele>
        <time>2019-03-30T11:59:38.025Z</time>
      </trkpt>
      <trkpt lat="44.69716" lon="1.22291">
        <ele>245.33409118652</ele>
        <time>2019-03-30T11:59:50.552Z</time>
      </trkpt>
      <trkpt lat="44.69784" lon="1.22336">
        <ele>246.99197387695</ele>
        <time>2019-03-30T12:00:03.091Z</time>
      </trkpt>
      <trkpt lat="44.6981" lon="1.22372">
        <ele>249.7546081543</ele>
        <time>2019-03-30T12:00:15.636Z</time>
      </trkpt>
      <trkpt lat="44.69834" lon="1.22377">
        <ele>249.01445007324</ele>
        <time>2019-03-30T12:00:28.185Z</time>
      </trkpt>
      <trkpt lat="44.69862" lon="1.22368">
        <ele>247.59748840332</ele>
        <time>2019-03-30T12:00:40.738Z</time>
      </trkpt>
      <trkpt lat="44.69872" lon="1.22376">
        <ele>248.10594177246</ele>
        <time>2019-03-30T12:00:53.293Z</time>
      </trkpt>
      <trkpt lat="44.6991" lon="1.22449">
        <ele>254.81918334961</ele>
        <time>2019-03-30T12:01:05.859Z</time>
      </trkpt>
      <trkpt lat="44.69951" lon="1.22494">
        <ele>260.01965332031</ele>
        <time>2019-03-30T12:01:18.433Z</time>
      </trkpt>
      <trkpt lat="44.69973" lon="1.22595">
        <ele>266.74670410156</ele>
        <time>2019-03-30T12:01:31.019Z</time>
      </trkpt>
      <trkpt lat="44.70006" lon="1.22646">
        <ele>269.36907958984</ele>
        <time>2019-03-30T12:01:43.613Z</time>
      </trkpt>
      <trkpt lat="44.70032" lon="1.22795">
        <ele>265.83489990234</ele>
        <time>2019-03-30T12:01:56.224Z</time>
      </trkpt>
      <trkpt lat="44.70052" lon="1.22881">
        <ele>269.57537841797</ele>
        <time>2019-03-30T12:02:08.846Z</time>
      </trkpt>
      <trkpt lat="44.70052" lon="1.22884">
        <ele>269.71054077148</ele>
        <time>2019-03-30T12:02:21.468Z</time>
      </trkpt>
      <trkpt lat="44.7003" lon="1.22987">
        <ele>273.26974487305</ele>
        <time>2019-03-30T12:02:34.102Z</time>
      </trkpt>
      <trkpt lat="44.70029" lon="1.22989">
        <ele>273.24542236328</ele>
        <time>2019-03-30T12:02:46.736Z</time>
      </trkpt>
      <trkpt lat="44.70029" lon="1.22991">
        <ele>273.22357177734</ele>
        <time>2019-03-30T12:02:59.371Z</time>
      </trkpt>
      <trkpt lat="44.70029" lon="1.22991">
        <ele>273.22265625</ele>
        <time>2019-03-30T12:03:12.006Z</time>
      </trkpt>
      <trkpt lat="44.70026" lon="1.23003">
        <ele>273.04998779297</ele>
        <time>2019-03-30T12:03:24.642Z</time>
      </trkpt>
      <trkpt lat="44.70024" lon="1.23252">
        <ele>275.53298950195</ele>
        <time>2019-03-30T12:03:37.307Z</time>
      </trkpt>
      <trkpt lat="44.69941" lon="1.2343">
        <ele>270.93640136719</ele>
        <time>2019-03-30T12:03:49.996Z</time>
      </trkpt>
      <trkpt lat="44.6989" lon="1.23492">
        <ele>271.19723510742</ele>
        <time>2019-03-30T12:04:02.696Z</time>
      </trkpt>
      <trkpt lat="44.69876" lon="1.23537">
        <ele>270.40151977539</ele>
        <time>2019-03-30T12:04:15.401Z</time>
      </trkpt>
      <trkpt lat="44.69899" lon="1.23603">
        <ele>269.24752807617</ele>
        <time>2019-03-30T12:04:28.115Z</time>
      </trkpt>
      <trkpt lat="44.69961" lon="1.23665">
        <ele>266.69436645508</ele>
        <time>2019-03-30T12:04:40.841Z</time>
      </trkpt>
      <trkpt lat="44.69994" lon="1.2373">
        <ele>259.96807861328</ele>
        <time>2019-03-30T12:04:53.576Z</time>
      </trkpt>
      <trkpt lat="44.69994" lon="1.2373">
        <ele>259.96868896484</ele>
        <time>2019-03-30T12:05:06.311Z</time>
      </trkpt>
      <trkpt lat="44.69999" lon="1.23788">
        <ele>261.69299316406</ele>
        <time>2019-03-30T12:05:19.053Z</time>
      </trkpt>
      <trkpt lat="44.69994" lon="1.23833">
        <ele>262.67211914062</ele>
        <time>2019-03-30T12:05:31.800Z</time>
      </trkpt>
      <trkpt lat="44.70003" lon="1.23886">
        <ele>266.70434570312</ele>
        <time>2019-03-30T12:05:44.553Z</time>
      </trkpt>
      <trkpt lat="44.70001" lon="1.23917">
        <ele>267.56665039062</ele>
        <time>2019-03-30T12:05:57.310Z</time>
      </trkpt>
      <trkpt lat="44.70011" lon="1.23954">
        <ele>267.69537353516</ele>
        <time>2019-03-30T12:06:10.071Z</time>
      </trkpt>
      <trkpt lat="44.70022" lon="1.23966">
        <ele>267.93753051758</ele>
        <time>2019-03-30T12:06:22.834Z</time>
      </trkpt>
      <trkpt lat="44.70088" lon="1.24002">
        <ele>260.61950683594</ele>
        <time>2019-03-30T12:06:35.609Z</time>
      </trkpt>
      <trkpt lat="44.701" lon="1.24003">
        <ele>259.31295776367</ele>
        <time>2019-03-30T12:06:48.386Z</time>
      </trkpt>
      <trkpt lat="44.70116" lon="1.23988">
        <ele>259.44732666016</ele>
        <time>2019-03-30T12:07:01.166Z</time>
      </trkpt>
      <trkpt lat="44.7015" lon="1.23942">
        <ele>256.71170043945</ele>
        <time>2019-03-30T12:07:13.953Z</time>
      </trkpt>
      <trkpt lat="44.70221" lon="1.23878">
        <ele>246.36663818359</ele>
        <time>2019-03-30T12:07:26.754Z</time>
      </trkpt>
      <trkpt lat="44.70265" lon="1.23864">
        <ele>245.51062011719</ele>
        <time>2019-03-30T12:07:39.562Z</time>
      </trkpt>
      <trkpt lat="44.70271" lon="1.23866">
        <ele>245.48001098633</ele>
        <time>2019-03-30T12:07:52.371Z</time>
      </trkpt>
      <trkpt lat="44.70271" lon="1.23866">
        <ele>245.47998046875</ele>
        <time>2019-03-30T12:08:05.180Z</time>
      </trkpt>
      <trkpt lat="44.70272" lon="1.23866">
        <ele>245.47288513184</ele>
        <time>2019-03-30T12:08:17.989Z</time>
      </trkpt>
      <trkpt lat="44.70273" lon="1.23867">
        <ele>245.46545410156</ele>
        <time>2019-03-30T12:08:30.798Z</time>
      </trkpt>
      <trkpt lat="44.70273" lon="1.23867">
        <ele>245.46566772461</ele>
        <time>2019-03-30T12:08:43.607Z</time>
      </trkpt>
      <trkpt lat="44.703" lon="1.23874">
        <ele>243.42822265625</ele>
        <time>2019-03-30T12:08:56.421Z</time>
      </trkpt>
      <trkpt lat="44.70358" lon="1.2402">
        <ele>233.2356262207</ele>
        <time>2019-03-30T12:09:09.254Z</time>
      </trkpt>
      <trkpt lat="44.70375" lon="1.24063">
        <ele>228.30477905273</ele>
        <time>2019-03-30T12:09:22.092Z</time>
      </trkpt>
      <trkpt lat="44.70407" lon="1.24097">
        <ele>221.21849060059</ele>
        <time>2019-03-30T12:09:34.937Z</time>
      </trkpt>
      <trkpt lat="44.70429" lon="1.24165">
        <ele>212.46098327637</ele>
        <time>2019-03-30T12:09:47.790Z</time>
      </trkpt>
      <trkpt lat="44.70417" lon="1.24253">
        <ele>210.45989990234</ele>
        <time>2019-03-30T12:10:00.653Z</time>
      </trkpt>
      <trkpt lat="44.70391" lon="1.24328">
        <ele>216.04026794434</ele>
        <time>2019-03-30T12:10:13.526Z</time>
      </trkpt>
      <trkpt lat="44.70402" lon="1.24357">
        <ele>215.48667907715</ele>
        <time>2019-03-30T12:10:26.403Z</time>
      </trkpt>
      <trkpt lat="44.705" lon="1.24429">
        <ele>208.36920166016</ele>
        <time>2019-03-30T12:10:39.298Z</time>
      </trkpt>
      <trkpt lat="44.70544" lon="1.24498">
        <ele>203.73695373535</ele>
        <time>2019-03-30T12:10:52.203Z</time>
      </trkpt>
      <trkpt lat="44.70614" lon="1.24573">
        <ele>196.38212585449</ele>
        <time>2019-03-30T12:11:05.122Z</time>
      </trkpt>
      <trkpt lat="44.70652" lon="1.24626">
        <ele>197.90710449219</ele>
        <time>2019-03-30T12:11:18.050Z</time>
      </trkpt>
      <trkpt lat="44.70652" lon="1.24626">
        <ele>197.90701293945</ele>
        <time>2019-03-30T12:11:30.978Z</time>
      </trkpt>
      <trkpt lat="44.70776" lon="1.24787">
        <ele>199.35279846191</ele>
        <time>2019-03-30T12:11:43.933Z</time>
      </trkpt>
      <trkpt lat="44.70835" lon="1.24891">
        <ele>192.37451171875</ele>
        <time>2019-03-30T12:11:56.903Z</time>
      </trkpt>
      <trkpt lat="44.70876" lon="1.24915">
        <ele>193.63607788086</ele>
        <time>2019-03-30T12:12:09.880Z</time>
      </trkpt>
      <trkpt lat="44.71029" lon="1.24915">
        <ele>191.50401306152</ele>
        <time>2019-03-30T12:12:22.882Z</time>
      </trkpt>
      <trkpt lat="44.71052" lon="1.249">
        <ele>190.02842712402</ele>
        <time>2019-03-30T12:12:35.888Z</time>
      </trkpt>
      <trkpt lat="44.71052" lon="1.249">
        <ele>190.02798461914</ele>
        <time>2019-03-30T12:12:48.894Z</time>
      </trkpt>
      <trkpt lat="44.71054" lon="1.249">
        <ele>189.9620513916</ele>
        <time>2019-03-30T12:13:01.900Z</time>
      </trkpt>
      <trkpt lat="44.71055" lon="1.24899">
        <ele>189.89183044434</ele>
        <time>2019-03-30T12:13:14.906Z</time>
      </trkpt>
      <trkpt lat="44.71055" lon="1.24899">
        <ele>189.8924407959</ele>
        <time>2019-03-30T12:13:27.912Z</time>
      </trkpt>
      <trkpt lat="44.71068" lon="1.24891">
        <ele>190.6845703125</ele>
        <time>2019-03-30T12:13:40.920Z</time>
      </trkpt>
      <trkpt lat="44.71151" lon="1.24777">
        <ele>190.38388061523</ele>
        <time>2019-03-30T12:13:53.947Z</time>
      </trkpt>
      <trkpt lat="44.71193" lon="1.24756">
        <ele>187.85774230957</ele>
        <time>2019-03-30T12:14:06.981Z</time>
      </trkpt>
      <trkpt lat="44.71525" lon="1.24767">
        <ele>175.65014648438</ele>
        <time>2019-03-30T12:14:20.068Z</time>
      </trkpt>
      <trkpt lat="44.71642" lon="1.24728">
        <ele>169.2730255127</ele>
        <time>2019-03-30T12:14:33.174Z</time>
      </trkpt>
      <trkpt lat="44.71796" lon="1.24757">
        <ele>164.83294677734</ele>
        <time>2019-03-30T12:14:46.305Z</time>
      </trkpt>
      <trkpt lat="44.71822" lon="1.24769">
        <ele>162.34997558594</ele>
        <time>2019-03-30T12:14:59.441Z</time>
      </trkpt>
      <trkpt lat="44.71835" lon="1.24795">
        <ele>164.28727722168</ele>
        <time>2019-03-30T12:15:12.580Z</time>
      </trkpt>
      <trkpt lat="44.71842" lon="1.24915">
        <ele>170.79049682617</ele>
        <time>2019-03-30T12:15:25.733Z</time>
      </trkpt>
      <trkpt lat="44.71856" lon="1.24962">
        <ele>168.47344970703</ele>
        <time>2019-03-30T12:15:38.892Z</time>
      </trkpt>
      <trkpt lat="44.71922" lon="1.25038">
        <ele>157.72541809082</ele>
        <time>2019-03-30T12:15:52.064Z</time>
      </trkpt>
      <trkpt lat="44.71955" lon="1.25092">
        <ele>154.1257019043</ele>
        <time>2019-03-30T12:16:05.245Z</time>
      </trkpt>
      <trkpt lat="44.71993" lon="1.25204">
        <ele>157.32969665527</ele>
        <time>2019-03-30T12:16:18.440Z</time>
      </trkpt>
      <trkpt lat="44.71994" lon="1.25206">
        <ele>157.42283630371</ele>
        <time>2019-03-30T12:16:31.635Z</time>
      </trkpt>
      <trkpt lat="44.71995" lon="1.25207">
        <ele>157.50979614258</ele>
        <time>2019-03-30T12:16:44.830Z</time>
      </trkpt>
      <trkpt lat="44.71995" lon="1.25207">
        <ele>157.51019287109</ele>
        <time>2019-03-30T12:16:58.025Z</time>
      </trkpt>
      <trkpt lat="44.72019" lon="1.25278">
        <ele>156.11009216309</ele>
        <time>2019-03-30T12:17:11.229Z</time>
      </trkpt>
      <trkpt lat="44.72086" lon="1.25347">
        <ele>148.91000366211</ele>
        <time>2019-03-30T12:17:24.446Z</time>
      </trkpt>
      <trkpt lat="44.72115" lon="1.25349">
        <ele>146.43276977539</ele>
        <time>2019-03-30T12:17:37.668Z</time>
      </trkpt>
      <trkpt lat="44.72183" lon="1.25295">
        <ele>150.10047912598</ele>
        <time>2019-03-30T12:17:50.903Z</time>
      </trkpt>
      <trkpt lat="44.72202" lon="1.25288">
        <ele>150.65225219727</ele>
        <time>2019-03-30T12:18:04.141Z</time>
      </trkpt>
      <trkpt lat="44.72334" lon="1.25276">
        <ele>145.86944580078</ele>
        <time>2019-03-30T12:18:17.400Z</time>
      </trkpt>
      <trkpt lat="44.72389" lon="1.25286">
        <ele>145.58932495117</ele>
        <time>2019-03-30T12:18:30.668Z</time>
      </trkpt>
      <trkpt lat="44.72432" lon="1.25307">
        <ele>140.91662597656</ele>
        <time>2019-03-30T12:18:43.943Z</time>
      </trkpt>
      <trkpt lat="44.7247" lon="1.25336">
        <ele>140.06134033203</ele>
        <time>2019-03-30T12:18:57.225Z</time>
      </trkpt>
      <trkpt lat="44.7247" lon="1.25336">
        <ele>140.06105041504</ele>
        <time>2019-03-30T12:19:10.507Z</time>
      </trkpt>
      <trkpt lat="44.72472" lon="1.25336">
        <ele>140.00842285156</ele>
        <time>2019-03-30T12:19:23.789Z</time>
      </trkpt>
      <trkpt lat="44.72473" lon="1.25337">
        <ele>139.95147705078</ele>
        <time>2019-03-30T12:19:37.072Z</time>
      </trkpt>
      <trkpt lat="44.72473" lon="1.25337">
        <ele>139.95007324219</ele>
        <time>2019-03-30T12:19:50.355Z</time>
      </trkpt>
      <trkpt lat="44.72536" lon="1.25384">
        <ele>139.5266418457</ele>
        <time>2019-03-30T12:20:03.649Z</time>
      </trkpt>
      <trkpt lat="44.72681" lon="1.25469">
        <ele>129.82472229004</ele>
        <time>2019-03-30T12:20:16.968Z</time>
      </trkpt>
      <trkpt lat="44.72705" lon="1.25495">
        <ele>128.15748596191</ele>
        <time>2019-03-30T12:20:30.292Z</time>
      </trkpt>
      <trkpt lat="44.7273" lon="1.25532">
        <ele>128.30653381348</ele>
        <time>2019-03-30T12:20:43.622Z</time>
      </trkpt>
      <trkpt lat="44.7273" lon="1.25532">
        <ele>128.3055267334</ele>
        <time>2019-03-30T12:20:56.952Z</time>
      </trkpt>
      <trkpt lat="44.72753" lon="1.25582">
        <ele>128.54644775391</ele>
        <time>2019-03-30T12:21:10.288Z</time>
      </trkpt>
      <trkpt lat="44.72766" lon="1.25596">
        <ele>127.33643341064</ele>
        <time>2019-03-30T12:21:23.627Z</time>
      </trkpt>
      <trkpt lat="44.72766" lon="1.25596">
        <ele>127.33542633057</ele>
        <time>2019-03-30T12:21:36.966Z</time>
      </trkpt>
      <trkpt lat="44.72863" lon="1.25681">
        <ele>121.89897155762</ele>
        <time>2019-03-30T12:21:50.323Z</time>
      </trkpt>
      <trkpt lat="44.72964" lon="1.25885">
        <ele>122.6203918457</ele>
        <time>2019-03-30T12:22:03.709Z</time>
      </trkpt>
      <trkpt lat="44.73001" lon="1.25996">
        <ele>124.06103515625</ele>
        <time>2019-03-30T12:22:17.109Z</time>
      </trkpt>
      <trkpt lat="44.73005" lon="1.26063">
        <ele>125.15393066406</ele>
        <time>2019-03-30T12:22:30.516Z</time>
      </trkpt>
      <trkpt lat="44.73016" lon="1.26145">
        <ele>126.25273132324</ele>
        <time>2019-03-30T12:22:43.933Z</time>
      </trkpt>
      <trkpt lat="44.73016" lon="1.26146">
        <ele>126.24558258057</ele>
        <time>2019-03-30T12:22:57.350Z</time>
      </trkpt>
      <trkpt lat="44.73017" lon="1.26148">
        <ele>126.22109222412</ele>
        <time>2019-03-30T12:23:10.767Z</time>
      </trkpt>
      <trkpt lat="44.73017" lon="1.26148">
        <ele>126.22078704834</ele>
        <time>2019-03-30T12:23:24.184Z</time>
      </trkpt>
      <trkpt lat="44.73037" lon="1.26303">
        <ele>123.23567962646</ele>
        <time>2019-03-30T12:23:37.619Z</time>
      </trkpt>
      <trkpt lat="44.73028" lon="1.26327">
        <ele>123.1675491333</ele>
        <time>2019-03-30T12:23:51.057Z</time>
      </trkpt>
      <trkpt lat="44.73028" lon="1.26327">
        <ele>123.16724395752</ele>
        <time>2019-03-30T12:24:04.495Z</time>
      </trkpt>
      <trkpt lat="44.73028" lon="1.2634">
        <ele>123.00020599365</ele>
        <time>2019-03-30T12:24:17.935Z</time>
      </trkpt>
      <trkpt lat="44.73028" lon="1.2634">
        <ele>122.99990081787</ele>
        <time>2019-03-30T12:24:31.375Z</time>
      </trkpt>
      <trkpt lat="44.73039" lon="1.26376">
        <ele>122.38999938965</ele>
        <time>2019-03-30T12:24:44.819Z</time>
      </trkpt>
      <trkpt lat="44.73039" lon="1.26376">
        <ele>122.39070129395</ele>
        <time>2019-03-30T12:24:58.263Z</time>
      </trkpt>
      <trkpt lat="44.73067" lon="1.26472">
        <ele>132.41331481934</ele>
        <time>2019-03-30T12:25:11.719Z</time>
      </trkpt>
      <trkpt lat="44.73067" lon="1.26472">
        <ele>132.4114074707</ele>
        <time>2019-03-30T12:25:25.175Z</time>
      </trkpt>
      <trkpt lat="44.73152" lon="1.26345">
        <ele>135.65074157715</ele>
        <time>2019-03-30T12:25:38.651Z</time>
      </trkpt>
      <trkpt lat="44.73192" lon="1.26269">
        <ele>129.78089904785</ele>
        <time>2019-03-30T12:25:52.138Z</time>
      </trkpt>
      <trkpt lat="44.73193" lon="1.26267">
        <ele>129.63479614258</ele>
        <time>2019-03-30T12:26:05.625Z</time>
      </trkpt>
      <trkpt lat="44.73194" lon="1.26266">
        <ele>129.48551940918</ele>
        <time>2019-03-30T12:26:19.112Z</time>
      </trkpt>
      <trkpt lat="44.73194" lon="1.26266">
        <ele>129.48794555664</ele>
        <time>2019-03-30T12:26:32.599Z</time>
      </trkpt>
      <trkpt lat="44.73209" lon="1.26238">
        <ele>128.22373962402</ele>
        <time>2019-03-30T12:26:46.090Z</time>
      </trkpt>
      <trkpt lat="44.73234" lon="1.2613">
        <ele>124.48725891113</ele>
        <time>2019-03-30T12:26:59.594Z</time>
      </trkpt>
      <trkpt lat="44.73234" lon="1.26017">
        <ele>124.95429992676</ele>
        <time>2019-03-30T12:27:13.111Z</time>
      </trkpt>
      <trkpt lat="44.73305" lon="1.26051">
        <ele>131.48181152344</ele>
        <time>2019-03-30T12:27:26.640Z</time>
      </trkpt>
      <trkpt lat="44.73404" lon="1.26082">
        <ele>136.23567199707</ele>
        <time>2019-03-30T12:27:40.185Z</time>
      </trkpt>
      <trkpt lat="44.73522" lon="1.26096">
        <ele>141.74215698242</ele>
        <time>2019-03-30T12:27:53.749Z</time>
      </trkpt>
      <trkpt lat="44.73606" lon="1.2609">
        <ele>147.28498840332</ele>
        <time>2019-03-30T12:28:07.327Z</time>
      </trkpt>
      <trkpt lat="44.73623" lon="1.26083">
        <ele>148.42710876465</ele>
        <time>2019-03-30T12:28:20.908Z</time>
      </trkpt>
      <trkpt lat="44.73638" lon="1.26067">
        <ele>148.99847412109</ele>
        <time>2019-03-30T12:28:34.492Z</time>
      </trkpt>
      <trkpt lat="44.73664" lon="1.26015">
        <ele>151.6238861084</ele>
        <time>2019-03-30T12:28:48.083Z</time>
      </trkpt>
      <trkpt lat="44.73665" lon="1.26014">
        <ele>151.64248657227</ele>
        <time>2019-03-30T12:29:01.674Z</time>
      </trkpt>
      <trkpt lat="44.73666" lon="1.26012">
        <ele>151.66217041016</ele>
        <time>2019-03-30T12:29:15.265Z</time>
      </trkpt>
      <trkpt lat="44.73666" lon="1.26012">
        <ele>151.6626739502</ele>
        <time>2019-03-30T12:29:28.856Z</time>
      </trkpt>
      <trkpt lat="44.73671" lon="1.26002">
        <ele>151.78587341309</ele>
        <time>2019-03-30T12:29:42.449Z</time>
      </trkpt>
      <trkpt lat="44.73696" lon="1.25975">
        <ele>151.89558410645</ele>
        <time>2019-03-30T12:29:56.047Z</time>
      </trkpt>
      <trkpt lat="44.73823" lon="1.25923">
        <ele>161.05868530273</ele>
        <time>2019-03-30T12:30:09.666Z</time>
      </trkpt>
      <trkpt lat="44.7392" lon="1.25837">
        <ele>167.28184509277</ele>
        <time>2019-03-30T12:30:23.303Z</time>
      </trkpt>
      <trkpt lat="44.73971" lon="1.25802">
        <ele>166.64157104492</ele>
        <time>2019-03-30T12:30:36.949Z</time>
      </trkpt>
      <trkpt lat="44.73991" lon="1.25803">
        <ele>167.76791381836</ele>
        <time>2019-03-30T12:30:50.599Z</time>
      </trkpt>
      <trkpt lat="44.74031" lon="1.25822">
        <ele>170.75161743164</ele>
        <time>2019-03-30T12:31:04.255Z</time>
      </trkpt>
      <trkpt lat="44.74079" lon="1.2584">
        <ele>171.82020568848</ele>
        <time>2019-03-30T12:31:17.919Z</time>
      </trkpt>
      <trkpt lat="44.74079" lon="1.2584">
        <ele>171.8203125</ele>
        <time>2019-03-30T12:31:31.583Z</time>
      </trkpt>
      <trkpt lat="44.74185" lon="1.25851">
        <ele>178.86987304688</ele>
        <time>2019-03-30T12:31:45.264Z</time>
      </trkpt>
      <trkpt lat="44.74216" lon="1.25829">
        <ele>179.83166503906</ele>
        <time>2019-03-30T12:31:58.951Z</time>
      </trkpt>
      <trkpt lat="44.743" lon="1.25711">
        <ele>186.05833435059</ele>
        <time>2019-03-30T12:32:12.657Z</time>
      </trkpt>
      <trkpt lat="44.7435" lon="1.25644">
        <ele>189.7882232666</ele>
        <time>2019-03-30T12:32:26.374Z</time>
      </trkpt>
      <trkpt lat="44.74353" lon="1.25638">
        <ele>190.57344055176</ele>
        <time>2019-03-30T12:32:40.092Z</time>
      </trkpt>
      <trkpt lat="44.74458" lon="1.25537">
        <ele>196.46463012695</ele>
        <time>2019-03-30T12:32:53.830Z</time>
      </trkpt>
      <trkpt lat="44.74458" lon="1.25537">
        <ele>196.46553039551</ele>
        <time>2019-03-30T12:33:07.568Z</time>
      </trkpt>
      <trkpt lat="44.74675" lon="1.25332">
        <ele>208.03851318359</ele>
        <time>2019-03-30T12:33:21.348Z</time>
      </trkpt>
      <trkpt lat="44.74677" lon="1.25329">
        <ele>208.08999633789</ele>
        <time>2019-03-30T12:33:35.128Z</time>
      </trkpt>
      <trkpt lat="44.74982" lon="1.25108">
        <ele>192.96636962891</ele>
        <time>2019-03-30T12:33:48.963Z</time>
      </trkpt>
      <trkpt lat="44.74993" lon="1.25119">
        <ele>193.48760986328</ele>
        <time>2019-03-30T12:34:02.801Z</time>
      </trkpt>
      <trkpt lat="44.75089" lon="1.25018">
        <ele>189.36912536621</ele>
        <time>2019-03-30T12:34:16.658Z</time>
      </trkpt>
      <trkpt lat="44.75134" lon="1.24949">
        <ele>185.9105682373</ele>
        <time>2019-03-30T12:34:30.525Z</time>
      </trkpt>
      <trkpt lat="44.75408" lon="1.24444">
        <ele>164.16535949707</ele>
        <time>2019-03-30T12:34:44.465Z</time>
      </trkpt>
      <trkpt lat="44.75552" lon="1.24179">
        <ele>161.09078979492</ele>
        <time>2019-03-30T12:34:58.443Z</time>
      </trkpt>
      <trkpt lat="44.75598" lon="1.24088">
        <ele>160.99635314941</ele>
        <time>2019-03-30T12:35:12.433Z</time>
      </trkpt>
      <trkpt lat="44.75598" lon="1.24088">
        <ele>160.9966583252</ele>
        <time>2019-03-30T12:35:26.423Z</time>
      </trkpt>
      <trkpt lat="44.75621" lon="1.24007">
        <ele>155.99856567383</ele>
        <time>2019-03-30T12:35:40.423Z</time>
      </trkpt>
      <trkpt lat="44.75629" lon="1.2382">
        <ele>158.04649353027</ele>
        <time>2019-03-30T12:35:54.445Z</time>
      </trkpt>
      <trkpt lat="44.75639" lon="1.23739">
        <ele>155.4949798584</ele>
        <time>2019-03-30T12:36:08.476Z</time>
      </trkpt>
      <trkpt lat="44.75667" lon="1.23667">
        <ele>158.68460083008</ele>
        <time>2019-03-30T12:36:22.516Z</time>
      </trkpt>
      <trkpt lat="44.75685" lon="1.23638">
        <ele>156.34153747559</ele>
        <time>2019-03-30T12:36:36.561Z</time>
      </trkpt>
      <trkpt lat="44.75719" lon="1.23598">
        <ele>160.28433227539</ele>
        <time>2019-03-30T12:36:50.613Z</time>
      </trkpt>
      <trkpt lat="44.7575" lon="1.23574">
        <ele>159.92976379395</ele>
        <time>2019-03-30T12:37:04.671Z</time>
      </trkpt>
      <trkpt lat="44.75862" lon="1.2352">
        <ele>153.21252441406</ele>
        <time>2019-03-30T12:37:18.748Z</time>
      </trkpt>
      <trkpt lat="44.75909" lon="1.2351">
        <ele>152.35287475586</ele>
        <time>2019-03-30T12:37:32.832Z</time>
      </trkpt>
      <trkpt lat="44.75989" lon="1.23511">
        <ele>147.7751159668</ele>
        <time>2019-03-30T12:37:46.929Z</time>
      </trkpt>
      <trkpt lat="44.76044" lon="1.23493">
        <ele>146.82875061035</ele>
        <time>2019-03-30T12:38:01.035Z</time>
      </trkpt>
      <trkpt lat="44.7618" lon="1.23416">
        <ele>142.25596618652</ele>
        <time>2019-03-30T12:38:15.165Z</time>
      </trkpt>
      <trkpt lat="44.76257" lon="1.23345">
        <ele>140.61824035645</ele>
        <time>2019-03-30T12:38:29.309Z</time>
      </trkpt>
      <trkpt lat="44.7629" lon="1.23303">
        <ele>138.37451171875</ele>
        <time>2019-03-30T12:38:43.460Z</time>
      </trkpt>
      <trkpt lat="44.76291" lon="1.23302">
        <ele>138.41073608398</ele>
        <time>2019-03-30T12:38:57.612Z</time>
      </trkpt>
      <trkpt lat="44.76292" lon="1.23301">
        <ele>138.45028686523</ele>
        <time>2019-03-30T12:39:11.764Z</time>
      </trkpt>
      <trkpt lat="44.76292" lon="1.23301">
        <ele>138.45008850098</ele>
        <time>2019-03-30T12:39:25.916Z</time>
      </trkpt>
      <trkpt lat="44.76515" lon="1.23022">
        <ele>134.91290283203</ele>
        <time>2019-03-30T12:39:40.116Z</time>
      </trkpt>
      <trkpt lat="44.76581" lon="1.2294">
        <ele>136.59846496582</ele>
        <time>2019-03-30T12:39:54.330Z</time>
      </trkpt>
      <trkpt lat="44.76626" lon="1.22882">
        <ele>138.92552185059</ele>
        <time>2019-03-30T12:40:08.554Z</time>
      </trkpt>
      <trkpt lat="44.76635" lon="1.2287">
        <ele>139.28594970703</ele>
        <time>2019-03-30T12:40:22.779Z</time>
      </trkpt>
      <trkpt lat="44.76639" lon="1.22866">
        <ele>139.42755126953</ele>
        <time>2019-03-30T12:40:37.005Z</time>
      </trkpt>
      <trkpt lat="44.7666" lon="1.22839">
        <ele>140.66009521484</ele>
        <time>2019-03-30T12:40:51.236Z</time>
      </trkpt>
      <trkpt lat="44.7666" lon="1.22839">
        <ele>140.65908813477</ele>
        <time>2019-03-30T12:41:05.467Z</time>
      </trkpt>
      <trkpt lat="44.76725" lon="1.22756">
        <ele>144.30862426758</ele>
        <time>2019-03-30T12:41:19.712Z</time>
      </trkpt>
      <trkpt lat="44.76758" lon="1.22704">
        <ele>147.70945739746</ele>
        <time>2019-03-30T12:41:33.965Z</time>
      </trkpt>
      <trkpt lat="44.76784" lon="1.22639">
        <ele>144.80221557617</ele>
        <time>2019-03-30T12:41:48.226Z</time>
      </trkpt>
      <trkpt lat="44.76874" lon="1.2236">
        <ele>151.31187438965</ele>
        <time>2019-03-30T12:42:02.522Z</time>
      </trkpt>
      <trkpt lat="44.76903" lon="1.22296">
        <ele>156.82038879395</ele>
        <time>2019-03-30T12:42:16.827Z</time>
      </trkpt>
      <trkpt lat="44.76903" lon="1.22296">
        <ele>156.81837463379</ele>
        <time>2019-03-30T12:42:31.132Z</time>
      </trkpt>
      <trkpt lat="44.76972" lon="1.22193">
        <ele>160.21046447754</ele>
        <time>2019-03-30T12:42:45.453Z</time>
      </trkpt>
      <trkpt lat="44.76981" lon="1.22159">
        <ele>159.0615234375</ele>
        <time>2019-03-30T12:42:59.778Z</time>
      </trkpt>
      <trkpt lat="44.7699" lon="1.2199">
        <ele>165.8365020752</ele>
        <time>2019-03-30T12:43:14.123Z</time>
      </trkpt>
      <trkpt lat="44.77019" lon="1.2192">
        <ele>167.21865844727</ele>
        <time>2019-03-30T12:43:28.477Z</time>
      </trkpt>
      <trkpt lat="44.77045" lon="1.21884">
        <ele>167.86831665039</ele>
        <time>2019-03-30T12:43:42.837Z</time>
      </trkpt>
      <trkpt lat="44.77077" lon="1.21858">
        <ele>168.57569885254</ele>
        <time>2019-03-30T12:43:57.203Z</time>
      </trkpt>
      <trkpt lat="44.77157" lon="1.21818">
        <ele>172.3487701416</ele>
        <time>2019-03-30T12:44:11.582Z</time>
      </trkpt>
      <trkpt lat="44.77347" lon="1.21728">
        <ele>176.07266235352</ele>
        <time>2019-03-30T12:44:25.993Z</time>
      </trkpt>
      <trkpt lat="44.77458" lon="1.21627">
        <ele>173.52569580078</ele>
        <time>2019-03-30T12:44:40.425Z</time>
      </trkpt>
      <trkpt lat="44.77493" lon="1.21594">
        <ele>171.22061157227</ele>
        <time>2019-03-30T12:44:54.864Z</time>
      </trkpt>
      <trkpt lat="44.77497" lon="1.21589">
        <ele>170.78294372559</ele>
        <time>2019-03-30T12:45:09.304Z</time>
      </trkpt>
      <trkpt lat="44.775" lon="1.21586">
        <ele>170.50729370117</ele>
        <time>2019-03-30T12:45:23.744Z</time>
      </trkpt>
      <trkpt lat="44.77569" lon="1.2152">
        <ele>162.62214660645</ele>
        <time>2019-03-30T12:45:38.198Z</time>
      </trkpt>
      <trkpt lat="44.77615" lon="1.21492">
        <ele>160.69938659668</ele>
        <time>2019-03-30T12:45:52.660Z</time>
      </trkpt>
      <trkpt lat="44.77681" lon="1.21474">
        <ele>159.83261108398</ele>
        <time>2019-03-30T12:46:07.133Z</time>
      </trkpt>
      <trkpt lat="44.77721" lon="1.21453">
        <ele>159.19631958008</ele>
        <time>2019-03-30T12:46:21.612Z</time>
      </trkpt>
      <trkpt lat="44.77873" lon="1.2132">
        <ele>157.1258392334</ele>
        <time>2019-03-30T12:46:36.120Z</time>
      </trkpt>
      <trkpt lat="44.77901" lon="1.21277">
        <ele>159.4083404541</ele>
        <time>2019-03-30T12:46:50.635Z</time>
      </trkpt>
      <trkpt lat="44.7797" lon="1.21134">
        <ele>154.02124023438</ele>
        <time>2019-03-30T12:47:05.169Z</time>
      </trkpt>
      <trkpt lat="44.78028" lon="1.21068">
        <ele>146.21691894531</ele>
        <time>2019-03-30T12:47:19.715Z</time>
      </trkpt>
      <trkpt lat="44.78093" lon="1.21011">
        <ele>143.80529785156</ele>
        <time>2019-03-30T12:47:34.274Z</time>
      </trkpt>
      <trkpt lat="44.78159" lon="1.20951">
        <ele>143.6689453125</ele>
        <time>2019-03-30T12:47:48.845Z</time>
      </trkpt>
      <trkpt lat="44.78222" lon="1.2088">
        <ele>141.75714111328</ele>
        <time>2019-03-30T12:48:03.429Z</time>
      </trkpt>
      <trkpt lat="44.78451" lon="1.20604">
        <ele>117.59830474854</ele>
        <time>2019-03-30T12:48:18.061Z</time>
      </trkpt>
      <trkpt lat="44.78451" lon="1.20604">
        <ele>117.59951782227</ele>
        <time>2019-03-30T12:48:32.693Z</time>
      </trkpt>
      <trkpt lat="44.78499" lon="1.2055">
        <ele>120.46147918701</ele>
        <time>2019-03-30T12:48:47.335Z</time>
      </trkpt>
      <trkpt lat="44.78562" lon="1.205">
        <ele>117.948097229</ele>
        <time>2019-03-30T12:49:01.989Z</time>
      </trkpt>
      <trkpt lat="44.78635" lon="1.20483">
        <ele>115.27507781982</ele>
        <time>2019-03-30T12:49:16.655Z</time>
      </trkpt>
      <trkpt lat="44.78674" lon="1.20489">
        <ele>114.70255279541</ele>
        <time>2019-03-30T12:49:31.327Z</time>
      </trkpt>
      <trkpt lat="44.78867" lon="1.20561">
        <ele>105.30635070801</ele>
        <time>2019-03-30T12:49:46.031Z</time>
      </trkpt>
      <trkpt lat="44.78924" lon="1.2057">
        <ele>105.83380126953</ele>
        <time>2019-03-30T12:50:00.744Z</time>
      </trkpt>
      <trkpt lat="44.792" lon="1.20522">
        <ele>99.746711730957</ele>
        <time>2019-03-30T12:50:15.502Z</time>
      </trkpt>
      <trkpt lat="44.7922" lon="1.20519">
        <ele>98.622459411621</ele>
        <time>2019-03-30T12:50:30.263Z</time>
      </trkpt>
      <trkpt lat="44.79308" lon="1.20502">
        <ele>95.018157958984</ele>
        <time>2019-03-30T12:50:45.038Z</time>
      </trkpt>
      <trkpt lat="44.79308" lon="1.20502">
        <ele>95.014556884766</ele>
        <time>2019-03-30T12:50:59.813Z</time>
      </trkpt>
      <trkpt lat="44.79309" lon="1.20502">
        <ele>94.951934814453</ele>
        <time>2019-03-30T12:51:14.588Z</time>
      </trkpt>
      <trkpt lat="44.79311" lon="1.20502">
        <ele>94.874855041504</ele>
        <time>2019-03-30T12:51:29.364Z</time>
      </trkpt>
      <trkpt lat="44.79311" lon="1.20502">
        <ele>94.875160217285</ele>
        <time>2019-03-30T12:51:44.140Z</time>
      </trkpt>
      <trkpt lat="44.79403" lon="1.20485">
        <ele>93.211418151855</ele>
        <time>2019-03-30T12:51:58.930Z</time>
      </trkpt>
      <trkpt lat="44.79453" lon="1.2049">
        <ele>96.462219238281</ele>
        <time>2019-03-30T12:52:13.728Z</time>
      </trkpt>
      <trkpt lat="44.79475" lon="1.20485">
        <ele>95.610237121582</ele>
        <time>2019-03-30T12:52:28.530Z</time>
      </trkpt>
      <trkpt lat="44.79499" lon="1.20465">
        <ele>93.249214172363</ele>
        <time>2019-03-30T12:52:43.336Z</time>
      </trkpt>
      <trkpt lat="44.79548" lon="1.20454">
        <ele>89.957229614258</ele>
        <time>2019-03-30T12:52:58.150Z</time>
      </trkpt>
      <trkpt lat="44.79663" lon="1.20448">
        <ele>83.933967590332</ele>
        <time>2019-03-30T12:53:12.983Z</time>
      </trkpt>
      <trkpt lat="44.79668" lon="1.20449">
        <ele>83.740478515625</ele>
        <time>2019-03-30T12:53:27.817Z</time>
      </trkpt>
      <trkpt lat="44.79671" lon="1.20445">
        <ele>83.431938171387</ele>
        <time>2019-03-30T12:53:42.651Z</time>
      </trkpt>
      <trkpt lat="44.79764" lon="1.20421">
        <ele>81.480812072754</ele>
        <time>2019-03-30T12:53:57.500Z</time>
      </trkpt>
      <trkpt lat="44.79776" lon="1.20418">
        <ele>80.862533569336</ele>
        <time>2019-03-30T12:54:12.351Z</time>
      </trkpt>
      <trkpt lat="44.79872" lon="1.20402">
        <ele>81.085411071777</ele>
        <time>2019-03-30T12:54:27.218Z</time>
      </trkpt>
      <trkpt lat="44.79894" lon="1.20398">
        <ele>80.528350830078</ele>
        <time>2019-03-30T12:54:42.088Z</time>
      </trkpt>
      <trkpt lat="44.79938" lon="1.2039">
        <ele>79.791282653809</ele>
        <time>2019-03-30T12:54:56.965Z</time>
      </trkpt>
      <trkpt lat="44.79976" lon="1.20383">
        <ele>79.643753051758</ele>
        <time>2019-03-30T12:55:11.849Z</time>
      </trkpt>
      <trkpt lat="44.79976" lon="1.20383">
        <ele>79.644592285156</ele>
        <time>2019-03-30T12:55:26.733Z</time>
      </trkpt>
      <trkpt lat="44.79977" lon="1.20383">
        <ele>79.678863525391</ele>
        <time>2019-03-30T12:55:41.617Z</time>
      </trkpt>
      <trkpt lat="44.79979" lon="1.20383">
        <ele>79.71891784668</ele>
        <time>2019-03-30T12:55:56.501Z</time>
      </trkpt>
      <trkpt lat="44.79979" lon="1.20383">
        <ele>79.718711853027</ele>
        <time>2019-03-30T12:56:11.385Z</time>
      </trkpt>
      <trkpt lat="44.80027" lon="1.20374">
        <ele>80.533676147461</ele>
        <time>2019-03-30T12:56:26.277Z</time>
      </trkpt>
      <trkpt lat="44.80028" lon="1.20374">
        <ele>80.475547790527</ele>
        <time>2019-03-30T12:56:41.169Z</time>
      </trkpt>
      <trkpt lat="44.80111" lon="1.20358">
        <ele>84.850593566895</ele>
        <time>2019-03-30T12:56:56.074Z</time>
      </trkpt>
      <trkpt lat="44.80125" lon="1.20354">
        <ele>84.441688537598</ele>
        <time>2019-03-30T12:57:10.982Z</time>
      </trkpt>
      <trkpt lat="44.80211" lon="1.20339">
        <ele>84.41828918457</ele>
        <time>2019-03-30T12:57:25.904Z</time>
      </trkpt>
      <trkpt lat="44.80217" lon="1.20364">
        <ele>89.27613067627</ele>
        <time>2019-03-30T12:57:40.829Z</time>
      </trkpt>
      <trkpt lat="44.80227" lon="1.20418">
        <ele>100.74057006836</ele>
        <time>2019-03-30T12:57:55.760Z</time>
      </trkpt>
      <trkpt lat="44.80298" lon="1.2062">
        <ele>130.51422119141</ele>
        <time>2019-03-30T12:58:10.717Z</time>
      </trkpt>
      <trkpt lat="44.80298" lon="1.20622">
        <ele>130.53828430176</ele>
        <time>2019-03-30T12:58:25.674Z</time>
      </trkpt>
      <trkpt lat="44.80299" lon="1.20623">
        <ele>130.56010437012</ele>
        <time>2019-03-30T12:58:40.631Z</time>
      </trkpt>
      <trkpt lat="44.80299" lon="1.20623">
        <ele>130.56391906738</ele>
        <time>2019-03-30T12:58:55.588Z</time>
      </trkpt>
      <trkpt lat="44.80369" lon="1.20825">
        <ele>140.9919128418</ele>
        <time>2019-03-30T12:59:10.571Z</time>
      </trkpt>
      <trkpt lat="44.80419" lon="1.20996">
        <ele>149.81552124023</ele>
        <time>2019-03-30T12:59:25.575Z</time>
      </trkpt>
      <trkpt lat="44.80437" lon="1.21087">
        <ele>154.61221313477</ele>
        <time>2019-03-30T12:59:40.589Z</time>
      </trkpt>
      <trkpt lat="44.80433" lon="1.21105">
        <ele>158.72497558594</ele>
        <time>2019-03-30T12:59:55.606Z</time>
      </trkpt>
      <trkpt lat="44.80424" lon="1.21093">
        <ele>162.42579650879</ele>
        <time>2019-03-30T13:00:10.625Z</time>
      </trkpt>
      <trkpt lat="44.80379" lon="1.20964">
        <ele>164.5859375</ele>
        <time>2019-03-30T13:00:25.660Z</time>
      </trkpt>
      <trkpt lat="44.80349" lon="1.20918">
        <ele>168.3120880127</ele>
        <time>2019-03-30T13:00:40.702Z</time>
      </trkpt>
      <trkpt lat="44.80251" lon="1.207">
        <ele>170.61186218262</ele>
        <time>2019-03-30T13:00:55.773Z</time>
      </trkpt>
      <trkpt lat="44.80148" lon="1.20558">
        <ele>146.39050292969</ele>
        <time>2019-03-30T13:01:10.867Z</time>
      </trkpt>
      <trkpt lat="44.80132" lon="1.20558">
        <ele>143.38478088379</ele>
        <time>2019-03-30T13:01:25.964Z</time>
      </trkpt>
      <trkpt lat="44.80111" lon="1.20571">
        <ele>139.50340270996</ele>
        <time>2019-03-30T13:01:41.065Z</time>
      </trkpt>
      <trkpt lat="44.80077" lon="1.20628">
        <ele>132.17172241211</ele>
        <time>2019-03-30T13:01:56.174Z</time>
      </trkpt>
      <trkpt lat="44.80078" lon="1.20672">
        <ele>133.96580505371</ele>
        <time>2019-03-30T13:02:11.288Z</time>
      </trkpt>
      <trkpt lat="44.80117" lon="1.2079">
        <ele>142.90588378906</ele>
        <time>2019-03-30T13:02:26.417Z</time>
      </trkpt>
      <trkpt lat="44.80117" lon="1.2079">
        <ele>142.90980529785</ele>
        <time>2019-03-30T13:02:41.546Z</time>
      </trkpt>
      <trkpt lat="44.80141" lon="1.20829">
        <ele>146.68794250488</ele>
        <time>2019-03-30T13:02:56.681Z</time>
      </trkpt>
      <trkpt lat="44.80179" lon="1.20876">
        <ele>153.83860778809</ele>
        <time>2019-03-30T13:03:11.824Z</time>
      </trkpt>
      <trkpt lat="44.80196" lon="1.20934">
        <ele>158.42733764648</ele>
        <time>2019-03-30T13:03:26.974Z</time>
      </trkpt>
      <trkpt lat="44.80187" lon="1.21">
        <ele>156.50439453125</ele>
        <time>2019-03-30T13:03:42.132Z</time>
      </trkpt>
      <trkpt lat="44.80186" lon="1.21002">
        <ele>156.51910400391</ele>
        <time>2019-03-30T13:03:57.290Z</time>
      </trkpt>
      <trkpt lat="44.80186" lon="1.21004">
        <ele>156.53454589844</ele>
        <time>2019-03-30T13:04:12.448Z</time>
      </trkpt>
      <trkpt lat="44.80186" lon="1.21004">
        <ele>156.53514099121</ele>
        <time>2019-03-30T13:04:27.606Z</time>
      </trkpt>
      <trkpt lat="44.80184" lon="1.21018">
        <ele>156.64616394043</ele>
        <time>2019-03-30T13:04:42.766Z</time>
      </trkpt>
      <trkpt lat="44.80175" lon="1.21147">
        <ele>168.48484802246</ele>
        <time>2019-03-30T13:04:57.941Z</time>
      </trkpt>
      <trkpt lat="44.80135" lon="1.21227">
        <ele>167.94366455078</ele>
        <time>2019-03-30T13:05:13.127Z</time>
      </trkpt>
      <trkpt lat="44.80096" lon="1.21346">
        <ele>180.40737915039</ele>
        <time>2019-03-30T13:05:28.328Z</time>
      </trkpt>
      <trkpt lat="44.80106" lon="1.21352">
        <ele>182.89820861816</ele>
        <time>2019-03-30T13:05:43.530Z</time>
      </trkpt>
      <trkpt lat="44.8011" lon="1.21361">
        <ele>185.08009338379</ele>
        <time>2019-03-30T13:05:58.734Z</time>
      </trkpt>
      <trkpt lat="44.80123" lon="1.21368">
        <ele>188.15771484375</ele>
        <time>2019-03-30T13:06:13.940Z</time>
      </trkpt>
      <trkpt lat="44.80158" lon="1.21395">
        <ele>195.78373718262</ele>
        <time>2019-03-30T13:06:29.152Z</time>
      </trkpt>
      <trkpt lat="44.80132" lon="1.21446">
        <ele>192.72239685059</ele>
        <time>2019-03-30T13:06:44.371Z</time>
      </trkpt>
      <trkpt lat="44.80128" lon="1.21462">
        <ele>191.96292114258</ele>
        <time>2019-03-30T13:06:59.592Z</time>
      </trkpt>
      <trkpt lat="44.8013" lon="1.21465">
        <ele>192.21504211426</ele>
        <time>2019-03-30T13:07:14.814Z</time>
      </trkpt>
      <trkpt lat="44.8013" lon="1.21482">
        <ele>191.90824890137</ele>
        <time>2019-03-30T13:07:30.038Z</time>
      </trkpt>
      <trkpt lat="44.80133" lon="1.21501">
        <ele>191.40621948242</ele>
        <time>2019-03-30T13:07:45.264Z</time>
      </trkpt>
      <trkpt lat="44.80143" lon="1.21558">
        <ele>190.02354431152</ele>
        <time>2019-03-30T13:08:00.497Z</time>
      </trkpt>
      <trkpt lat="44.80143" lon="1.21558">
        <ele>190.02243041992</ele>
        <time>2019-03-30T13:08:15.730Z</time>
      </trkpt>
      <trkpt lat="44.80155" lon="1.21624">
        <ele>185.69895935059</ele>
        <time>2019-03-30T13:08:30.970Z</time>
      </trkpt>
      <trkpt lat="44.8017" lon="1.21626">
        <ele>187.0763092041</ele>
        <time>2019-03-30T13:08:46.213Z</time>
      </trkpt>
      <trkpt lat="44.80183" lon="1.2167">
        <ele>183.03240966797</ele>
        <time>2019-03-30T13:09:01.461Z</time>
      </trkpt>
      <trkpt lat="44.80209" lon="1.2168">
        <ele>184.12197875977</ele>
        <time>2019-03-30T13:09:16.714Z</time>
      </trkpt>
      <trkpt lat="44.80222" lon="1.21697">
        <ele>183.53628540039</ele>
        <time>2019-03-30T13:09:31.970Z</time>
      </trkpt>
      <trkpt lat="44.8023" lon="1.21762">
        <ele>175.2054901123</ele>
        <time>2019-03-30T13:09:47.233Z</time>
      </trkpt>
      <trkpt lat="44.80225" lon="1.21781">
        <ele>175.6882019043</ele>
        <time>2019-03-30T13:10:02.498Z</time>
      </trkpt>
      <trkpt lat="44.802" lon="1.218">
        <ele>176.23890686035</ele>
        <time>2019-03-30T13:10:17.768Z</time>
      </trkpt>
      <trkpt lat="44.80179" lon="1.21823">
        <ele>173.56327819824</ele>
        <time>2019-03-30T13:10:33.042Z</time>
      </trkpt>
      <trkpt lat="44.80149" lon="1.21909">
        <ele>174.46153259277</ele>
        <time>2019-03-30T13:10:48.327Z</time>
      </trkpt>
      <trkpt lat="44.80149" lon="1.2193">
        <ele>175.44927978516</ele>
        <time>2019-03-30T13:11:03.614Z</time>
      </trkpt>
      <trkpt lat="44.80149" lon="1.2193">
        <ele>175.45008850098</ele>
        <time>2019-03-30T13:11:18.901Z</time>
      </trkpt>
      <trkpt lat="44.80183" lon="1.22004">
        <ele>180.21112060547</ele>
        <time>2019-03-30T13:11:34.198Z</time>
      </trkpt>
      <trkpt lat="44.80191" lon="1.22014">
        <ele>181.05990600586</ele>
        <time>2019-03-30T13:11:49.497Z</time>
      </trkpt>
      <trkpt lat="44.80194" lon="1.22072">
        <ele>182.22367858887</ele>
        <time>2019-03-30T13:12:04.803Z</time>
      </trkpt>
      <trkpt lat="44.80202" lon="1.22077">
        <ele>182.60984802246</ele>
        <time>2019-03-30T13:12:20.110Z</time>
      </trkpt>
      <trkpt lat="44.80211" lon="1.22124">
        <ele>181.36907958984</ele>
        <time>2019-03-30T13:12:35.423Z</time>
      </trkpt>
      <trkpt lat="44.80249" lon="1.22188">
        <ele>182.2797088623</ele>
        <time>2019-03-30T13:12:50.745Z</time>
      </trkpt>
      <trkpt lat="44.80296" lon="1.22242">
        <ele>184.27604675293</ele>
        <time>2019-03-30T13:13:06.077Z</time>
      </trkpt>
      <trkpt lat="44.80296" lon="1.22242">
        <ele>184.2762298584</ele>
        <time>2019-03-30T13:13:21.409Z</time>
      </trkpt>
      <trkpt lat="44.80296" lon="1.22242">
        <ele>184.27639770508</ele>
        <time>2019-03-30T13:13:36.741Z</time>
      </trkpt>
      <trkpt lat="44.80297" lon="1.22243">
        <ele>184.30270385742</ele>
        <time>2019-03-30T13:13:52.073Z</time>
      </trkpt>
      <trkpt lat="44.80298" lon="1.22245">
        <ele>184.33200073242</ele>
        <time>2019-03-30T13:14:07.405Z</time>
      </trkpt>
      <trkpt lat="44.80298" lon="1.22245">
        <ele>184.33401489258</ele>
        <time>2019-03-30T13:14:22.737Z</time>
      </trkpt>
      <trkpt lat="44.80332" lon="1.22284">
        <ele>185.18269348145</ele>
        <time>2019-03-30T13:14:38.076Z</time>
      </trkpt>
      <trkpt lat="44.80345" lon="1.22321">
        <ele>188.55308532715</ele>
        <time>2019-03-30T13:14:53.420Z</time>
      </trkpt>
      <trkpt lat="44.80343" lon="1.2236">
        <ele>188.7654876709</ele>
        <time>2019-03-30T13:15:08.768Z</time>
      </trkpt>
      <trkpt lat="44.80324" lon="1.2242">
        <ele>196.78773498535</ele>
        <time>2019-03-30T13:15:24.124Z</time>
      </trkpt>
      <trkpt lat="44.80322" lon="1.22443">
        <ele>196.15908813477</ele>
        <time>2019-03-30T13:15:39.483Z</time>
      </trkpt>
      <trkpt lat="44.80331" lon="1.22491">
        <ele>190.81126403809</ele>
        <time>2019-03-30T13:15:54.847Z</time>
      </trkpt>
      <trkpt lat="44.80349" lon="1.22532">
        <ele>183.60913085938</ele>
        <time>2019-03-30T13:16:10.217Z</time>
      </trkpt>
      <trkpt lat="44.80345" lon="1.22565">
        <ele>180.12115478516</ele>
        <time>2019-03-30T13:16:25.590Z</time>
      </trkpt>
      <trkpt lat="44.80299" lon="1.22659">
        <ele>173.27833557129</ele>
        <time>2019-03-30T13:16:40.976Z</time>
      </trkpt>
      <trkpt lat="44.8027" lon="1.2268">
        <ele>176.33135986328</ele>
        <time>2019-03-30T13:16:56.368Z</time>
      </trkpt>
      <trkpt lat="44.80258" lon="1.22699">
        <ele>176.84893798828</ele>
        <time>2019-03-30T13:17:11.763Z</time>
      </trkpt>
      <trkpt lat="44.80257" lon="1.22743">
        <ele>176.9379119873</ele>
        <time>2019-03-30T13:17:27.163Z</time>
      </trkpt>
      <trkpt lat="44.80285" lon="1.2279">
        <ele>173.03755187988</ele>
        <time>2019-03-30T13:17:42.570Z</time>
      </trkpt>
      <trkpt lat="44.80287" lon="1.22802">
        <ele>173.0311126709</ele>
        <time>2019-03-30T13:17:57.978Z</time>
      </trkpt>
      <trkpt lat="44.80285" lon="1.22814">
        <ele>173.57415771484</ele>
        <time>2019-03-30T13:18:13.387Z</time>
      </trkpt>
      <trkpt lat="44.80243" lon="1.2287">
        <ele>177.26284790039</ele>
        <time>2019-03-30T13:18:28.806Z</time>
      </trkpt>
      <trkpt lat="44.80233" lon="1.2292">
        <ele>176.37466430664</ele>
        <time>2019-03-30T13:18:44.231Z</time>
      </trkpt>
      <trkpt lat="44.80235" lon="1.22947">
        <ele>174.51145935059</ele>
        <time>2019-03-30T13:18:59.659Z</time>
      </trkpt>
      <trkpt lat="44.8025" lon="1.23001">
        <ele>172.29275512695</ele>
        <time>2019-03-30T13:19:15.093Z</time>
      </trkpt>
      <trkpt lat="44.80263" lon="1.23022">
        <ele>172.2734375</ele>
        <time>2019-03-30T13:19:30.530Z</time>
      </trkpt>
      <trkpt lat="44.80282" lon="1.23035">
        <ele>169.73112487793</ele>
        <time>2019-03-30T13:19:45.971Z</time>
      </trkpt>
      <trkpt lat="44.80304" lon="1.23034">
        <ele>166.33728027344</ele>
        <time>2019-03-30T13:20:01.415Z</time>
      </trkpt>
      <trkpt lat="44.80334" lon="1.23015">
        <ele>160.70341491699</ele>
        <time>2019-03-30T13:20:16.865Z</time>
      </trkpt>
      <trkpt lat="44.8034" lon="1.23">
        <ele>158.67027282715</ele>
        <time>2019-03-30T13:20:32.317Z</time>
      </trkpt>
      <trkpt lat="44.80343" lon="1.22962">
        <ele>157.0668182373</ele>
        <time>2019-03-30T13:20:47.773Z</time>
      </trkpt>
      <trkpt lat="44.8036" lon="1.22932">
        <ele>154.09765625</ele>
        <time>2019-03-30T13:21:03.233Z</time>
      </trkpt>
      <trkpt lat="44.80384" lon="1.22917">
        <ele>153.23831176758</ele>
        <time>2019-03-30T13:21:18.697Z</time>
      </trkpt>
      <trkpt lat="44.80441" lon="1.22907">
        <ele>150.7815246582</ele>
        <time>2019-03-30T13:21:34.171Z</time>
      </trkpt>
      <trkpt lat="44.80473" lon="1.22928">
        <ele>151.83854675293</ele>
        <time>2019-03-30T13:21:49.650Z</time>
      </trkpt>
      <trkpt lat="44.80539" lon="1.23024">
        <ele>158.88459777832</ele>
        <time>2019-03-30T13:22:05.145Z</time>
      </trkpt>
      <trkpt lat="44.80612" lon="1.23052">
        <ele>145.89552307129</ele>
        <time>2019-03-30T13:22:20.652Z</time>
      </trkpt>
      <trkpt lat="44.80637" lon="1.23084">
        <ele>147.75665283203</ele>
        <time>2019-03-30T13:22:36.164Z</time>
      </trkpt>
      <trkpt lat="44.8065" lon="1.23091">
        <ele>148.45155334473</ele>
        <time>2019-03-30T13:22:51.678Z</time>
      </trkpt>
      <trkpt lat="44.80661" lon="1.23091">
        <ele>148.99844360352</ele>
        <time>2019-03-30T13:23:07.194Z</time>
      </trkpt>
      <trkpt lat="44.80668" lon="1.23049">
        <ele>146.12399291992</ele>
        <time>2019-03-30T13:23:22.715Z</time>
      </trkpt>
      <trkpt lat="44.80664" lon="1.23016">
        <ele>143.62805175781</ele>
        <time>2019-03-30T13:23:38.240Z</time>
      </trkpt>
      <trkpt lat="44.80656" lon="1.22998">
        <ele>142.75915527344</ele>
        <time>2019-03-30T13:23:53.767Z</time>
      </trkpt>
      <trkpt lat="44.80608" lon="1.22937">
        <ele>137.49696350098</ele>
        <time>2019-03-30T13:24:09.305Z</time>
      </trkpt>
      <trkpt lat="44.80596" lon="1.22903">
        <ele>137.0979309082</ele>
        <time>2019-03-30T13:24:24.847Z</time>
      </trkpt>
      <trkpt lat="44.80591" lon="1.2286">
        <ele>131.72276306152</ele>
        <time>2019-03-30T13:24:40.394Z</time>
      </trkpt>
      <trkpt lat="44.80593" lon="1.22822">
        <ele>130.55780029297</ele>
        <time>2019-03-30T13:24:55.945Z</time>
      </trkpt>
      <trkpt lat="44.80624" lon="1.227">
        <ele>121.70380401611</ele>
        <time>2019-03-30T13:25:11.511Z</time>
      </trkpt>
      <trkpt lat="44.80623" lon="1.22658">
        <ele>117.41728210449</ele>
        <time>2019-03-30T13:25:27.082Z</time>
      </trkpt>
      <trkpt lat="44.80638" lon="1.22625">
        <ele>117.62831878662</ele>
        <time>2019-03-30T13:25:42.657Z</time>
      </trkpt>
      <trkpt lat="44.80659" lon="1.22617">
        <ele>121.67670440674</ele>
        <time>2019-03-30T13:25:58.236Z</time>
      </trkpt>
      <trkpt lat="44.80685" lon="1.22634">
        <ele>129.38731384277</ele>
        <time>2019-03-30T13:26:13.819Z</time>
      </trkpt>
      <trkpt lat="44.80733" lon="1.2273">
        <ele>141.9273223877</ele>
        <time>2019-03-30T13:26:29.416Z</time>
      </trkpt>
      <trkpt lat="44.80753" lon="1.22749">
        <ele>143.60073852539</ele>
        <time>2019-03-30T13:26:45.017Z</time>
      </trkpt>
      <trkpt lat="44.80896" lon="1.22797">
        <ele>131.82052612305</ele>
        <time>2019-03-30T13:27:00.641Z</time>
      </trkpt>
      <trkpt lat="44.80959" lon="1.22856">
        <ele>130.28926086426</ele>
        <time>2019-03-30T13:27:16.277Z</time>
      </trkpt>
      <trkpt lat="44.80985" lon="1.22898">
        <ele>129.7559967041</ele>
        <time>2019-03-30T13:27:31.920Z</time>
      </trkpt>
      <trkpt lat="44.8104" lon="1.22963">
        <ele>131.8270111084</ele>
        <time>2019-03-30T13:27:47.574Z</time>
      </trkpt>
      <trkpt lat="44.81097" lon="1.22968">
        <ele>124.08935546875</ele>
        <time>2019-03-30T13:28:03.237Z</time>
      </trkpt>
      <trkpt lat="44.81165" lon="1.22988">
        <ele>120.03022766113</ele>
        <time>2019-03-30T13:28:18.911Z</time>
      </trkpt>
      <trkpt lat="44.81193" lon="1.23012">
        <ele>124.65787506104</ele>
        <time>2019-03-30T13:28:34.591Z</time>
      </trkpt>
      <trkpt lat="44.81295" lon="1.23149">
        <ele>134.78294372559</ele>
        <time>2019-03-30T13:28:50.293Z</time>
      </trkpt>
      <trkpt lat="44.81374" lon="1.23185">
        <ele>120.19201660156</ele>
        <time>2019-03-30T13:29:06.008Z</time>
      </trkpt>
      <trkpt lat="44.81602" lon="1.2333">
        <ele>98.696472167969</ele>
        <time>2019-03-30T13:29:21.764Z</time>
      </trkpt>
      <trkpt lat="44.81602" lon="1.2333">
        <ele>98.689849853516</ele>
        <time>2019-03-30T13:29:37.520Z</time>
      </trkpt>
      <trkpt lat="44.81602" lon="1.2333">
        <ele>98.688850402832</ele>
        <time>2019-03-30T13:29:53.276Z</time>
      </trkpt>
      <trkpt lat="44.81603" lon="1.23331">
        <ele>98.544654846191</ele>
        <time>2019-03-30T13:30:09.032Z</time>
      </trkpt>
      <trkpt lat="44.81604" lon="1.23332">
        <ele>98.362838745117</ele>
        <time>2019-03-30T13:30:24.788Z</time>
      </trkpt>
      <trkpt lat="44.81604" lon="1.23332">
        <ele>98.362030029297</ele>
        <time>2019-03-30T13:30:40.544Z</time>
      </trkpt>
      <trkpt lat="44.81748" lon="1.23424">
        <ele>94.490074157715</ele>
        <time>2019-03-30T13:30:56.325Z</time>
      </trkpt>
      <trkpt lat="44.81775" lon="1.23428">
        <ele>94.322731018066</ele>
        <time>2019-03-30T13:31:12.111Z</time>
      </trkpt>
      <trkpt lat="44.8179" lon="1.23419">
        <ele>93.786880493164</ele>
        <time>2019-03-30T13:31:27.899Z</time>
      </trkpt>
      <trkpt lat="44.81809" lon="1.23392">
        <ele>92.382736206055</ele>
        <time>2019-03-30T13:31:43.692Z</time>
      </trkpt>
      <trkpt lat="44.81809" lon="1.23392">
        <ele>92.382537841797</ele>
        <time>2019-03-30T13:31:59.485Z</time>
      </trkpt>
      <trkpt lat="44.81834" lon="1.23338">
        <ele>90.543334960938</ele>
        <time>2019-03-30T13:32:15.285Z</time>
      </trkpt>
      <trkpt lat="44.81834" lon="1.23338">
        <ele>90.543434143066</ele>
        <time>2019-03-30T13:32:31.085Z</time>
      </trkpt>
      <trkpt lat="44.81865" lon="1.23261">
        <ele>87.921806335449</ele>
        <time>2019-03-30T13:32:46.895Z</time>
      </trkpt>
      <trkpt lat="44.81885" lon="1.23228">
        <ele>86.45426940918</ele>
        <time>2019-03-30T13:33:02.710Z</time>
      </trkpt>
      <trkpt lat="44.81961" lon="1.23133">
        <ele>88.908386230469</ele>
        <time>2019-03-30T13:33:18.541Z</time>
      </trkpt>
      <trkpt lat="44.82006" lon="1.23096">
        <ele>88.804008483887</ele>
        <time>2019-03-30T13:33:34.380Z</time>
      </trkpt>
      <trkpt lat="44.82006" lon="1.23096">
        <ele>88.804008483887</ele>
        <time>2019-03-30T13:33:50.219Z</time>
      </trkpt>
      <trkpt lat="44.82069" lon="1.23031">
        <ele>88.753562927246</ele>
        <time>2019-03-30T13:34:06.071Z</time>
      </trkpt>
      <trkpt lat="44.82082" lon="1.23">
        <ele>88.966049194336</ele>
        <time>2019-03-30T13:34:21.927Z</time>
      </trkpt>
      <trkpt lat="44.82091" lon="1.22967">
        <ele>88.306266784668</ele>
        <time>2019-03-30T13:34:37.787Z</time>
      </trkpt>
      <trkpt lat="44.82125" lon="1.22998">
        <ele>88</ele>
        <time>2019-03-30T13:34:53.654Z</time>
      </trkpt>
      <trkpt lat="44.82145" lon="1.23032">
        <ele>88</ele>
        <time>2019-03-30T13:35:09.526Z</time>
      </trkpt>
      <trkpt lat="44.82362" lon="1.23481">
        <ele>90.613578796387</ele>
        <time>2019-03-30T13:35:25.459Z</time>
      </trkpt>
      <trkpt lat="44.82362" lon="1.23481">
        <ele>90.612266540527</ele>
        <time>2019-03-30T13:35:41.392Z</time>
      </trkpt>
      <trkpt lat="44.82378" lon="1.23582">
        <ele>91.868171691895</ele>
        <time>2019-03-30T13:35:57.337Z</time>
      </trkpt>
      <trkpt lat="44.82371" lon="1.23672">
        <ele>93.144302368164</ele>
        <time>2019-03-30T13:36:13.293Z</time>
      </trkpt>
      <trkpt lat="44.82371" lon="1.23672">
        <ele>93.143798828125</ele>
        <time>2019-03-30T13:36:29.249Z</time>
      </trkpt>
      <trkpt lat="44.82358" lon="1.23732">
        <ele>90.239685058594</ele>
        <time>2019-03-30T13:36:45.212Z</time>
      </trkpt>
      <trkpt lat="44.8227" lon="1.2394">
        <ele>98.98949432373</ele>
        <time>2019-03-30T13:37:01.202Z</time>
      </trkpt>
      <trkpt lat="44.82257" lon="1.2402">
        <ele>97.798805236816</ele>
        <time>2019-03-30T13:37:17.202Z</time>
      </trkpt>
      <trkpt lat="44.82196" lon="1.24144">
        <ele>107.32053375244</ele>
        <time>2019-03-30T13:37:33.219Z</time>
      </trkpt>
      <trkpt lat="44.82196" lon="1.24144">
        <ele>107.3226776123</ele>
        <time>2019-03-30T13:37:49.236Z</time>
      </trkpt>
      <trkpt lat="44.82196" lon="1.24144">
        <ele>107.32482147217</ele>
        <time>2019-03-30T13:38:05.253Z</time>
      </trkpt>
      <trkpt lat="44.82196" lon="1.24145">
        <ele>107.65089416504</ele>
        <time>2019-03-30T13:38:21.270Z</time>
      </trkpt>
      <trkpt lat="44.82195" lon="1.24147">
        <ele>107.76110839844</ele>
        <time>2019-03-30T13:38:37.287Z</time>
      </trkpt>
      <trkpt lat="44.82195" lon="1.24147">
        <ele>107.75909423828</ele>
        <time>2019-03-30T13:38:53.304Z</time>
      </trkpt>
      <trkpt lat="44.82176" lon="1.24186">
        <ele>106.89322662354</ele>
        <time>2019-03-30T13:39:09.326Z</time>
      </trkpt>
      <trkpt lat="44.82069" lon="1.24368">
        <ele>139.13290405273</ele>
        <time>2019-03-30T13:39:25.375Z</time>
      </trkpt>
      <trkpt lat="44.82069" lon="1.24368">
        <ele>139.12767028809</ele>
        <time>2019-03-30T13:39:41.424Z</time>
      </trkpt>
      <trkpt lat="44.8205" lon="1.24649">
        <ele>128.34126281738</ele>
        <time>2019-03-30T13:39:57.505Z</time>
      </trkpt>
      <trkpt lat="44.82054" lon="1.24944">
        <ele>135.20004272461</ele>
        <time>2019-03-30T13:40:13.620Z</time>
      </trkpt>
      <trkpt lat="44.82054" lon="1.2498">
        <ele>138.71282958984</ele>
        <time>2019-03-30T13:40:29.739Z</time>
      </trkpt>
      <trkpt lat="44.82085" lon="1.25019">
        <ele>120.51741027832</ele>
        <time>2019-03-30T13:40:45.865Z</time>
      </trkpt>
      <trkpt lat="44.82113" lon="1.2511">
        <ele>112.43412780762</ele>
        <time>2019-03-30T13:41:02.002Z</time>
      </trkpt>
      <trkpt lat="44.82125" lon="1.25228">
        <ele>109.62448883057</ele>
        <time>2019-03-30T13:41:18.153Z</time>
      </trkpt>
      <trkpt lat="44.82118" lon="1.25336">
        <ele>105.26054382324</ele>
        <time>2019-03-30T13:41:34.316Z</time>
      </trkpt>
      <trkpt lat="44.82107" lon="1.25361">
        <ele>109.30249786377</ele>
        <time>2019-03-30T13:41:50.482Z</time>
      </trkpt>
      <trkpt lat="44.8208" lon="1.25395">
        <ele>106.2286605835</ele>
        <time>2019-03-30T13:42:06.654Z</time>
      </trkpt>
      <trkpt lat="44.8208" lon="1.25395">
        <ele>106.22885894775</ele>
        <time>2019-03-30T13:42:22.826Z</time>
      </trkpt>
      <trkpt lat="44.82023" lon="1.2546">
        <ele>111.19686889648</ele>
        <time>2019-03-30T13:42:39.010Z</time>
      </trkpt>
      <trkpt lat="44.81925" lon="1.25533">
        <ele>125.95541381836</ele>
        <time>2019-03-30T13:42:55.212Z</time>
      </trkpt>
      <trkpt lat="44.81847" lon="1.2555">
        <ele>129.31231689453</ele>
        <time>2019-03-30T13:43:11.426Z</time>
      </trkpt>
      <trkpt lat="44.81767" lon="1.25604">
        <ele>140.11616516113</ele>
        <time>2019-03-30T13:43:27.655Z</time>
      </trkpt>
      <trkpt lat="44.8171" lon="1.25592">
        <ele>137.83128356934</ele>
        <time>2019-03-30T13:43:43.893Z</time>
      </trkpt>
      <trkpt lat="44.8167" lon="1.25616">
        <ele>146.98468017578</ele>
        <time>2019-03-30T13:44:00.138Z</time>
      </trkpt>
      <trkpt lat="44.8167" lon="1.25616">
        <ele>146.98527526855</ele>
        <time>2019-03-30T13:44:16.383Z</time>
      </trkpt>
      <trkpt lat="44.8157" lon="1.25717">
        <ele>154.53393554688</ele>
        <time>2019-03-30T13:44:32.647Z</time>
      </trkpt>
      <trkpt lat="44.81522" lon="1.25706">
        <ele>157.66909790039</ele>
        <time>2019-03-30T13:44:48.919Z</time>
      </trkpt>
      <trkpt lat="44.81498" lon="1.25709">
        <ele>158.68482971191</ele>
        <time>2019-03-30T13:45:05.195Z</time>
      </trkpt>
      <trkpt lat="44.81417" lon="1.25758">
        <ele>167.67366027832</ele>
        <time>2019-03-30T13:45:21.485Z</time>
      </trkpt>
      <trkpt lat="44.81348" lon="1.25819">
        <ele>165.36544799805</ele>
        <time>2019-03-30T13:45:37.788Z</time>
      </trkpt>
      <trkpt lat="44.81345" lon="1.25823">
        <ele>166.12437438965</ele>
        <time>2019-03-30T13:45:54.092Z</time>
      </trkpt>
      <trkpt lat="44.81345" lon="1.25823">
        <ele>166.12585449219</ele>
        <time>2019-03-30T13:46:10.396Z</time>
      </trkpt>
      <trkpt lat="44.81345" lon="1.25823">
        <ele>166.12734985352</ele>
        <time>2019-03-30T13:46:26.700Z</time>
      </trkpt>
      <trkpt lat="44.81344" lon="1.25824">
        <ele>166.35360717773</ele>
        <time>2019-03-30T13:46:43.004Z</time>
      </trkpt>
      <trkpt lat="44.81342" lon="1.25826">
        <ele>166.61679077148</ele>
        <time>2019-03-30T13:46:59.308Z</time>
      </trkpt>
      <trkpt lat="44.81342" lon="1.25826">
        <ele>166.61650085449</ele>
        <time>2019-03-30T13:47:15.612Z</time>
      </trkpt>
      <trkpt lat="44.81272" lon="1.25915">
        <ele>175.94442749023</ele>
        <time>2019-03-30T13:47:31.931Z</time>
      </trkpt>
      <trkpt lat="44.81241" lon="1.25986">
        <ele>183.23637390137</ele>
        <time>2019-03-30T13:47:48.260Z</time>
      </trkpt>
      <trkpt lat="44.81229" lon="1.26043">
        <ele>187.50817871094</ele>
        <time>2019-03-30T13:48:04.596Z</time>
      </trkpt>
      <trkpt lat="44.81189" lon="1.26084">
        <ele>190.89289855957</ele>
        <time>2019-03-30T13:48:20.940Z</time>
      </trkpt>
      <trkpt lat="44.81131" lon="1.26185">
        <ele>200.6961517334</ele>
        <time>2019-03-30T13:48:37.298Z</time>
      </trkpt>
      <trkpt lat="44.8112" lon="1.26225">
        <ele>199.22737121582</ele>
        <time>2019-03-30T13:48:53.661Z</time>
      </trkpt>
      <trkpt lat="44.81124" lon="1.26286">
        <ele>201.22822570801</ele>
        <time>2019-03-30T13:49:10.031Z</time>
      </trkpt>
      <trkpt lat="44.81097" lon="1.26313">
        <ele>205.90089416504</ele>
        <time>2019-03-30T13:49:26.407Z</time>
      </trkpt>
      <trkpt lat="44.81071" lon="1.26377">
        <ele>210.72766113281</ele>
        <time>2019-03-30T13:49:42.791Z</time>
      </trkpt>
      <trkpt lat="44.81068" lon="1.26392">
        <ele>210.3994140625</ele>
        <time>2019-03-30T13:49:59.177Z</time>
      </trkpt>
      <trkpt lat="44.81092" lon="1.26475">
        <ele>210.72880554199</ele>
        <time>2019-03-30T13:50:15.573Z</time>
      </trkpt>
      <trkpt lat="44.81099" lon="1.26564">
        <ele>215.40101623535</ele>
        <time>2019-03-30T13:50:31.979Z</time>
      </trkpt>
      <trkpt lat="44.81095" lon="1.26576">
        <ele>216.88778686523</ele>
        <time>2019-03-30T13:50:48.387Z</time>
      </trkpt>
      <trkpt lat="44.81057" lon="1.26599">
        <ele>216.56205749512</ele>
        <time>2019-03-30T13:51:04.801Z</time>
      </trkpt>
      <trkpt lat="44.81028" lon="1.26639">
        <ele>215.05740356445</ele>
        <time>2019-03-30T13:51:21.222Z</time>
      </trkpt>
      <trkpt lat="44.81006" lon="1.26757">
        <ele>225.02131652832</ele>
        <time>2019-03-30T13:51:37.657Z</time>
      </trkpt>
      <trkpt lat="44.80993" lon="1.26785">
        <ele>228.24609375</ele>
        <time>2019-03-30T13:51:54.096Z</time>
      </trkpt>
      <trkpt lat="44.80968" lon="1.26789">
        <ele>228.94119262695</ele>
        <time>2019-03-30T13:52:10.539Z</time>
      </trkpt>
      <trkpt lat="44.80934" lon="1.26759">
        <ele>226.48661804199</ele>
        <time>2019-03-30T13:52:26.988Z</time>
      </trkpt>
      <trkpt lat="44.80925" lon="1.26759">
        <ele>226.95002746582</ele>
        <time>2019-03-30T13:52:43.439Z</time>
      </trkpt>
      <trkpt lat="44.80912" lon="1.26771">
        <ele>228.97964477539</ele>
        <time>2019-03-30T13:52:59.892Z</time>
      </trkpt>
      <trkpt lat="44.8091" lon="1.2679">
        <ele>230.36987304688</ele>
        <time>2019-03-30T13:53:16.347Z</time>
      </trkpt>
      <trkpt lat="44.80931" lon="1.26824">
        <ele>232.40138244629</ele>
        <time>2019-03-30T13:53:32.807Z</time>
      </trkpt>
      <trkpt lat="44.80941" lon="1.26858">
        <ele>233.6371307373</ele>
        <time>2019-03-30T13:53:49.272Z</time>
      </trkpt>
      <trkpt lat="44.80941" lon="1.26858">
        <ele>233.6371307373</ele>
        <time>2019-03-30T13:54:05.737Z</time>
      </trkpt>
      <trkpt lat="44.8094" lon="1.26926">
        <ele>236.0936126709</ele>
        <time>2019-03-30T13:54:22.209Z</time>
      </trkpt>
      <trkpt lat="44.80906" lon="1.27001">
        <ele>234.26928710938</ele>
        <time>2019-03-30T13:54:38.691Z</time>
      </trkpt>
      <trkpt lat="44.80889" lon="1.27068">
        <ele>228.59553527832</ele>
        <time>2019-03-30T13:54:55.181Z</time>
      </trkpt>
      <trkpt lat="44.80857" lon="1.27245">
        <ele>219.99282836914</ele>
        <time>2019-03-30T13:55:11.692Z</time>
      </trkpt>
      <trkpt lat="44.80857" lon="1.27272">
        <ele>219.00888061523</ele>
        <time>2019-03-30T13:55:28.206Z</time>
      </trkpt>
      <trkpt lat="44.80878" lon="1.27319">
        <ele>218.09991455078</ele>
        <time>2019-03-30T13:55:44.727Z</time>
      </trkpt>
      <trkpt lat="44.80913" lon="1.27334">
        <ele>215.52035522461</ele>
        <time>2019-03-30T13:56:01.254Z</time>
      </trkpt>
      <trkpt lat="44.80959" lon="1.2732">
        <ele>216.50659179688</ele>
        <time>2019-03-30T13:56:17.788Z</time>
      </trkpt>
      <trkpt lat="44.81005" lon="1.27291">
        <ele>222.10249328613</ele>
        <time>2019-03-30T13:56:34.330Z</time>
      </trkpt>
      <trkpt lat="44.8102" lon="1.27311">
        <ele>218.97448730469</ele>
        <time>2019-03-30T13:56:50.875Z</time>
      </trkpt>
      <trkpt lat="44.81019" lon="1.27364">
        <ele>216.0731048584</ele>
        <time>2019-03-30T13:57:07.427Z</time>
      </trkpt>
      <trkpt lat="44.81019" lon="1.27364">
        <ele>216.07330322266</ele>
        <time>2019-03-30T13:57:23.979Z</time>
      </trkpt>
      <trkpt lat="44.81002" lon="1.27502">
        <ele>208.37335205078</ele>
        <time>2019-03-30T13:57:40.546Z</time>
      </trkpt>
      <trkpt lat="44.81007" lon="1.27535">
        <ele>209.08326721191</ele>
        <time>2019-03-30T13:57:57.117Z</time>
      </trkpt>
      <trkpt lat="44.80998" lon="1.27566">
        <ele>207.21264648438</ele>
        <time>2019-03-30T13:58:13.692Z</time>
      </trkpt>
      <trkpt lat="44.80901" lon="1.27644">
        <ele>201.84548950195</ele>
        <time>2019-03-30T13:58:30.285Z</time>
      </trkpt>
      <trkpt lat="44.808" lon="1.2765">
        <ele>191.38395690918</ele>
        <time>2019-03-30T13:58:46.894Z</time>
      </trkpt>
      <trkpt lat="44.80699" lon="1.27703">
        <ele>177.68276977539</ele>
        <time>2019-03-30T13:59:03.520Z</time>
      </trkpt>
      <trkpt lat="44.80688" lon="1.27721">
        <ele>177.48974609375</ele>
        <time>2019-03-30T13:59:20.149Z</time>
      </trkpt>
      <trkpt lat="44.80688" lon="1.27721">
        <ele>177.4891204834</ele>
        <time>2019-03-30T13:59:36.778Z</time>
      </trkpt>
      <trkpt lat="44.80688" lon="1.27721">
        <ele>177.48849487305</ele>
        <time>2019-03-30T13:59:53.407Z</time>
      </trkpt>
      <trkpt lat="44.80687" lon="1.27723">
        <ele>177.39321899414</ele>
        <time>2019-03-30T14:00:10.036Z</time>
      </trkpt>
      <trkpt lat="44.80686" lon="1.27724">
        <ele>177.28289794922</ele>
        <time>2019-03-30T14:00:26.666Z</time>
      </trkpt>
      <trkpt lat="44.80686" lon="1.27724">
        <ele>177.28189086914</ele>
        <time>2019-03-30T14:00:43.296Z</time>
      </trkpt>
      <trkpt lat="44.80683" lon="1.2773">
        <ele>176.93031311035</ele>
        <time>2019-03-30T14:00:59.926Z</time>
      </trkpt>
      <trkpt lat="44.80684" lon="1.27756">
        <ele>174.80732727051</ele>
        <time>2019-03-30T14:01:16.559Z</time>
      </trkpt>
      <trkpt lat="44.80691" lon="1.27765">
        <ele>174.30529785156</ele>
        <time>2019-03-30T14:01:33.194Z</time>
      </trkpt>
      <trkpt lat="44.80758" lon="1.27809">
        <ele>175.72579956055</ele>
        <time>2019-03-30T14:01:49.841Z</time>
      </trkpt>
      <trkpt lat="44.80795" lon="1.27849">
        <ele>171.67149353027</ele>
        <time>2019-03-30T14:02:06.495Z</time>
      </trkpt>
      <trkpt lat="44.80843" lon="1.27844">
        <ele>174.6587677002</ele>
        <time>2019-03-30T14:02:23.157Z</time>
      </trkpt>
      <trkpt lat="44.80881" lon="1.27856">
        <ele>176.39924621582</ele>
        <time>2019-03-30T14:02:39.825Z</time>
      </trkpt>
      <trkpt lat="44.80891" lon="1.2787">
        <ele>175.19567871094</ele>
        <time>2019-03-30T14:02:56.495Z</time>
      </trkpt>
      <trkpt lat="44.80873" lon="1.27984">
        <ele>154.84022521973</ele>
        <time>2019-03-30T14:03:13.179Z</time>
      </trkpt>
      <trkpt lat="44.80883" lon="1.28027">
        <ele>153.68170166016</ele>
        <time>2019-03-30T14:03:29.868Z</time>
      </trkpt>
      <trkpt lat="44.8092" lon="1.28092">
        <ele>159.28665161133</ele>
        <time>2019-03-30T14:03:46.566Z</time>
      </trkpt>
      <trkpt lat="44.80919" lon="1.28109">
        <ele>159.2544708252</ele>
        <time>2019-03-30T14:04:03.266Z</time>
      </trkpt>
      <trkpt lat="44.80908" lon="1.28137">
        <ele>156.2392578125</ele>
        <time>2019-03-30T14:04:19.970Z</time>
      </trkpt>
      <trkpt lat="44.80866" lon="1.28192">
        <ele>150.39495849609</ele>
        <time>2019-03-30T14:04:36.683Z</time>
      </trkpt>
      <trkpt lat="44.80843" lon="1.28256">
        <ele>155.88539123535</ele>
        <time>2019-03-30T14:04:53.404Z</time>
      </trkpt>
      <trkpt lat="44.80836" lon="1.28261">
        <ele>156.15562438965</ele>
        <time>2019-03-30T14:05:10.126Z</time>
      </trkpt>
      <trkpt lat="44.80758" lon="1.28226">
        <ele>152.82298278809</ele>
        <time>2019-03-30T14:05:26.862Z</time>
      </trkpt>
      <trkpt lat="44.8068" lon="1.28203">
        <ele>149.15887451172</ele>
        <time>2019-03-30T14:05:43.610Z</time>
      </trkpt>
      <trkpt lat="44.80641" lon="1.28198">
        <ele>143.60089111328</ele>
        <time>2019-03-30T14:06:00.365Z</time>
      </trkpt>
      <trkpt lat="44.80601" lon="1.28206">
        <ele>139.18292236328</ele>
        <time>2019-03-30T14:06:17.126Z</time>
      </trkpt>
      <trkpt lat="44.80563" lon="1.2823">
        <ele>132.16163635254</ele>
        <time>2019-03-30T14:06:33.894Z</time>
      </trkpt>
      <trkpt lat="44.80551" lon="1.28255">
        <ele>131.23115539551</ele>
        <time>2019-03-30T14:06:50.665Z</time>
      </trkpt>
      <trkpt lat="44.80536" lon="1.28321">
        <ele>129.81021118164</ele>
        <time>2019-03-30T14:07:07.444Z</time>
      </trkpt>
      <trkpt lat="44.80506" lon="1.28366">
        <ele>135.30061340332</ele>
        <time>2019-03-30T14:07:24.230Z</time>
      </trkpt>
      <trkpt lat="44.80506" lon="1.28366">
        <ele>135.30081176758</ele>
        <time>2019-03-30T14:07:41.016Z</time>
      </trkpt>
      <trkpt lat="44.80482" lon="1.28412">
        <ele>134.75827026367</ele>
        <time>2019-03-30T14:07:57.808Z</time>
      </trkpt>
      <trkpt lat="44.80462" lon="1.2847">
        <ele>133.63569641113</ele>
        <time>2019-03-30T14:08:14.608Z</time>
      </trkpt>
      <trkpt lat="44.80456" lon="1.28506">
        <ele>131.44116210938</ele>
        <time>2019-03-30T14:08:31.412Z</time>
      </trkpt>
      <trkpt lat="44.8046" lon="1.28558">
        <ele>128.40969848633</ele>
        <time>2019-03-30T14:08:48.222Z</time>
      </trkpt>
      <trkpt lat="44.80481" lon="1.28597">
        <ele>124.08193206787</ele>
        <time>2019-03-30T14:09:05.038Z</time>
      </trkpt>
      <trkpt lat="44.80519" lon="1.28618">
        <ele>121.64488983154</ele>
        <time>2019-03-30T14:09:21.860Z</time>
      </trkpt>
      <trkpt lat="44.80588" lon="1.28688">
        <ele>117.43413543701</ele>
        <time>2019-03-30T14:09:38.696Z</time>
      </trkpt>
      <trkpt lat="44.80603" lon="1.28712">
        <ele>116.49839019775</ele>
        <time>2019-03-30T14:09:55.535Z</time>
      </trkpt>
      <trkpt lat="44.8061" lon="1.28743">
        <ele>116.82621002197</ele>
        <time>2019-03-30T14:10:12.378Z</time>
      </trkpt>
      <trkpt lat="44.80588" lon="1.28862">
        <ele>118.8561630249</ele>
        <time>2019-03-30T14:10:29.235Z</time>
      </trkpt>
      <trkpt lat="44.80586" lon="1.28968">
        <ele>119.30944061279</ele>
        <time>2019-03-30T14:10:46.104Z</time>
      </trkpt>
      <trkpt lat="44.80551" lon="1.29075">
        <ele>117.37921905518</ele>
        <time>2019-03-30T14:11:02.987Z</time>
      </trkpt>
      <trkpt lat="44.80551" lon="1.29112">
        <ele>115.15257263184</ele>
        <time>2019-03-30T14:11:19.874Z</time>
      </trkpt>
      <trkpt lat="44.80594" lon="1.29205">
        <ele>105.7409362793</ele>
        <time>2019-03-30T14:11:36.773Z</time>
      </trkpt>
      <trkpt lat="44.8066" lon="1.29274">
        <ele>103.06897735596</ele>
        <time>2019-03-30T14:11:53.686Z</time>
      </trkpt>
      <trkpt lat="44.8066" lon="1.29274">
        <ele>103.06897735596</ele>
        <time>2019-03-30T14:12:10.599Z</time>
      </trkpt>
      <trkpt lat="44.80725" lon="1.29316">
        <ele>103.3510055542</ele>
        <time>2019-03-30T14:12:27.523Z</time>
      </trkpt>
      <trkpt lat="44.8074" lon="1.29341">
        <ele>101.51023864746</ele>
        <time>2019-03-30T14:12:44.451Z</time>
      </trkpt>
      <trkpt lat="44.80742" lon="1.29377">
        <ele>99.627250671387</ele>
        <time>2019-03-30T14:13:01.383Z</time>
      </trkpt>
      <trkpt lat="44.80733" lon="1.29455">
        <ele>97.572525024414</ele>
        <time>2019-03-30T14:13:18.324Z</time>
      </trkpt>
      <trkpt lat="44.80709" lon="1.29526">
        <ele>93.766708374023</ele>
        <time>2019-03-30T14:13:35.274Z</time>
      </trkpt>
      <trkpt lat="44.8071" lon="1.29575">
        <ele>90.564361572266</ele>
        <time>2019-03-30T14:13:52.229Z</time>
      </trkpt>
      <trkpt lat="44.80712" lon="1.29588">
        <ele>90.120262145996</ele>
        <time>2019-03-30T14:14:09.186Z</time>
      </trkpt>
      <trkpt lat="44.80726" lon="1.29744">
        <ele>99.541290283203</ele>
        <time>2019-03-30T14:14:26.161Z</time>
      </trkpt>
      <trkpt lat="44.8074" lon="1.29751">
        <ele>100.60971069336</ele>
        <time>2019-03-30T14:14:43.138Z</time>
      </trkpt>
      <trkpt lat="44.80803" lon="1.29767">
        <ele>103.13333129883</ele>
        <time>2019-03-30T14:15:00.126Z</time>
      </trkpt>
      <trkpt lat="44.80874" lon="1.2976">
        <ele>102.0244140625</ele>
        <time>2019-03-30T14:15:17.125Z</time>
      </trkpt>
      <trkpt lat="44.8091" lon="1.29739">
        <ele>98.713844299316</ele>
        <time>2019-03-30T14:15:34.130Z</time>
      </trkpt>
      <trkpt lat="44.80946" lon="1.29692">
        <ele>94.53369140625</ele>
        <time>2019-03-30T14:15:51.143Z</time>
      </trkpt>
      <trkpt lat="44.8101" lon="1.29605">
        <ele>93.893478393555</ele>
        <time>2019-03-30T14:16:08.170Z</time>
      </trkpt>
      <trkpt lat="44.81093" lon="1.29529">
        <ele>92.550178527832</ele>
        <time>2019-03-30T14:16:25.213Z</time>
      </trkpt>
      <trkpt lat="44.81183" lon="1.29468">
        <ele>90.756446838379</ele>
        <time>2019-03-30T14:16:42.272Z</time>
      </trkpt>
      <trkpt lat="44.81211" lon="1.2946">
        <ele>90.877265930176</ele>
        <time>2019-03-30T14:16:59.336Z</time>
      </trkpt>
      <trkpt lat="44.81211" lon="1.2946">
        <ele>90.877426147461</ele>
        <time>2019-03-30T14:17:16.400Z</time>
      </trkpt>
      <trkpt lat="44.81211" lon="1.2946">
        <ele>90.877891540527</ele>
        <time>2019-03-30T14:17:33.464Z</time>
      </trkpt>
      <trkpt lat="44.81213" lon="1.29459">
        <ele>90.947509765625</ele>
        <time>2019-03-30T14:17:50.528Z</time>
      </trkpt>
      <trkpt lat="44.81214" lon="1.29459">
        <ele>91.031684875488</ele>
        <time>2019-03-30T14:18:07.592Z</time>
      </trkpt>
      <trkpt lat="44.81214" lon="1.29459">
        <ele>91.032188415527</ele>
        <time>2019-03-30T14:18:24.656Z</time>
      </trkpt>
      <trkpt lat="44.81303" lon="1.29432">
        <ele>91.231842041016</ele>
        <time>2019-03-30T14:18:41.735Z</time>
      </trkpt>
      <trkpt lat="44.8143" lon="1.29426">
        <ele>92.23397064209</ele>
        <time>2019-03-30T14:18:58.834Z</time>
      </trkpt>
      <trkpt lat="44.81571" lon="1.29464">
        <ele>86.307228088379</ele>
        <time>2019-03-30T14:19:15.956Z</time>
      </trkpt>
      <trkpt lat="44.81633" lon="1.2947">
        <ele>84.245452880859</ele>
        <time>2019-03-30T14:19:33.088Z</time>
      </trkpt>
      <trkpt lat="44.81689" lon="1.29457">
        <ele>84.388687133789</ele>
        <time>2019-03-30T14:19:50.229Z</time>
      </trkpt>
      <trkpt lat="44.8175" lon="1.29421">
        <ele>84.874732971191</ele>
        <time>2019-03-30T14:20:07.381Z</time>
      </trkpt>
      <trkpt lat="44.8175" lon="1.29421">
        <ele>84.874732971191</ele>
        <time>2019-03-30T14:20:24.533Z</time>
      </trkpt>
      <trkpt lat="44.8181" lon="1.29361">
        <ele>88.845260620117</ele>
        <time>2019-03-30T14:20:41.696Z</time>
      </trkpt>
      <trkpt lat="44.8181" lon="1.29361">
        <ele>88.846969604492</ele>
        <time>2019-03-30T14:20:58.859Z</time>
      </trkpt>
      <trkpt lat="44.81851" lon="1.29309">
        <ele>86.498794555664</ele>
        <time>2019-03-30T14:21:16.031Z</time>
      </trkpt>
      <trkpt lat="44.81928" lon="1.29184">
        <ele>85.042991638184</ele>
        <time>2019-03-30T14:21:33.222Z</time>
      </trkpt>
      <trkpt lat="44.81939" lon="1.29173">
        <ele>84.06468963623</ele>
        <time>2019-03-30T14:21:50.415Z</time>
      </trkpt>
      <trkpt lat="44.82028" lon="1.2912">
        <ele>84.57347869873</ele>
        <time>2019-03-30T14:22:07.624Z</time>
      </trkpt>
      <trkpt lat="44.82051" lon="1.29105">
        <ele>83.72297668457</ele>
        <time>2019-03-30T14:22:24.837Z</time>
      </trkpt>
      <trkpt lat="44.82064" lon="1.29103">
        <ele>84.321548461914</ele>
        <time>2019-03-30T14:22:42.052Z</time>
      </trkpt>
      <trkpt lat="44.82065" lon="1.29103">
        <ele>84.437400817871</ele>
        <time>2019-03-30T14:22:59.267Z</time>
      </trkpt>
      <trkpt lat="44.82081" lon="1.29115">
        <ele>86.503425598145</ele>
        <time>2019-03-30T14:23:16.485Z</time>
      </trkpt>
      <trkpt lat="44.82094" lon="1.29115">
        <ele>87.240234375</ele>
        <time>2019-03-30T14:23:33.705Z</time>
      </trkpt>
      <trkpt lat="44.82165" lon="1.29059">
        <ele>86.36922454834</ele>
        <time>2019-03-30T14:23:50.938Z</time>
      </trkpt>
      <trkpt lat="44.82199" lon="1.29041">
        <ele>87.697898864746</ele>
        <time>2019-03-30T14:24:08.177Z</time>
      </trkpt>
      <trkpt lat="44.82274" lon="1.29019">
        <ele>92.088256835938</ele>
        <time>2019-03-30T14:24:25.428Z</time>
      </trkpt>
      <trkpt lat="44.82274" lon="1.29019">
        <ele>92.088966369629</ele>
        <time>2019-03-30T14:24:42.679Z</time>
      </trkpt>
      <trkpt lat="44.82351" lon="1.29033">
        <ele>99.483467102051</ele>
        <time>2019-03-30T14:24:59.943Z</time>
      </trkpt>
      <trkpt lat="44.82368" lon="1.29045">
        <ele>101.8455657959</ele>
        <time>2019-03-30T14:25:17.210Z</time>
      </trkpt>
      <trkpt lat="44.824" lon="1.29092">
        <ele>106.37813568115</ele>
        <time>2019-03-30T14:25:34.484Z</time>
      </trkpt>
      <trkpt lat="44.82453" lon="1.2922">
        <ele>109.975730896</ele>
        <time>2019-03-30T14:25:51.775Z</time>
      </trkpt>
      <trkpt lat="44.82468" lon="1.29317">
        <ele>113.56241607666</ele>
        <time>2019-03-30T14:26:09.077Z</time>
      </trkpt>
      <trkpt lat="44.82468" lon="1.29317">
        <ele>113.56272125244</ele>
        <time>2019-03-30T14:26:26.379Z</time>
      </trkpt>
      <trkpt lat="44.82481" lon="1.29349">
        <ele>115.32734680176</ele>
        <time>2019-03-30T14:26:43.685Z</time>
      </trkpt>
      <trkpt lat="44.82524" lon="1.29416">
        <ele>119.54951477051</ele>
        <time>2019-03-30T14:27:01.002Z</time>
      </trkpt>
      <trkpt lat="44.82556" lon="1.29452">
        <ele>119.38801574707</ele>
        <time>2019-03-30T14:27:18.325Z</time>
      </trkpt>
      <trkpt lat="44.8257" lon="1.29487">
        <ele>119.3360824585</ele>
        <time>2019-03-30T14:27:35.653Z</time>
      </trkpt>
      <trkpt lat="44.82579" lon="1.29538">
        <ele>121.79179382324</ele>
        <time>2019-03-30T14:27:52.987Z</time>
      </trkpt>
      <trkpt lat="44.82617" lon="1.29564">
        <ele>117.85484313965</ele>
        <time>2019-03-30T14:28:10.328Z</time>
      </trkpt>
      <trkpt lat="44.82634" lon="1.29586">
        <ele>115.40267181396</ele>
        <time>2019-03-30T14:28:27.672Z</time>
      </trkpt>
      <trkpt lat="44.8263" lon="1.29615">
        <ele>118.11876678467</ele>
        <time>2019-03-30T14:28:45.020Z</time>
      </trkpt>
      <trkpt lat="44.82584" lon="1.29722">
        <ele>124.99091339111</ele>
        <time>2019-03-30T14:29:02.382Z</time>
      </trkpt>
      <trkpt lat="44.82603" lon="1.29799">
        <ele>115.40100860596</ele>
        <time>2019-03-30T14:29:19.753Z</time>
      </trkpt>
      <trkpt lat="44.82602" lon="1.2982">
        <ele>113.72825622559</ele>
        <time>2019-03-30T14:29:37.126Z</time>
      </trkpt>
      <trkpt lat="44.82584" lon="1.29891">
        <ele>117.96375274658</ele>
        <time>2019-03-30T14:29:54.508Z</time>
      </trkpt>
      <trkpt lat="44.82571" lon="1.29981">
        <ele>121.89257049561</ele>
        <time>2019-03-30T14:30:11.901Z</time>
      </trkpt>
      <trkpt lat="44.82517" lon="1.30097">
        <ele>123.02224731445</ele>
        <time>2019-03-30T14:30:29.309Z</time>
      </trkpt>
      <trkpt lat="44.82515" lon="1.30231">
        <ele>125.24575805664</ele>
        <time>2019-03-30T14:30:46.733Z</time>
      </trkpt>
      <trkpt lat="44.82566" lon="1.30325">
        <ele>124.66276550293</ele>
        <time>2019-03-30T14:31:04.170Z</time>
      </trkpt>
      <trkpt lat="44.82566" lon="1.30325">
        <ele>124.66313934326</ele>
        <time>2019-03-30T14:31:21.607Z</time>
      </trkpt>
      <trkpt lat="44.82566" lon="1.30325">
        <ele>124.66351318359</ele>
        <time>2019-03-30T14:31:39.044Z</time>
      </trkpt>
      <trkpt lat="44.82567" lon="1.30326">
        <ele>124.72085571289</ele>
        <time>2019-03-30T14:31:56.481Z</time>
      </trkpt>
      <trkpt lat="44.82567" lon="1.30326">
        <ele>124.72101593018</ele>
        <time>2019-03-30T14:32:13.918Z</time>
      </trkpt>
      <trkpt lat="44.82579" lon="1.30347">
        <ele>125.51086425781</ele>
        <time>2019-03-30T14:32:31.358Z</time>
      </trkpt>
      <trkpt lat="44.82665" lon="1.30435">
        <ele>129.77528381348</ele>
        <time>2019-03-30T14:32:48.815Z</time>
      </trkpt>
      <trkpt lat="44.8273" lon="1.30468">
        <ele>132.83874511719</ele>
        <time>2019-03-30T14:33:06.283Z</time>
      </trkpt>
      <trkpt lat="44.82767" lon="1.30522">
        <ele>138.25115966797</ele>
        <time>2019-03-30T14:33:23.760Z</time>
      </trkpt>
      <trkpt lat="44.82783" lon="1.30544">
        <ele>140.76129150391</ele>
        <time>2019-03-30T14:33:41.241Z</time>
      </trkpt>
      <trkpt lat="44.82925" lon="1.30681">
        <ele>121.75656890869</ele>
        <time>2019-03-30T14:33:58.749Z</time>
      </trkpt>
      <trkpt lat="44.82925" lon="1.30681">
        <ele>121.75566864014</ele>
        <time>2019-03-30T14:34:16.257Z</time>
      </trkpt>
      <trkpt lat="44.82989" lon="1.30731">
        <ele>118.6372756958</ele>
        <time>2019-03-30T14:34:33.777Z</time>
      </trkpt>
      <trkpt lat="44.82989" lon="1.30731">
        <ele>118.63716888428</ele>
        <time>2019-03-30T14:34:51.297Z</time>
      </trkpt>
      <trkpt lat="44.83069" lon="1.30807">
        <ele>122.22215270996</ele>
        <time>2019-03-30T14:35:08.832Z</time>
      </trkpt>
      <trkpt lat="44.83105" lon="1.30842">
        <ele>122.88499450684</ele>
        <time>2019-03-30T14:35:26.374Z</time>
      </trkpt>
      <trkpt lat="44.83121" lon="1.30866">
        <ele>123.27761077881</ele>
        <time>2019-03-30T14:35:43.920Z</time>
      </trkpt>
      <trkpt lat="44.83125" lon="1.30926">
        <ele>121.89018249512</ele>
        <time>2019-03-30T14:36:01.473Z</time>
      </trkpt>
      <trkpt lat="44.8314" lon="1.30969">
        <ele>118.83940887451</ele>
        <time>2019-03-30T14:36:19.031Z</time>
      </trkpt>
      <trkpt lat="44.83155" lon="1.3101">
        <ele>115.82725524902</ele>
        <time>2019-03-30T14:36:36.595Z</time>
      </trkpt>
      <trkpt lat="44.83163" lon="1.31028">
        <ele>114.91992950439</ele>
        <time>2019-03-30T14:36:54.161Z</time>
      </trkpt>
      <trkpt lat="44.83177" lon="1.31043">
        <ele>113.86479187012</ele>
        <time>2019-03-30T14:37:11.730Z</time>
      </trkpt>
      <trkpt lat="44.83202" lon="1.31048">
        <ele>113.08541870117</ele>
        <time>2019-03-30T14:37:29.303Z</time>
      </trkpt>
      <trkpt lat="44.83212" lon="1.31048">
        <ele>112.79872894287</ele>
        <time>2019-03-30T14:37:46.877Z</time>
      </trkpt>
      <trkpt lat="44.83249" lon="1.31045">
        <ele>111.29305267334</ele>
        <time>2019-03-30T14:38:04.457Z</time>
      </trkpt>
      <trkpt lat="44.83249" lon="1.31045">
        <ele>111.29264831543</ele>
        <time>2019-03-30T14:38:22.037Z</time>
      </trkpt>
      <trkpt lat="44.83294" lon="1.31031">
        <ele>111.61762237549</ele>
        <time>2019-03-30T14:38:39.625Z</time>
      </trkpt>
      <trkpt lat="44.83355" lon="1.31029">
        <ele>108.76324462891</ele>
        <time>2019-03-30T14:38:57.222Z</time>
      </trkpt>
      <trkpt lat="44.83421" lon="1.31037">
        <ele>102.83059692383</ele>
        <time>2019-03-30T14:39:14.830Z</time>
      </trkpt>
      <trkpt lat="44.83421" lon="1.31037">
        <ele>102.82988739014</ele>
        <time>2019-03-30T14:39:32.438Z</time>
      </trkpt>
      <trkpt lat="44.83484" lon="1.31056">
        <ele>98.703216552734</ele>
        <time>2019-03-30T14:39:50.056Z</time>
      </trkpt>
      <trkpt lat="44.83548" lon="1.3105">
        <ele>100.5249710083</ele>
        <time>2019-03-30T14:40:07.685Z</time>
      </trkpt>
      <trkpt lat="44.83548" lon="1.3105">
        <ele>100.52527618408</ele>
        <time>2019-03-30T14:40:25.314Z</time>
      </trkpt>
      <trkpt lat="44.83674" lon="1.31055">
        <ele>103.58207702637</ele>
        <time>2019-03-30T14:40:42.963Z</time>
      </trkpt>
      <trkpt lat="44.83674" lon="1.31055">
        <ele>103.58247375488</ele>
        <time>2019-03-30T14:41:00.612Z</time>
      </trkpt>
      <trkpt lat="44.83712" lon="1.31047">
        <ele>102.42741394043</ele>
        <time>2019-03-30T14:41:18.267Z</time>
      </trkpt>
      <trkpt lat="44.83755" lon="1.31053">
        <ele>104.46125793457</ele>
        <time>2019-03-30T14:41:35.929Z</time>
      </trkpt>
      <trkpt lat="44.83789" lon="1.31079">
        <ele>111.66156768799</ele>
        <time>2019-03-30T14:41:53.597Z</time>
      </trkpt>
      <trkpt lat="44.83837" lon="1.31131">
        <ele>114.79491424561</ele>
        <time>2019-03-30T14:42:11.275Z</time>
      </trkpt>
      <trkpt lat="44.83905" lon="1.31245">
        <ele>125.01441955566</ele>
        <time>2019-03-30T14:42:28.970Z</time>
      </trkpt>
      <trkpt lat="44.83936" lon="1.31313">
        <ele>123.57278442383</ele>
        <time>2019-03-30T14:42:46.674Z</time>
      </trkpt>
      <trkpt lat="44.83999" lon="1.31477">
        <ele>115.22905731201</ele>
        <time>2019-03-30T14:43:04.399Z</time>
      </trkpt>
      <trkpt lat="44.84044" lon="1.3156">
        <ele>105.45195007324</ele>
        <time>2019-03-30T14:43:22.136Z</time>
      </trkpt>
      <trkpt lat="44.84088" lon="1.31605">
        <ele>101.86484527588</ele>
        <time>2019-03-30T14:43:39.882Z</time>
      </trkpt>
      <trkpt lat="44.84127" lon="1.31622">
        <ele>96.178764343262</ele>
        <time>2019-03-30T14:43:57.634Z</time>
      </trkpt>
      <trkpt lat="44.84154" lon="1.31635">
        <ele>96.378280639648</ele>
        <time>2019-03-30T14:44:15.391Z</time>
      </trkpt>
      <trkpt lat="44.84185" lon="1.31671">
        <ele>98.26139831543</ele>
        <time>2019-03-30T14:44:33.154Z</time>
      </trkpt>
      <trkpt lat="44.84209" lon="1.31715">
        <ele>100.14242553711</ele>
        <time>2019-03-30T14:44:50.924Z</time>
      </trkpt>
      <trkpt lat="44.84246" lon="1.31823">
        <ele>98.233306884766</ele>
        <time>2019-03-30T14:45:08.707Z</time>
      </trkpt>
      <trkpt lat="44.84257" lon="1.31871">
        <ele>99.003684997559</ele>
        <time>2019-03-30T14:45:26.496Z</time>
      </trkpt>
      <trkpt lat="44.84266" lon="1.31925">
        <ele>98.595397949219</ele>
        <time>2019-03-30T14:45:44.291Z</time>
      </trkpt>
      <trkpt lat="44.84275" lon="1.3208">
        <ele>100.93995666504</ele>
        <time>2019-03-30T14:46:02.104Z</time>
      </trkpt>
      <trkpt lat="44.84317" lon="1.32365">
        <ele>106.32791137695</ele>
        <time>2019-03-30T14:46:19.950Z</time>
      </trkpt>
      <trkpt lat="44.84319" lon="1.32435">
        <ele>105.20184326172</ele>
        <time>2019-03-30T14:46:37.804Z</time>
      </trkpt>
      <trkpt lat="44.8435" lon="1.3259">
        <ele>107.10384368896</ele>
        <time>2019-03-30T14:46:55.676Z</time>
      </trkpt>
      <trkpt lat="44.8435" lon="1.3259">
        <ele>107.1025390625</ele>
        <time>2019-03-30T14:47:13.548Z</time>
      </trkpt>
      <trkpt lat="44.84353" lon="1.32647">
        <ele>109.83331298828</ele>
        <time>2019-03-30T14:47:31.427Z</time>
      </trkpt>
      <trkpt lat="44.84365" lon="1.32696">
        <ele>105.72165679932</ele>
        <time>2019-03-30T14:47:49.312Z</time>
      </trkpt>
      <trkpt lat="44.84365" lon="1.32696">
        <ele>105.72045135498</ele>
        <time>2019-03-30T14:48:07.197Z</time>
      </trkpt>
      <trkpt lat="44.84373" lon="1.32747">
        <ele>101.2903213501</ele>
        <time>2019-03-30T14:48:25.088Z</time>
      </trkpt>
      <trkpt lat="44.84373" lon="1.32747">
        <ele>101.28877258301</ele>
        <time>2019-03-30T14:48:42.979Z</time>
      </trkpt>
      <trkpt lat="44.84373" lon="1.32747">
        <ele>101.28722381592</ele>
        <time>2019-03-30T14:49:00.870Z</time>
      </trkpt>
      <trkpt lat="44.84373" lon="1.32749">
        <ele>101.04725646973</ele>
        <time>2019-03-30T14:49:18.761Z</time>
      </trkpt>
      <trkpt lat="44.84373" lon="1.32749">
        <ele>101.04564666748</ele>
        <time>2019-03-30T14:49:36.652Z</time>
      </trkpt>
      <trkpt lat="44.84377" lon="1.32772">
        <ele>98.147933959961</ele>
        <time>2019-03-30T14:49:54.546Z</time>
      </trkpt>
      <trkpt lat="44.84367" lon="1.32855">
        <ele>92.571151733398</ele>
        <time>2019-03-30T14:50:12.449Z</time>
      </trkpt>
      <trkpt lat="44.84355" lon="1.32904">
        <ele>90.176773071289</ele>
        <time>2019-03-30T14:50:30.358Z</time>
      </trkpt>
      <trkpt lat="44.84361" lon="1.32943">
        <ele>91.521942138672</ele>
        <time>2019-03-30T14:50:48.272Z</time>
      </trkpt>
      <trkpt lat="44.84361" lon="1.32943">
        <ele>91.520637512207</ele>
        <time>2019-03-30T14:51:06.186Z</time>
      </trkpt>
      <trkpt lat="44.84398" lon="1.33013">
        <ele>94.939445495605</ele>
        <time>2019-03-30T14:51:24.110Z</time>
      </trkpt>
      <trkpt lat="44.84398" lon="1.33013">
        <ele>94.936935424805</ele>
        <time>2019-03-30T14:51:42.034Z</time>
      </trkpt>
      <trkpt lat="44.84431" lon="1.33075">
        <ele>104.04413604736</ele>
        <time>2019-03-30T14:51:59.966Z</time>
      </trkpt>
      <trkpt lat="44.84511" lon="1.33368">
        <ele>110.56634521484</ele>
        <time>2019-03-30T14:52:17.934Z</time>
      </trkpt>
      <trkpt lat="44.84539" lon="1.33496">
        <ele>106.40867614746</ele>
        <time>2019-03-30T14:52:35.917Z</time>
      </trkpt>
      <trkpt lat="44.84528" lon="1.33597">
        <ele>104.64151000977</ele>
        <time>2019-03-30T14:52:53.912Z</time>
      </trkpt>
      <trkpt lat="44.84529" lon="1.33642">
        <ele>99.07975769043</ele>
        <time>2019-03-30T14:53:11.912Z</time>
      </trkpt>
      <trkpt lat="44.84529" lon="1.33648">
        <ele>98.372283935547</ele>
        <time>2019-03-30T14:53:29.913Z</time>
      </trkpt>
      <trkpt lat="44.84562" lon="1.33769">
        <ele>97.141593933105</ele>
        <time>2019-03-30T14:53:47.929Z</time>
      </trkpt>
      <trkpt lat="44.84562" lon="1.33769">
        <ele>97.139984130859</ele>
        <time>2019-03-30T14:54:05.945Z</time>
      </trkpt>
      <trkpt lat="44.84589" lon="1.33862">
        <ele>102.44289398193</ele>
        <time>2019-03-30T14:54:23.972Z</time>
      </trkpt>
      <trkpt lat="44.84603" lon="1.33951">
        <ele>112.40901184082</ele>
        <time>2019-03-30T14:54:42.009Z</time>
      </trkpt>
      <trkpt lat="44.84614" lon="1.34202">
        <ele>114.26055908203</ele>
        <time>2019-03-30T14:55:00.075Z</time>
      </trkpt>
      <trkpt lat="44.84614" lon="1.34202">
        <ele>114.25693511963</ele>
        <time>2019-03-30T14:55:18.141Z</time>
      </trkpt>
      <trkpt lat="44.84626" lon="1.343">
        <ele>105.3518447876</ele>
        <time>2019-03-30T14:55:36.218Z</time>
      </trkpt>
      <trkpt lat="44.84626" lon="1.343">
        <ele>105.34922790527</ele>
        <time>2019-03-30T14:55:54.295Z</time>
      </trkpt>
      <trkpt lat="44.8463" lon="1.34496">
        <ele>112.48218536377</ele>
        <time>2019-03-30T14:56:12.395Z</time>
      </trkpt>
      <trkpt lat="44.84672" lon="1.34714">
        <ele>109.06999206543</ele>
        <time>2019-03-30T14:56:30.520Z</time>
      </trkpt>
      <trkpt lat="44.84677" lon="1.34814">
        <ele>109.34378051758</ele>
        <time>2019-03-30T14:56:48.657Z</time>
      </trkpt>
      <trkpt lat="44.84666" lon="1.3508">
        <ele>120.41867828369</ele>
        <time>2019-03-30T14:57:06.824Z</time>
      </trkpt>
      <trkpt lat="44.8467" lon="1.35132">
        <ele>115.38359832764</ele>
        <time>2019-03-30T14:57:24.997Z</time>
      </trkpt>
      <trkpt lat="44.8467" lon="1.35132">
        <ele>115.38088989258</ele>
        <time>2019-03-30T14:57:43.170Z</time>
      </trkpt>
      <trkpt lat="44.84696" lon="1.35203">
        <ele>115.80337524414</ele>
        <time>2019-03-30T14:58:01.352Z</time>
      </trkpt>
      <trkpt lat="44.84755" lon="1.35293">
        <ele>116.12330627441</ele>
        <time>2019-03-30T14:58:19.548Z</time>
      </trkpt>
      <trkpt lat="44.84799" lon="1.35387">
        <ele>119.74331665039</ele>
        <time>2019-03-30T14:58:37.757Z</time>
      </trkpt>
      <trkpt lat="44.84815" lon="1.35438">
        <ele>119.38298797607</ele>
        <time>2019-03-30T14:58:55.972Z</time>
      </trkpt>
      <trkpt lat="44.84815" lon="1.35438">
        <ele>119.37785339355</ele>
        <time>2019-03-30T14:59:14.187Z</time>
      </trkpt>
      <trkpt lat="44.84902" lon="1.35749">
        <ele>123.13794708252</ele>
        <time>2019-03-30T14:59:32.440Z</time>
      </trkpt>
      <trkpt lat="44.84932" lon="1.35825">
        <ele>116.25844573975</ele>
        <time>2019-03-30T14:59:50.703Z</time>
      </trkpt>
      <trkpt lat="44.84952" lon="1.35847">
        <ele>108.89138031006</ele>
        <time>2019-03-30T15:00:08.970Z</time>
      </trkpt>
      <trkpt lat="44.85055" lon="1.35935">
        <ele>91.227210998535</ele>
        <time>2019-03-30T15:00:27.257Z</time>
      </trkpt>
      <trkpt lat="44.85055" lon="1.35935">
        <ele>91.226409912109</ele>
        <time>2019-03-30T15:00:45.544Z</time>
      </trkpt>
      <trkpt lat="44.85142" lon="1.35989">
        <ele>88.151496887207</ele>
        <time>2019-03-30T15:01:03.846Z</time>
      </trkpt>
      <trkpt lat="44.85142" lon="1.35989">
        <ele>88.151397705078</ele>
        <time>2019-03-30T15:01:22.148Z</time>
      </trkpt>
      <trkpt lat="44.85415" lon="1.36123">
        <ele>87.411643981934</ele>
        <time>2019-03-30T15:01:40.496Z</time>
      </trkpt>
      <trkpt lat="44.85418" lon="1.36123">
        <ele>87.408058166504</ele>
        <time>2019-03-30T15:01:58.845Z</time>
      </trkpt>
      <trkpt lat="44.85418" lon="1.36123">
        <ele>87.408058166504</ele>
        <time>2019-03-30T15:02:17.194Z</time>
      </trkpt>
      <trkpt lat="44.85418" lon="1.36123">
        <ele>87.408050537109</ele>
        <time>2019-03-30T15:02:35.543Z</time>
      </trkpt>
      <trkpt lat="44.85418" lon="1.36123">
        <ele>87.40803527832</ele>
        <time>2019-03-30T15:02:53.892Z</time>
      </trkpt>
      <trkpt lat="44.8542" lon="1.36123">
        <ele>87.40641784668</ele>
        <time>2019-03-30T15:03:12.241Z</time>
      </trkpt>
      <trkpt lat="44.8542" lon="1.36123">
        <ele>87.40641784668</ele>
        <time>2019-03-30T15:03:30.590Z</time>
      </trkpt>
      <trkpt lat="44.85483" lon="1.36121">
        <ele>87.020919799805</ele>
        <time>2019-03-30T15:03:48.949Z</time>
      </trkpt>
      <trkpt lat="44.85619" lon="1.36134">
        <ele>88.314865112305</ele>
        <time>2019-03-30T15:04:07.330Z</time>
      </trkpt>
      <trkpt lat="44.85745" lon="1.36126">
        <ele>89.258750915527</ele>
        <time>2019-03-30T15:04:25.731Z</time>
      </trkpt>
      <trkpt lat="44.85834" lon="1.36162">
        <ele>88.742881774902</ele>
        <time>2019-03-30T15:04:44.147Z</time>
      </trkpt>
      <trkpt lat="44.85834" lon="1.36162">
        <ele>88.742584228516</ele>
        <time>2019-03-30T15:05:02.563Z</time>
      </trkpt>
      <trkpt lat="44.85991" lon="1.36211">
        <ele>88.603149414062</ele>
        <time>2019-03-30T15:05:21.005Z</time>
      </trkpt>
      <trkpt lat="44.8604" lon="1.36248">
        <ele>90.22875213623</ele>
        <time>2019-03-30T15:05:39.455Z</time>
      </trkpt>
      <trkpt lat="44.86051" lon="1.36253">
        <ele>90.679290771484</ele>
        <time>2019-03-30T15:05:57.907Z</time>
      </trkpt>
      <trkpt lat="44.86071" lon="1.36278">
        <ele>91.696212768555</ele>
        <time>2019-03-30T15:06:16.364Z</time>
      </trkpt>
      <trkpt lat="44.86183" lon="1.36044">
        <ele>84.234901428223</ele>
        <time>2019-03-30T15:06:34.853Z</time>
      </trkpt>
      <trkpt lat="44.86211" lon="1.36003">
        <ele>84.075210571289</ele>
        <time>2019-03-30T15:06:53.348Z</time>
      </trkpt>
      <trkpt lat="44.86243" lon="1.35974">
        <ele>82.504692077637</ele>
        <time>2019-03-30T15:07:11.849Z</time>
      </trkpt>
      <trkpt lat="44.86286" lon="1.35944">
        <ele>80.640716552734</ele>
        <time>2019-03-30T15:07:30.358Z</time>
      </trkpt>
      <trkpt lat="44.86352" lon="1.35899">
        <ele>79.281600952148</ele>
        <time>2019-03-30T15:07:48.879Z</time>
      </trkpt>
      <trkpt lat="44.86361" lon="1.35893">
        <ele>79.079467773438</ele>
        <time>2019-03-30T15:08:07.401Z</time>
      </trkpt>
      <trkpt lat="44.86498" lon="1.35795">
        <ele>84.466117858887</ele>
        <time>2019-03-30T15:08:25.948Z</time>
      </trkpt>
      <trkpt lat="44.86656" lon="1.35685">
        <ele>83.203300476074</ele>
        <time>2019-03-30T15:08:44.523Z</time>
      </trkpt>
      <trkpt lat="44.86664" lon="1.35681">
        <ele>83.661376953125</ele>
        <time>2019-03-30T15:09:03.099Z</time>
      </trkpt>
      <trkpt lat="44.86671" lon="1.35677">
        <ele>84.034675598145</ele>
        <time>2019-03-30T15:09:21.677Z</time>
      </trkpt>
      <trkpt lat="44.86684" lon="1.3567">
        <ele>84.685035705566</ele>
        <time>2019-03-30T15:09:40.257Z</time>
      </trkpt>
      <trkpt lat="44.86715" lon="1.35723">
        <ele>85.25804901123</ele>
        <time>2019-03-30T15:09:58.845Z</time>
      </trkpt>
      <trkpt lat="44.86717" lon="1.35725">
        <ele>85.399642944336</ele>
        <time>2019-03-30T15:10:17.433Z</time>
      </trkpt>
      <trkpt lat="44.8673" lon="1.35752">
        <ele>87.559471130371</ele>
        <time>2019-03-30T15:10:36.025Z</time>
      </trkpt>
      <trkpt lat="44.8673" lon="1.35752">
        <ele>87.560478210449</ele>
        <time>2019-03-30T15:10:54.617Z</time>
      </trkpt>
      <trkpt lat="44.86789" lon="1.35925">
        <ele>86.655715942383</ele>
        <time>2019-03-30T15:11:13.231Z</time>
      </trkpt>
      <trkpt lat="44.86813" lon="1.3599">
        <ele>88.710624694824</ele>
        <time>2019-03-30T15:11:31.853Z</time>
      </trkpt>
      <trkpt lat="44.86841" lon="1.36037">
        <ele>87.044990539551</ele>
        <time>2019-03-30T15:11:50.482Z</time>
      </trkpt>
      <trkpt lat="44.86934" lon="1.36133">
        <ele>93.682403564453</ele>
        <time>2019-03-30T15:12:09.129Z</time>
      </trkpt>
      <trkpt lat="44.87079" lon="1.36325">
        <ele>90.425765991211</ele>
        <time>2019-03-30T15:12:27.808Z</time>
      </trkpt>
      <trkpt lat="44.871" lon="1.36349">
        <ele>89.713478088379</ele>
        <time>2019-03-30T15:12:46.492Z</time>
      </trkpt>
      <trkpt lat="44.871" lon="1.36349">
        <ele>89.713241577148</ele>
        <time>2019-03-30T15:13:05.176Z</time>
      </trkpt>
      <trkpt lat="44.871" lon="1.36349">
        <ele>89.713005065918</ele>
        <time>2019-03-30T15:13:23.860Z</time>
      </trkpt>
      <trkpt lat="44.87101" lon="1.3635">
        <ele>89.673637390137</ele>
        <time>2019-03-30T15:13:42.544Z</time>
      </trkpt>
      <trkpt lat="44.87101" lon="1.3635">
        <ele>89.67253112793</ele>
        <time>2019-03-30T15:14:01.228Z</time>
      </trkpt>
      <trkpt lat="44.87157" lon="1.36413">
        <ele>90.563873291016</ele>
        <time>2019-03-30T15:14:19.923Z</time>
      </trkpt>
      <trkpt lat="44.87194" lon="1.3647">
        <ele>88.692344665527</ele>
        <time>2019-03-30T15:14:38.627Z</time>
      </trkpt>
      <trkpt lat="44.87256" lon="1.36549">
        <ele>88.37296295166</ele>
        <time>2019-03-30T15:14:57.344Z</time>
      </trkpt>
      <trkpt lat="44.8732" lon="1.36653">
        <ele>89.018333435059</ele>
        <time>2019-03-30T15:15:16.077Z</time>
      </trkpt>
      <trkpt lat="44.87376" lon="1.36726">
        <ele>87.354927062988</ele>
        <time>2019-03-30T15:15:34.822Z</time>
      </trkpt>
      <trkpt lat="44.87473" lon="1.36837">
        <ele>88.349899291992</ele>
        <time>2019-03-30T15:15:53.587Z</time>
      </trkpt>
      <trkpt lat="44.8769" lon="1.37061">
        <ele>90.723075866699</ele>
        <time>2019-03-30T15:16:12.395Z</time>
      </trkpt>
      <trkpt lat="44.8769" lon="1.37061">
        <ele>90.72388458252</ele>
        <time>2019-03-30T15:16:31.203Z</time>
      </trkpt>
      <trkpt lat="44.87884" lon="1.37289">
        <ele>89.116180419922</ele>
        <time>2019-03-30T15:16:50.052Z</time>
      </trkpt>
      <trkpt lat="44.87906" lon="1.37328">
        <ele>88.149681091309</ele>
        <time>2019-03-30T15:17:08.907Z</time>
      </trkpt>
      <trkpt lat="44.87906" lon="1.37328">
        <ele>88.149208068848</ele>
        <time>2019-03-30T15:17:27.762Z</time>
      </trkpt>
      <trkpt lat="44.87906" lon="1.37328">
        <ele>88.148727416992</ele>
        <time>2019-03-30T15:17:46.617Z</time>
      </trkpt>
      <trkpt lat="44.87907" lon="1.3733">
        <ele>88.07014465332</ele>
        <time>2019-03-30T15:18:05.472Z</time>
      </trkpt>
      <trkpt lat="44.87907" lon="1.3733">
        <ele>88.070442199707</ele>
        <time>2019-03-30T15:18:24.327Z</time>
      </trkpt>
      <trkpt lat="44.87913" lon="1.37341">
        <ele>87.550117492676</ele>
        <time>2019-03-30T15:18:43.183Z</time>
      </trkpt>
      <trkpt lat="44.87931" lon="1.37388">
        <ele>85.722671508789</ele>
        <time>2019-03-30T15:19:02.045Z</time>
      </trkpt>
      <trkpt lat="44.87945" lon="1.37453">
        <ele>86.324279785156</ele>
        <time>2019-03-30T15:19:20.915Z</time>
      </trkpt>
      <trkpt lat="44.87948" lon="1.37513">
        <ele>86.613891601562</ele>
        <time>2019-03-30T15:19:39.792Z</time>
      </trkpt>
      <trkpt lat="44.87944" lon="1.37588">
        <ele>86.407936096191</ele>
        <time>2019-03-30T15:19:58.678Z</time>
      </trkpt>
      <trkpt lat="44.87949" lon="1.37637">
        <ele>86.639640808105</ele>
        <time>2019-03-30T15:20:17.569Z</time>
      </trkpt>
      <trkpt lat="44.87979" lon="1.37692">
        <ele>89.462783813477</ele>
        <time>2019-03-30T15:20:36.468Z</time>
      </trkpt>
      <trkpt lat="44.88107" lon="1.3787">
        <ele>92.88427734375</ele>
        <time>2019-03-30T15:20:55.396Z</time>
      </trkpt>
      <trkpt lat="44.88128" lon="1.37892">
        <ele>93.088249206543</ele>
        <time>2019-03-30T15:21:14.328Z</time>
      </trkpt>
      <trkpt lat="44.8815" lon="1.37902">
        <ele>92.344436645508</ele>
        <time>2019-03-30T15:21:33.264Z</time>
      </trkpt>
      <trkpt lat="44.88243" lon="1.37886">
        <ele>92.283905029297</ele>
        <time>2019-03-30T15:21:52.215Z</time>
      </trkpt>
      <trkpt lat="44.88292" lon="1.37895">
        <ele>90.492538452148</ele>
        <time>2019-03-30T15:22:11.174Z</time>
      </trkpt>
      <trkpt lat="44.8843" lon="1.37984">
        <ele>89.878532409668</ele>
        <time>2019-03-30T15:22:30.157Z</time>
      </trkpt>
      <trkpt lat="44.88496" lon="1.38029">
        <ele>90.358726501465</ele>
        <time>2019-03-30T15:22:49.152Z</time>
      </trkpt>
      <trkpt lat="44.88496" lon="1.38029">
        <ele>90.358459472656</ele>
        <time>2019-03-30T15:23:08.147Z</time>
      </trkpt>
      <trkpt lat="44.88496" lon="1.38029">
        <ele>90.358451843262</ele>
        <time>2019-03-30T15:23:27.142Z</time>
      </trkpt>
      <trkpt lat="44.88496" lon="1.38029">
        <ele>90.35831451416</ele>
        <time>2019-03-30T15:23:46.137Z</time>
      </trkpt>
      <trkpt lat="44.88497" lon="1.3803">
        <ele>90.334442138672</ele>
        <time>2019-03-30T15:24:05.132Z</time>
      </trkpt>
      <trkpt lat="44.88497" lon="1.3803">
        <ele>90.334045410156</ele>
        <time>2019-03-30T15:24:24.127Z</time>
      </trkpt>
      <trkpt lat="44.88541" lon="1.38059">
        <ele>90.618774414062</ele>
        <time>2019-03-30T15:24:43.130Z</time>
      </trkpt>
      <trkpt lat="44.88609" lon="1.38126">
        <ele>87.820167541504</ele>
        <time>2019-03-30T15:25:02.146Z</time>
      </trkpt>
      <trkpt lat="44.88662" lon="1.38216">
        <ele>87.390975952148</ele>
        <time>2019-03-30T15:25:21.175Z</time>
      </trkpt>
      <trkpt lat="44.88706" lon="1.3833">
        <ele>86.983062744141</ele>
        <time>2019-03-30T15:25:40.219Z</time>
      </trkpt>
      <trkpt lat="44.88707" lon="1.38333">
        <ele>87.042953491211</ele>
        <time>2019-03-30T15:25:59.263Z</time>
      </trkpt>
      <trkpt lat="44.88713" lon="1.38347">
        <ele>87.300399780273</ele>
        <time>2019-03-30T15:26:18.309Z</time>
      </trkpt>
      <trkpt lat="44.88748" lon="1.38469">
        <ele>89.296226501465</ele>
        <time>2019-03-30T15:26:37.370Z</time>
      </trkpt>
      <trkpt lat="44.88809" lon="1.38444">
        <ele>96.65446472168</ele>
        <time>2019-03-30T15:26:56.441Z</time>
      </trkpt>
      <trkpt lat="44.88849" lon="1.38406">
        <ele>93.776565551758</ele>
        <time>2019-03-30T15:27:15.520Z</time>
      </trkpt>
      <trkpt lat="44.88975" lon="1.3839">
        <ele>97.42903137207</ele>
        <time>2019-03-30T15:27:34.619Z</time>
      </trkpt>
      <trkpt lat="44.89186" lon="1.38315">
        <ele>96.855758666992</ele>
        <time>2019-03-30T15:27:53.753Z</time>
      </trkpt>
      <trkpt lat="44.89186" lon="1.38315">
        <ele>96.855255126953</ele>
        <time>2019-03-30T15:28:12.887Z</time>
      </trkpt>
      <trkpt lat="44.89192" lon="1.38315">
        <ele>97.17756652832</ele>
        <time>2019-03-30T15:28:32.022Z</time>
      </trkpt>
      <trkpt lat="44.8922" lon="1.38309">
        <ele>97.798965454102</ele>
        <time>2019-03-30T15:28:51.162Z</time>
      </trkpt>
      <trkpt lat="44.89235" lon="1.38284">
        <ele>96.498748779297</ele>
        <time>2019-03-30T15:29:10.305Z</time>
      </trkpt>
      <trkpt lat="44.89256" lon="1.38206">
        <ele>93.595001220703</ele>
        <time>2019-03-30T15:29:29.458Z</time>
      </trkpt>
      <trkpt lat="44.8927" lon="1.38182">
        <ele>94.11661529541</ele>
        <time>2019-03-30T15:29:48.614Z</time>
      </trkpt>
      <trkpt lat="44.89301" lon="1.38154">
        <ele>96.093330383301</ele>
        <time>2019-03-30T15:30:07.776Z</time>
      </trkpt>
      <trkpt lat="44.89318" lon="1.38132">
        <ele>98.640991210938</ele>
        <time>2019-03-30T15:30:26.942Z</time>
      </trkpt>
      <trkpt lat="44.89343" lon="1.38074">
        <ele>100.35752105713</ele>
        <time>2019-03-30T15:30:46.116Z</time>
      </trkpt>
      <trkpt lat="44.89347" lon="1.38061">
        <ele>100.63576507568</ele>
        <time>2019-03-30T15:31:05.291Z</time>
      </trkpt>
      <trkpt lat="44.89347" lon="1.38061">
        <ele>100.63639068604</ele>
        <time>2019-03-30T15:31:24.466Z</time>
      </trkpt>
      <trkpt lat="44.89347" lon="1.38061">
        <ele>100.63701629639</ele>
        <time>2019-03-30T15:31:43.641Z</time>
      </trkpt>
      <trkpt lat="44.89348" lon="1.38059">
        <ele>100.74362182617</ele>
        <time>2019-03-30T15:32:02.817Z</time>
      </trkpt>
      <trkpt lat="44.89348" lon="1.38059">
        <ele>100.74230957031</ele>
        <time>2019-03-30T15:32:21.993Z</time>
      </trkpt>
      <trkpt lat="44.89395" lon="1.37912">
        <ele>104.19987487793</ele>
        <time>2019-03-30T15:32:41.187Z</time>
      </trkpt>
      <trkpt lat="44.89412" lon="1.37871">
        <ele>106.24753570557</ele>
        <time>2019-03-30T15:33:00.386Z</time>
      </trkpt>
      <trkpt lat="44.89484" lon="1.37742">
        <ele>107.13879394531</ele>
        <time>2019-03-30T15:33:19.604Z</time>
      </trkpt>
      <trkpt lat="44.89554" lon="1.37633">
        <ele>104.34414672852</ele>
        <time>2019-03-30T15:33:38.839Z</time>
      </trkpt>
      <trkpt lat="44.89641" lon="1.37574">
        <ele>108.3973236084</ele>
        <time>2019-03-30T15:33:58.089Z</time>
      </trkpt>
      <trkpt lat="44.89745" lon="1.37484">
        <ele>108.01240539551</ele>
        <time>2019-03-30T15:34:17.359Z</time>
      </trkpt>
      <trkpt lat="44.89823" lon="1.37436">
        <ele>110.45784759521</ele>
        <time>2019-03-30T15:34:36.642Z</time>
      </trkpt>
      <trkpt lat="44.89853" lon="1.3743">
        <ele>111.32870483398</ele>
        <time>2019-03-30T15:34:55.930Z</time>
      </trkpt>
      <trkpt lat="44.8989" lon="1.37436">
        <ele>114.55174255371</ele>
        <time>2019-03-30T15:35:15.224Z</time>
      </trkpt>
      <trkpt lat="44.8989" lon="1.37436">
        <ele>114.55278015137</ele>
        <time>2019-03-30T15:35:34.518Z</time>
      </trkpt>
      <trkpt lat="44.89891" lon="1.37436">
        <ele>114.55349731445</ele>
        <time>2019-03-30T15:35:53.812Z</time>
      </trkpt>
      <trkpt lat="44.89892" lon="1.37436">
        <ele>114.67978668213</ele>
        <time>2019-03-30T15:36:13.107Z</time>
      </trkpt>
      <trkpt lat="44.89892" lon="1.37436">
        <ele>114.67767333984</ele>
        <time>2019-03-30T15:36:32.402Z</time>
      </trkpt>
      <trkpt lat="44.89972" lon="1.37449">
        <ele>118.25804901123</ele>
        <time>2019-03-30T15:36:51.709Z</time>
      </trkpt>
      <trkpt lat="44.90146" lon="1.37584">
        <ele>137.72062683105</ele>
        <time>2019-03-30T15:37:11.048Z</time>
      </trkpt>
      <trkpt lat="44.90273" lon="1.37657">
        <ele>135.11557006836</ele>
        <time>2019-03-30T15:37:30.409Z</time>
      </trkpt>
      <trkpt lat="44.9032" lon="1.37666">
        <ele>131.74322509766</ele>
        <time>2019-03-30T15:37:49.778Z</time>
      </trkpt>
      <trkpt lat="44.90444" lon="1.37661">
        <ele>127.49339294434</ele>
        <time>2019-03-30T15:38:09.167Z</time>
      </trkpt>
      <trkpt lat="44.9051" lon="1.37623">
        <ele>125.17196655273</ele>
        <time>2019-03-30T15:38:28.567Z</time>
      </trkpt>
      <trkpt lat="44.9056" lon="1.37573">
        <ele>122.68547821045</ele>
        <time>2019-03-30T15:38:47.977Z</time>
      </trkpt>
      <trkpt lat="44.90651" lon="1.37433">
        <ele>121.68106079102</ele>
        <time>2019-03-30T15:39:07.408Z</time>
      </trkpt>
      <trkpt lat="44.90727" lon="1.37346">
        <ele>118.23697662354</ele>
        <time>2019-03-30T15:39:26.855Z</time>
      </trkpt>
      <trkpt lat="44.90751" lon="1.37294">
        <ele>118.70565032959</ele>
        <time>2019-03-30T15:39:46.309Z</time>
      </trkpt>
      <trkpt lat="44.90751" lon="1.37294">
        <ele>118.70494842529</ele>
        <time>2019-03-30T15:40:05.763Z</time>
      </trkpt>
      <trkpt lat="44.90847" lon="1.37099">
        <ele>126.06578063965</ele>
        <time>2019-03-30T15:40:25.244Z</time>
      </trkpt>
      <trkpt lat="44.90847" lon="1.37099">
        <ele>126.06502532959</ele>
        <time>2019-03-30T15:40:44.725Z</time>
      </trkpt>
      <trkpt lat="44.90847" lon="1.37099">
        <ele>126.06427001953</ele>
        <time>2019-03-30T15:41:04.206Z</time>
      </trkpt>
      <trkpt lat="44.90848" lon="1.37098">
        <ele>125.95106506348</ele>
        <time>2019-03-30T15:41:23.687Z</time>
      </trkpt>
      <trkpt lat="44.90848" lon="1.37098">
        <ele>125.95146942139</ele>
        <time>2019-03-30T15:41:43.168Z</time>
      </trkpt>
      <trkpt lat="44.9089" lon="1.37013">
        <ele>128.37615966797</ele>
        <time>2019-03-30T15:42:02.661Z</time>
      </trkpt>
      <trkpt lat="44.90914" lon="1.36965">
        <ele>129.43856811523</ele>
        <time>2019-03-30T15:42:22.161Z</time>
      </trkpt>
      <trkpt lat="44.90955" lon="1.36921">
        <ele>127.42307281494</ele>
        <time>2019-03-30T15:42:41.669Z</time>
      </trkpt>
      <trkpt lat="44.91006" lon="1.3682">
        <ele>124.32048797607</ele>
        <time>2019-03-30T15:43:01.191Z</time>
      </trkpt>
      <trkpt lat="44.91063" lon="1.36742">
        <ele>123.72557830811</ele>
        <time>2019-03-30T15:43:20.726Z</time>
      </trkpt>
      <trkpt lat="44.91092" lon="1.36682">
        <ele>122.87637329102</ele>
        <time>2019-03-30T15:43:40.269Z</time>
      </trkpt>
      <trkpt lat="44.91108" lon="1.36652">
        <ele>121.8337020874</ele>
        <time>2019-03-30T15:43:59.816Z</time>
      </trkpt>
      <trkpt lat="44.91162" lon="1.36611">
        <ele>127.44027709961</ele>
        <time>2019-03-30T15:44:19.373Z</time>
      </trkpt>
      <trkpt lat="44.91187" lon="1.36549">
        <ele>130.98210144043</ele>
        <time>2019-03-30T15:44:38.938Z</time>
      </trkpt>
      <trkpt lat="44.91254" lon="1.36437">
        <ele>136.26567077637</ele>
        <time>2019-03-30T15:44:58.520Z</time>
      </trkpt>
      <trkpt lat="44.9126" lon="1.36434">
        <ele>135.51907348633</ele>
        <time>2019-03-30T15:45:18.103Z</time>
      </trkpt>
      <trkpt lat="44.91309" lon="1.36358">
        <ele>134.58625793457</ele>
        <time>2019-03-30T15:45:37.698Z</time>
      </trkpt>
      <trkpt lat="44.91364" lon="1.36239">
        <ele>133.06806945801</ele>
        <time>2019-03-30T15:45:57.309Z</time>
      </trkpt>
      <trkpt lat="44.91395" lon="1.36204">
        <ele>137.71199035645</ele>
        <time>2019-03-30T15:46:16.926Z</time>
      </trkpt>
      <trkpt lat="44.91409" lon="1.36177">
        <ele>140.35960388184</ele>
        <time>2019-03-30T15:46:36.547Z</time>
      </trkpt>
      <trkpt lat="44.91397" lon="1.36114">
        <ele>135.21713256836</ele>
        <time>2019-03-30T15:46:56.175Z</time>
      </trkpt>
      <trkpt lat="44.91383" lon="1.36095">
        <ele>134.84382629395</ele>
        <time>2019-03-30T15:47:15.806Z</time>
      </trkpt>
      <trkpt lat="44.9134" lon="1.36063">
        <ele>138.30725097656</ele>
        <time>2019-03-30T15:47:35.445Z</time>
      </trkpt>
      <trkpt lat="44.91315" lon="1.36026">
        <ele>143.83596801758</ele>
        <time>2019-03-30T15:47:55.090Z</time>
      </trkpt>
      <trkpt lat="44.91264" lon="1.35887">
        <ele>162.35601806641</ele>
        <time>2019-03-30T15:48:14.753Z</time>
      </trkpt>
      <trkpt lat="44.91191" lon="1.35775">
        <ele>174.00498962402</ele>
        <time>2019-03-30T15:48:34.433Z</time>
      </trkpt>
      <trkpt lat="44.91175" lon="1.35729">
        <ele>178.0276184082</ele>
        <time>2019-03-30T15:48:54.119Z</time>
      </trkpt>
      <trkpt lat="44.91171" lon="1.3569">
        <ele>179.35610961914</ele>
        <time>2019-03-30T15:49:13.809Z</time>
      </trkpt>
      <trkpt lat="44.91175" lon="1.35643">
        <ele>179.68746948242</ele>
        <time>2019-03-30T15:49:33.505Z</time>
      </trkpt>
      <trkpt lat="44.91207" lon="1.35555">
        <ele>173.3842010498</ele>
        <time>2019-03-30T15:49:53.212Z</time>
      </trkpt>
      <trkpt lat="44.91289" lon="1.35456">
        <ele>186.75068664551</ele>
        <time>2019-03-30T15:50:12.936Z</time>
      </trkpt>
      <trkpt lat="44.91312" lon="1.35396">
        <ele>194.12707519531</ele>
        <time>2019-03-30T15:50:32.668Z</time>
      </trkpt>
      <trkpt lat="44.91327" lon="1.35268">
        <ele>210.03846740723</ele>
        <time>2019-03-30T15:50:52.415Z</time>
      </trkpt>
      <trkpt lat="44.91336" lon="1.35228">
        <ele>211.89639282227</ele>
        <time>2019-03-30T15:51:12.167Z</time>
      </trkpt>
      <trkpt lat="44.91374" lon="1.3517">
        <ele>212.92874145508</ele>
        <time>2019-03-30T15:51:31.927Z</time>
      </trkpt>
      <trkpt lat="44.91424" lon="1.35037">
        <ele>218.24641418457</ele>
        <time>2019-03-30T15:51:51.705Z</time>
      </trkpt>
      <trkpt lat="44.91427" lon="1.35018">
        <ele>219.04020690918</ele>
        <time>2019-03-30T15:52:11.485Z</time>
      </trkpt>
      <trkpt lat="44.91408" lon="1.3499">
        <ele>222.74104309082</ele>
        <time>2019-03-30T15:52:31.269Z</time>
      </trkpt>
      <trkpt lat="44.91384" lon="1.34998">
        <ele>224.97871398926</ele>
        <time>2019-03-30T15:52:51.057Z</time>
      </trkpt>
      <trkpt lat="44.91306" lon="1.35047">
        <ele>227.28378295898</ele>
        <time>2019-03-30T15:53:10.859Z</time>
      </trkpt>
      <trkpt lat="44.91276" lon="1.35048">
        <ele>228.59442138672</ele>
        <time>2019-03-30T15:53:30.666Z</time>
      </trkpt>
      <trkpt lat="44.91213" lon="1.35009">
        <ele>235.79797363281</ele>
        <time>2019-03-30T15:53:50.484Z</time>
      </trkpt>
      <trkpt lat="44.91099" lon="1.34869">
        <ele>243.56011962891</ele>
        <time>2019-03-30T15:54:10.326Z</time>
      </trkpt>
      <trkpt lat="44.91099" lon="1.34869">
        <ele>243.56089782715</ele>
        <time>2019-03-30T15:54:30.168Z</time>
      </trkpt>
      <trkpt lat="44.91099" lon="1.34869">
        <ele>243.56167602539</ele>
        <time>2019-03-30T15:54:50.010Z</time>
      </trkpt>
      <trkpt lat="44.91098" lon="1.34868">
        <ele>243.69203186035</ele>
        <time>2019-03-30T15:55:09.852Z</time>
      </trkpt>
      <trkpt lat="44.91095" lon="1.34864">
        <ele>244.03364562988</ele>
        <time>2019-03-30T15:55:29.695Z</time>
      </trkpt>
      <trkpt lat="44.91007" lon="1.34809">
        <ele>246.87149047852</ele>
        <time>2019-03-30T15:55:49.553Z</time>
      </trkpt>
      <trkpt lat="44.90939" lon="1.34802">
        <ele>243.21656799316</ele>
        <time>2019-03-30T15:56:09.422Z</time>
      </trkpt>
      <trkpt lat="44.90939" lon="1.34802">
        <ele>243.21565246582</ele>
        <time>2019-03-30T15:56:29.291Z</time>
      </trkpt>
      <trkpt lat="44.9093" lon="1.34781">
        <ele>242.48193359375</ele>
        <time>2019-03-30T15:56:49.163Z</time>
      </trkpt>
      <trkpt lat="44.9093" lon="1.34767">
        <ele>242.6492767334</ele>
        <time>2019-03-30T15:57:09.036Z</time>
      </trkpt>
      <trkpt lat="44.90966" lon="1.347">
        <ele>245.67718505859</ele>
        <time>2019-03-30T15:57:28.919Z</time>
      </trkpt>
      <trkpt lat="44.90984" lon="1.34615">
        <ele>245.35182189941</ele>
        <time>2019-03-30T15:57:48.812Z</time>
      </trkpt>
      <trkpt lat="44.91047" lon="1.34422">
        <ele>251.81384277344</ele>
        <time>2019-03-30T15:58:08.729Z</time>
      </trkpt>
      <trkpt lat="44.91194" lon="1.34404">
        <ele>253.61145019531</ele>
        <time>2019-03-30T15:58:28.670Z</time>
      </trkpt>
      <trkpt lat="44.91222" lon="1.34412">
        <ele>252.94830322266</ele>
        <time>2019-03-30T15:58:48.615Z</time>
      </trkpt>
      <trkpt lat="44.91276" lon="1.34447">
        <ele>249.97476196289</ele>
        <time>2019-03-30T15:59:08.570Z</time>
      </trkpt>
      <trkpt lat="44.91375" lon="1.3457">
        <ele>245.74618530273</ele>
        <time>2019-03-30T15:59:28.546Z</time>
      </trkpt>
      <trkpt lat="44.91419" lon="1.34611">
        <ele>242.67610168457</ele>
        <time>2019-03-30T15:59:48.530Z</time>
      </trkpt>
      <trkpt lat="44.91467" lon="1.34617">
        <ele>239.76260375977</ele>
        <time>2019-03-30T16:00:08.522Z</time>
      </trkpt>
      <trkpt lat="44.91534" lon="1.34604">
        <ele>239.04315185547</ele>
        <time>2019-03-30T16:00:28.525Z</time>
      </trkpt>
      <trkpt lat="44.91559" lon="1.3459">
        <ele>240.97152709961</ele>
        <time>2019-03-30T16:00:48.532Z</time>
      </trkpt>
      <trkpt lat="44.91605" lon="1.3454">
        <ele>243.34812927246</ele>
        <time>2019-03-30T16:01:08.549Z</time>
      </trkpt>
      <trkpt lat="44.91605" lon="1.3454">
        <ele>243.34791564941</ele>
        <time>2019-03-30T16:01:28.566Z</time>
      </trkpt>
      <trkpt lat="44.91605" lon="1.3454">
        <ele>243.34770202637</ele>
        <time>2019-03-30T16:01:48.583Z</time>
      </trkpt>
      <trkpt lat="44.91607" lon="1.34538">
        <ele>243.3099822998</ele>
        <time>2019-03-30T16:02:08.600Z</time>
      </trkpt>
      <trkpt lat="44.91607" lon="1.34538">
        <ele>243.30897521973</ele>
        <time>2019-03-30T16:02:28.617Z</time>
      </trkpt>
      <trkpt lat="44.91607" lon="1.34538">
        <ele>243.30918884277</ele>
        <time>2019-03-30T16:02:48.634Z</time>
      </trkpt>
      <trkpt lat="44.91643" lon="1.34498">
        <ele>243.60026550293</ele>
        <time>2019-03-30T16:03:08.658Z</time>
      </trkpt>
      <trkpt lat="44.91694" lon="1.34447">
        <ele>244.06512451172</ele>
        <time>2019-03-30T16:03:28.692Z</time>
      </trkpt>
      <trkpt lat="44.91731" lon="1.34438">
        <ele>244.91702270508</ele>
        <time>2019-03-30T16:03:48.732Z</time>
      </trkpt>
      <trkpt lat="44.91757" lon="1.34452">
        <ele>246.20426940918</ele>
        <time>2019-03-30T16:04:08.777Z</time>
      </trkpt>
      <trkpt lat="44.91828" lon="1.34524">
        <ele>243.47120666504</ele>
        <time>2019-03-30T16:04:28.836Z</time>
      </trkpt>
      <trkpt lat="44.91918" lon="1.34554">
        <ele>237.36044311523</ele>
        <time>2019-03-30T16:04:48.910Z</time>
      </trkpt>
      <trkpt lat="44.91957" lon="1.34555">
        <ele>236.69230651855</ele>
        <time>2019-03-30T16:05:08.990Z</time>
      </trkpt>
      <trkpt lat="44.91957" lon="1.34555">
        <ele>236.69329833984</ele>
        <time>2019-03-30T16:05:29.070Z</time>
      </trkpt>
      <trkpt lat="44.92028" lon="1.3451">
        <ele>243.04153442383</ele>
        <time>2019-03-30T16:05:49.162Z</time>
      </trkpt>
      <trkpt lat="44.92278" lon="1.34283">
        <ele>256.28295898438</ele>
        <time>2019-03-30T16:06:09.302Z</time>
      </trkpt>
      <trkpt lat="44.92316" lon="1.34253">
        <ele>256.19262695312</ele>
        <time>2019-03-30T16:06:29.449Z</time>
      </trkpt>
      <trkpt lat="44.92346" lon="1.34247">
        <ele>256.4049987793</ele>
        <time>2019-03-30T16:06:49.601Z</time>
      </trkpt>
      <trkpt lat="44.92383" lon="1.34266">
        <ele>256.19561767578</ele>
        <time>2019-03-30T16:07:09.759Z</time>
      </trkpt>
      <trkpt lat="44.92414" lon="1.34302">
        <ele>256.37585449219</ele>
        <time>2019-03-30T16:07:29.923Z</time>
      </trkpt>
      <trkpt lat="44.92414" lon="1.34302">
        <ele>256.3762512207</ele>
        <time>2019-03-30T16:07:50.087Z</time>
      </trkpt>
      <trkpt lat="44.92428" lon="1.34335">
        <ele>256.08908081055</ele>
        <time>2019-03-30T16:08:10.256Z</time>
      </trkpt>
      <trkpt lat="44.92435" lon="1.34384">
        <ele>254.79290771484</ele>
        <time>2019-03-30T16:08:30.430Z</time>
      </trkpt>
      <trkpt lat="44.92451" lon="1.34636">
        <ele>263.40173339844</ele>
        <time>2019-03-30T16:08:50.633Z</time>
      </trkpt>
      <trkpt lat="44.9246" lon="1.34683">
        <ele>265.82971191406</ele>
        <time>2019-03-30T16:09:10.842Z</time>
      </trkpt>
      <trkpt lat="44.92483" lon="1.34717">
        <ele>266.35113525391</ele>
        <time>2019-03-30T16:09:31.056Z</time>
      </trkpt>
      <trkpt lat="44.92891" lon="1.3506">
        <ele>271.60424804688</ele>
        <time>2019-03-30T16:09:51.346Z</time>
      </trkpt>
      <trkpt lat="44.93128" lon="1.35258">
        <ele>274.07070922852</ele>
        <time>2019-03-30T16:10:11.680Z</time>
      </trkpt>
      <trkpt lat="44.93172" lon="1.35262">
        <ele>279.34213256836</ele>
        <time>2019-03-30T16:10:32.021Z</time>
      </trkpt>
      <trkpt lat="44.93203" lon="1.35252">
        <ele>280.77740478516</ele>
        <time>2019-03-30T16:10:52.367Z</time>
      </trkpt>
      <trkpt lat="44.93307" lon="1.35185">
        <ele>283.14517211914</ele>
        <time>2019-03-30T16:11:12.732Z</time>
      </trkpt>
      <trkpt lat="44.93369" lon="1.35158">
        <ele>285.4992980957</ele>
        <time>2019-03-30T16:11:33.107Z</time>
      </trkpt>
      <trkpt lat="44.93395" lon="1.35159">
        <ele>286.33462524414</ele>
        <time>2019-03-30T16:11:53.486Z</time>
      </trkpt>
      <trkpt lat="44.93424" lon="1.35172">
        <ele>286.9782409668</ele>
        <time>2019-03-30T16:12:13.870Z</time>
      </trkpt>
      <trkpt lat="44.93567" lon="1.35261">
        <ele>291.27691650391</ele>
        <time>2019-03-30T16:12:34.279Z</time>
      </trkpt>
      <trkpt lat="44.93634" lon="1.35303">
        <ele>291.36502075195</ele>
        <time>2019-03-30T16:12:54.700Z</time>
      </trkpt>
      <trkpt lat="44.93668" lon="1.35323">
        <ele>290.72790527344</ele>
        <time>2019-03-30T16:13:15.127Z</time>
      </trkpt>
      <trkpt lat="44.93831" lon="1.35412">
        <ele>294.06692504883</ele>
        <time>2019-03-30T16:13:35.582Z</time>
      </trkpt>
      <trkpt lat="44.93903" lon="1.35466">
        <ele>297.18594360352</ele>
        <time>2019-03-30T16:13:56.050Z</time>
      </trkpt>
      <trkpt lat="44.93947" lon="1.35474">
        <ele>296.74826049805</ele>
        <time>2019-03-30T16:14:16.525Z</time>
      </trkpt>
      <trkpt lat="44.93947" lon="1.35474">
        <ele>296.74807739258</ele>
        <time>2019-03-30T16:14:37.000Z</time>
      </trkpt>
      <trkpt lat="44.93967" lon="1.35471">
        <ele>296.64334106445</ele>
        <time>2019-03-30T16:14:57.478Z</time>
      </trkpt>
      <trkpt lat="44.93967" lon="1.35471">
        <ele>296.64291381836</ele>
        <time>2019-03-30T16:15:17.956Z</time>
      </trkpt>
      <trkpt lat="44.93967" lon="1.35471">
        <ele>296.6428527832</ele>
        <time>2019-03-30T16:15:38.434Z</time>
      </trkpt>
      <trkpt lat="44.93967" lon="1.35471">
        <ele>296.64266967773</ele>
        <time>2019-03-30T16:15:58.912Z</time>
      </trkpt>
      <trkpt lat="44.93969" lon="1.35471">
        <ele>296.60000610352</ele>
        <time>2019-03-30T16:16:19.390Z</time>
      </trkpt>
      <trkpt lat="44.93969" lon="1.35471">
        <ele>296.60018920898</ele>
        <time>2019-03-30T16:16:39.868Z</time>
      </trkpt>
      <trkpt lat="44.93977" lon="1.35469">
        <ele>296.37954711914</ele>
        <time>2019-03-30T16:17:00.348Z</time>
      </trkpt>
      <trkpt lat="44.94077" lon="1.35403">
        <ele>295.22839355469</ele>
        <time>2019-03-30T16:17:20.845Z</time>
      </trkpt>
      <trkpt lat="44.94152" lon="1.35367">
        <ele>292.67691040039</ele>
        <time>2019-03-30T16:17:41.355Z</time>
      </trkpt>
      <trkpt lat="44.94356" lon="1.35357">
        <ele>289.98666381836</ele>
        <time>2019-03-30T16:18:01.898Z</time>
      </trkpt>
      <trkpt lat="44.94437" lon="1.35279">
        <ele>287.94915771484</ele>
        <time>2019-03-30T16:18:22.456Z</time>
      </trkpt>
      <trkpt lat="44.94491" lon="1.35256">
        <ele>288.49960327148</ele>
        <time>2019-03-30T16:18:43.023Z</time>
      </trkpt>
      <trkpt lat="44.9454" lon="1.35258">
        <ele>292.61236572266</ele>
        <time>2019-03-30T16:19:03.598Z</time>
      </trkpt>
      <trkpt lat="44.94563" lon="1.35245">
        <ele>292.9010925293</ele>
        <time>2019-03-30T16:19:24.177Z</time>
      </trkpt>
      <trkpt lat="44.94584" lon="1.35219">
        <ele>290.80960083008</ele>
        <time>2019-03-30T16:19:44.761Z</time>
      </trkpt>
      <trkpt lat="44.94588" lon="1.35214">
        <ele>289.98574829102</ele>
        <time>2019-03-30T16:20:05.346Z</time>
      </trkpt>
      <trkpt lat="44.9466" lon="1.35152">
        <ele>284.24536132812</ele>
        <time>2019-03-30T16:20:25.944Z</time>
      </trkpt>
      <trkpt lat="44.94697" lon="1.3513">
        <ele>282.7633972168</ele>
        <time>2019-03-30T16:20:46.549Z</time>
      </trkpt>
      <trkpt lat="44.94727" lon="1.35119">
        <ele>281.25732421875</ele>
        <time>2019-03-30T16:21:07.159Z</time>
      </trkpt>
      <trkpt lat="44.94757" lon="1.35119">
        <ele>280.1950378418</ele>
        <time>2019-03-30T16:21:27.773Z</time>
      </trkpt>
      <trkpt lat="44.94797" lon="1.35142">
        <ele>280.43951416016</ele>
        <time>2019-03-30T16:21:48.394Z</time>
      </trkpt>
      <trkpt lat="44.9483" lon="1.35174">
        <ele>280.3203125</ele>
        <time>2019-03-30T16:22:09.022Z</time>
      </trkpt>
      <trkpt lat="44.9483" lon="1.35174">
        <ele>280.32052612305</ele>
        <time>2019-03-30T16:22:29.650Z</time>
      </trkpt>
      <trkpt lat="44.94857" lon="1.35189">
        <ele>280.603515625</ele>
        <time>2019-03-30T16:22:50.282Z</time>
      </trkpt>
      <trkpt lat="44.94898" lon="1.35175">
        <ele>283.89736938477</ele>
        <time>2019-03-30T16:23:10.921Z</time>
      </trkpt>
      <trkpt lat="44.95179" lon="1.34908">
        <ele>276.73526000977</ele>
        <time>2019-03-30T16:23:31.614Z</time>
      </trkpt>
      <trkpt lat="44.95217" lon="1.34904">
        <ele>278.19229125977</ele>
        <time>2019-03-30T16:23:52.313Z</time>
      </trkpt>
      <trkpt lat="44.9526" lon="1.34925">
        <ele>275.40539550781</ele>
        <time>2019-03-30T16:24:13.020Z</time>
      </trkpt>
      <trkpt lat="44.9534" lon="1.34937">
        <ele>273.67276000977</ele>
        <time>2019-03-30T16:24:33.740Z</time>
      </trkpt>
      <trkpt lat="44.95387" lon="1.34942">
        <ele>273.41549682617</ele>
        <time>2019-03-30T16:24:54.467Z</time>
      </trkpt>
      <trkpt lat="44.95409" lon="1.34932">
        <ele>274.51889038086</ele>
        <time>2019-03-30T16:25:15.198Z</time>
      </trkpt>
      <trkpt lat="44.95418" lon="1.34896">
        <ele>275.91641235352</ele>
        <time>2019-03-30T16:25:35.933Z</time>
      </trkpt>
      <trkpt lat="44.9541" lon="1.34796">
        <ele>271.53201293945</ele>
        <time>2019-03-30T16:25:56.680Z</time>
      </trkpt>
      <trkpt lat="44.95417" lon="1.34749">
        <ele>267.79257202148</ele>
        <time>2019-03-30T16:26:17.432Z</time>
      </trkpt>
      <trkpt lat="44.95431" lon="1.34689">
        <ele>264.27517700195</ele>
        <time>2019-03-30T16:26:38.191Z</time>
      </trkpt>
      <trkpt lat="44.95511" lon="1.34458">
        <ele>255.02125549316</ele>
        <time>2019-03-30T16:26:58.979Z</time>
      </trkpt>
      <trkpt lat="44.9553" lon="1.34381">
        <ele>256.31097412109</ele>
        <time>2019-03-30T16:27:19.777Z</time>
      </trkpt>
      <trkpt lat="44.95549" lon="1.34264">
        <ele>258.39361572266</ele>
        <time>2019-03-30T16:27:40.588Z</time>
      </trkpt>
      <trkpt lat="44.95568" lon="1.34231">
        <ele>259.93151855469</ele>
        <time>2019-03-30T16:28:01.404Z</time>
      </trkpt>
      <trkpt lat="44.95615" lon="1.34188">
        <ele>261.86837768555</ele>
        <time>2019-03-30T16:28:22.229Z</time>
      </trkpt>
      <trkpt lat="44.95666" lon="1.3409">
        <ele>260.86016845703</ele>
        <time>2019-03-30T16:28:43.068Z</time>
      </trkpt>
      <trkpt lat="44.95697" lon="1.34063">
        <ele>262.6711730957</ele>
        <time>2019-03-30T16:29:03.913Z</time>
      </trkpt>
      <trkpt lat="44.9577" lon="1.34066">
        <ele>265.15884399414</ele>
        <time>2019-03-30T16:29:24.769Z</time>
      </trkpt>
      <trkpt lat="44.95805" lon="1.34043">
        <ele>266.33117675781</ele>
        <time>2019-03-30T16:29:45.632Z</time>
      </trkpt>
      <trkpt lat="44.95839" lon="1.34009">
        <ele>267.59957885742</ele>
        <time>2019-03-30T16:30:06.501Z</time>
      </trkpt>
      <trkpt lat="44.95904" lon="1.33968">
        <ele>269.00592041016</ele>
        <time>2019-03-30T16:30:27.382Z</time>
      </trkpt>
      <trkpt lat="44.95915" lon="1.33953">
        <ele>267.36380004883</ele>
        <time>2019-03-30T16:30:48.265Z</time>
      </trkpt>
      <trkpt lat="44.95943" lon="1.33872">
        <ele>264.46090698242</ele>
        <time>2019-03-30T16:31:09.158Z</time>
      </trkpt>
      <trkpt lat="44.96006" lon="1.3379">
        <ele>270.57827758789</ele>
        <time>2019-03-30T16:31:30.065Z</time>
      </trkpt>
      <trkpt lat="44.96036" lon="1.337">
        <ele>271.44885253906</ele>
        <time>2019-03-30T16:31:50.983Z</time>
      </trkpt>
      <trkpt lat="44.96055" lon="1.33675">
        <ele>273.92034912109</ele>
        <time>2019-03-30T16:32:11.906Z</time>
      </trkpt>
      <trkpt lat="44.96093" lon="1.33653">
        <ele>278.68756103516</ele>
        <time>2019-03-30T16:32:32.835Z</time>
      </trkpt>
      <trkpt lat="44.96093" lon="1.33653">
        <ele>278.68878173828</ele>
        <time>2019-03-30T16:32:53.764Z</time>
      </trkpt>
      <trkpt lat="44.96145" lon="1.3364">
        <ele>283.64904785156</ele>
        <time>2019-03-30T16:33:14.702Z</time>
      </trkpt>
      <trkpt lat="44.96166" lon="1.33613">
        <ele>282.25881958008</ele>
        <time>2019-03-30T16:33:35.644Z</time>
      </trkpt>
      <trkpt lat="44.96175" lon="1.33524">
        <ele>282.51458740234</ele>
        <time>2019-03-30T16:33:56.596Z</time>
      </trkpt>
      <trkpt lat="44.96239" lon="1.33318">
        <ele>285.85647583008</ele>
        <time>2019-03-30T16:34:17.574Z</time>
      </trkpt>
      <trkpt lat="44.96253" lon="1.33289">
        <ele>287.12411499023</ele>
        <time>2019-03-30T16:34:38.556Z</time>
      </trkpt>
      <trkpt lat="44.9628" lon="1.33269">
        <ele>289.71109008789</ele>
        <time>2019-03-30T16:34:59.543Z</time>
      </trkpt>
      <trkpt lat="44.9631" lon="1.33278">
        <ele>292.05615234375</ele>
        <time>2019-03-30T16:35:20.535Z</time>
      </trkpt>
      <trkpt lat="44.9631" lon="1.33278">
        <ele>292.05642700195</ele>
        <time>2019-03-30T16:35:41.527Z</time>
      </trkpt>
      <trkpt lat="44.9631" lon="1.33278">
        <ele>292.05688476562</ele>
        <time>2019-03-30T16:36:02.519Z</time>
      </trkpt>
      <trkpt lat="44.96312" lon="1.33278">
        <ele>292.14605712891</ele>
        <time>2019-03-30T16:36:23.511Z</time>
      </trkpt>
      <trkpt lat="44.96366" lon="1.33292">
        <ele>294.90853881836</ele>
        <time>2019-03-30T16:36:44.512Z</time>
      </trkpt>
      <trkpt lat="44.96452" lon="1.33223">
        <ele>296.62054443359</ele>
        <time>2019-03-30T16:37:05.529Z</time>
      </trkpt>
      <trkpt lat="44.96452" lon="1.33223">
        <ele>296.62054443359</ele>
        <time>2019-03-30T16:37:26.546Z</time>
      </trkpt>
      <trkpt lat="44.96483" lon="1.33197">
        <ele>296.27740478516</ele>
        <time>2019-03-30T16:37:47.568Z</time>
      </trkpt>
      <trkpt lat="44.96571" lon="1.33112">
        <ele>294.64691162109</ele>
        <time>2019-03-30T16:38:08.607Z</time>
      </trkpt>
      <trkpt lat="44.96623" lon="1.33022">
        <ele>303.95248413086</ele>
        <time>2019-03-30T16:38:29.660Z</time>
      </trkpt>
      <trkpt lat="44.96669" lon="1.32902">
        <ele>300.5989074707</ele>
        <time>2019-03-30T16:38:50.728Z</time>
      </trkpt>
      <trkpt lat="44.96703" lon="1.32859">
        <ele>296.05020141602</ele>
        <time>2019-03-30T16:39:11.803Z</time>
      </trkpt>
      <trkpt lat="44.96816" lon="1.32722">
        <ele>290.11151123047</ele>
        <time>2019-03-30T16:39:32.902Z</time>
      </trkpt>
      <trkpt lat="44.96939" lon="1.32571">
        <ele>292.79867553711</ele>
        <time>2019-03-30T16:39:54.027Z</time>
      </trkpt>
      <trkpt lat="44.96952" lon="1.32554">
        <ele>293.83096313477</ele>
        <time>2019-03-30T16:40:15.155Z</time>
      </trkpt>
      <trkpt lat="44.96952" lon="1.32554">
        <ele>293.83135986328</ele>
        <time>2019-03-30T16:40:36.283Z</time>
      </trkpt>
      <trkpt lat="44.96988" lon="1.32509">
        <ele>295.75198364258</ele>
        <time>2019-03-30T16:40:57.419Z</time>
      </trkpt>
      <trkpt lat="44.97062" lon="1.3242">
        <ele>299.21990966797</ele>
        <time>2019-03-30T16:41:18.571Z</time>
      </trkpt>
      <trkpt lat="44.97068" lon="1.32408">
        <ele>299.41067504883</ele>
        <time>2019-03-30T16:41:39.724Z</time>
      </trkpt>
      <trkpt lat="44.97091" lon="1.3232">
        <ele>301.25143432617</ele>
        <time>2019-03-30T16:42:00.888Z</time>
      </trkpt>
      <trkpt lat="44.97116" lon="1.32264">
        <ele>301.79916381836</ele>
        <time>2019-03-30T16:42:22.059Z</time>
      </trkpt>
      <trkpt lat="44.97132" lon="1.32243">
        <ele>300.93673706055</ele>
        <time>2019-03-30T16:42:43.234Z</time>
      </trkpt>
      <trkpt lat="44.97132" lon="1.32243">
        <ele>300.93572998047</ele>
        <time>2019-03-30T16:43:04.409Z</time>
      </trkpt>
      <trkpt lat="44.97179" lon="1.32206">
        <ele>299.033203125</ele>
        <time>2019-03-30T16:43:25.592Z</time>
      </trkpt>
      <trkpt lat="44.97229" lon="1.32185">
        <ele>297.58459472656</ele>
        <time>2019-03-30T16:43:46.784Z</time>
      </trkpt>
      <trkpt lat="44.9728" lon="1.32176">
        <ele>296.59341430664</ele>
        <time>2019-03-30T16:44:07.984Z</time>
      </trkpt>
      <trkpt lat="44.9728" lon="1.32176">
        <ele>296.59323120117</ele>
        <time>2019-03-30T16:44:29.184Z</time>
      </trkpt>
      <trkpt lat="44.97415" lon="1.32144">
        <ele>300</ele>
        <time>2019-03-30T16:44:50.406Z</time>
      </trkpt>
      <trkpt lat="44.97415" lon="1.32144">
        <ele>300</ele>
        <time>2019-03-30T16:45:11.628Z</time>
      </trkpt>
      <trkpt lat="44.97417" lon="1.32192">
        <ele>300</ele>
        <time>2019-03-30T16:45:32.855Z</time>
      </trkpt>
      <trkpt lat="44.97418" lon="1.32219">
        <ele>300</ele>
        <time>2019-03-30T16:45:54.086Z</time>
      </trkpt>
      <trkpt lat="44.97418" lon="1.32224">
        <ele>300</ele>
        <time>2019-03-30T16:46:15.317Z</time>
      </trkpt>
      <trkpt lat="44.97418" lon="1.32224">
        <ele>300</ele>
        <time>2019-03-30T16:46:36.548Z</time>
      </trkpt>
      <trkpt lat="44.97418" lon="1.32229">
        <ele>300</ele>
        <time>2019-03-30T16:46:57.780Z</time>
      </trkpt>
      <trkpt lat="44.97418" lon="1.32229">
        <ele>300</ele>
        <time>2019-03-30T16:47:19.012Z</time>
      </trkpt>
      <trkpt lat="44.97418" lon="1.32255">
        <ele>299.41165161133</ele>
        <time>2019-03-30T16:47:40.247Z</time>
      </trkpt>
      <trkpt lat="44.97418" lon="1.32255">
        <ele>299.41165161133</ele>
        <time>2019-03-30T16:48:01.482Z</time>
      </trkpt>
      <trkpt lat="44.97415" lon="1.32285">
        <ele>299.01992797852</ele>
        <time>2019-03-30T16:48:22.720Z</time>
      </trkpt>
    </trkseg>
  </trk>
</gpx>